PWSweather.com
Personal Weather Stations
Station Observations
IW2DCW
Centro Citta', VimercateIT 20871

Centro Citta'VimercateIT 20871

Lat: 45.614405, Lon: 9.368358

Elevation: 610

Station Type: Davis Vantage Pro 2

vento.excalibur.it/meteo

High Low Average
Temperature 40.0°F4.4°C 32.3°F0.2°C 35.5°F1.9°C
Dew Point 38.4°F3.6°C 31.3°F-0.4°C 34.4°F1.3°C
Winds 13.0 mph 20.9 kmh Calm Calm 3.0 mph WSW4.8 kmh WSW
Wind Gusts 17.0 mph27.4 kmh -- 4.0 mph6.4 kmh
Humidity 97% 94% 96%
Pressure 29.45 in997.3 mb 29.25 in990.5 mb -
Precipitation 0.89 in22.6 mm - -
Hour Temp Dew Point Humidity Winds Wind Gusts Pressure Precip Precip Rate Daily Precip Total
12:00 AM 33.1°F0.6°C 32.1°F0.1°C 96% Calm Calm -- 29.32 in992.9 mb 0.02 in0.5 mm 0.00 in0.0 mm 0.53 in13.5 mm
12:01 AM 33.1°F0.6°C 32.1°F0.1°C 96% Calm Calm -- 29.32 in992.9 mb 0.02 in0.5 mm 0.00 in0.0 mm 0.02 in0.5 mm
12:02 AM 33.1°F0.6°C 32.1°F0.1°C 96% Calm Calm -- 29.31 in992.6 mb 0.02 in0.5 mm 0.00 in0.0 mm 0.02 in0.5 mm
12:03 AM 33.1°F0.6°C 32.1°F0.1°C 96% Calm Calm -- 29.31 in992.6 mb 0.02 in0.5 mm 0.00 in0.0 mm 0.02 in0.5 mm
12:04 AM 33.1°F0.6°C 32.1°F0.1°C 96% Calm Calm -- 29.31 in992.6 mb 0.02 in0.5 mm 0.00 in0.0 mm 0.02 in0.5 mm
12:05 AM 33.1°F0.6°C 32.1°F0.1°C 96% Calm Calm -- 29.32 in992.9 mb 0.02 in0.5 mm 0.00 in0.0 mm 0.02 in0.5 mm
12:06 AM 33.1°F0.6°C 32.1°F0.1°C 96% Calm Calm -- 29.32 in992.9 mb 0.02 in0.5 mm 0.00 in0.0 mm 0.02 in0.5 mm
12:07 AM 33.1°F0.6°C 32.1°F0.1°C 96% 1.0 mph NNW1.6 kmh NNW 1.0 mph1.6 kmh 29.32 in992.9 mb 0.02 in0.5 mm 0.00 in0.0 mm 0.02 in0.5 mm
12:08 AM 33.0°F0.6°C 32.0°F0.0°C 96% 1.0 mph NNW1.6 kmh NNW 2.0 mph3.2 kmh 29.32 in992.9 mb 0.02 in0.5 mm 0.00 in0.0 mm 0.02 in0.5 mm
12:09 AM 33.0°F0.6°C 32.0°F0.0°C 96% 1.0 mph NNW1.6 kmh NNW 2.0 mph3.2 kmh 29.31 in992.6 mb 0.02 in0.5 mm 0.00 in0.0 mm 0.02 in0.5 mm
12:10 AM 33.0°F0.6°C 32.0°F0.0°C 96% 1.0 mph NNW1.6 kmh NNW 2.0 mph3.2 kmh 29.31 in992.6 mb 0.02 in0.5 mm 0.00 in0.0 mm 0.02 in0.5 mm
12:11 AM 33.0°F0.6°C 32.0°F0.0°C 96% 1.0 mph NNW1.6 kmh NNW 2.0 mph3.2 kmh 29.31 in992.6 mb 0.02 in0.5 mm 0.00 in0.0 mm 0.02 in0.5 mm
12:12 AM 33.0°F0.6°C 32.0°F0.0°C 96% 2.0 mph NNW3.2 kmh NNW 2.0 mph3.2 kmh 29.31 in992.6 mb 0.02 in0.5 mm 0.00 in0.0 mm 0.02 in0.5 mm
12:13 AM 33.0°F0.6°C 32.0°F0.0°C 96% 1.0 mph NNW1.6 kmh NNW 2.0 mph3.2 kmh 29.31 in992.6 mb 0.02 in0.5 mm 0.00 in0.0 mm 0.02 in0.5 mm
12:14 AM 33.0°F0.6°C 32.0°F0.0°C 96% Calm Calm 2.0 mph3.2 kmh 29.31 in992.6 mb 0.02 in0.5 mm 0.00 in0.0 mm 0.02 in0.5 mm
12:15 AM 33.0°F0.6°C 32.0°F0.0°C 96% Calm Calm 1.0 mph1.6 kmh 29.30 in992.2 mb 0.02 in0.5 mm 0.00 in0.0 mm 0.02 in0.5 mm
12:16 AM 33.0°F0.6°C 32.0°F0.0°C 96% Calm Calm 1.0 mph1.6 kmh 29.30 in992.2 mb 0.02 in0.5 mm 0.00 in0.0 mm 0.02 in0.5 mm
12:17 AM 33.1°F0.6°C 32.1°F0.1°C 96% Calm Calm -- 29.30 in992.2 mb 0.02 in0.5 mm 0.00 in0.0 mm 0.02 in0.5 mm
12:18 AM 33.1°F0.6°C 32.1°F0.1°C 96% Calm Calm -- 29.30 in992.2 mb 0.02 in0.5 mm 0.00 in0.0 mm 0.02 in0.5 mm
12:19 AM 33.1°F0.6°C 32.1°F0.1°C 96% Calm Calm -- 29.30 in992.2 mb 0.02 in0.5 mm 0.00 in0.0 mm 0.02 in0.5 mm
12:20 AM 33.2°F0.7°C 32.2°F0.1°C 96% Calm Calm -- 29.30 in992.2 mb 0.02 in0.5 mm 0.00 in0.0 mm 0.02 in0.5 mm
12:21 AM 33.2°F0.7°C 32.2°F0.1°C 96% Calm Calm -- 29.30 in992.2 mb 0.02 in0.5 mm 0.00 in0.0 mm 0.02 in0.5 mm
12:22 AM 33.2°F0.7°C 32.2°F0.1°C 96% Calm Calm -- 29.30 in992.2 mb 0.02 in0.5 mm 0.00 in0.0 mm 0.02 in0.5 mm
12:23 AM 33.2°F0.7°C 32.2°F0.1°C 96% Calm Calm -- 29.30 in992.2 mb 0.01 in0.3 mm 0.00 in0.0 mm 0.02 in0.5 mm
12:24 AM 33.3°F0.7°C 32.3°F0.2°C 96% Calm Calm -- 29.30 in992.2 mb 0.01 in0.3 mm 0.00 in0.0 mm 0.02 in0.5 mm
12:25 AM 33.3°F0.7°C 32.3°F0.2°C 96% Calm Calm 2.0 mph3.2 kmh 29.30 in992.2 mb 0.02 in0.5 mm 0.60 in15.2 mm 0.01 in0.3 mm
12:26 AM 33.3°F0.7°C 32.3°F0.2°C 96% 3.0 mph NNW4.8 kmh NNW 4.0 mph6.4 kmh 29.30 in992.2 mb 0.02 in0.5 mm 0.00 in0.0 mm 0.01 in0.3 mm
12:27 AM 33.3°F0.7°C 32.3°F0.2°C 96% 3.0 mph NNW4.8 kmh NNW 4.0 mph6.4 kmh 29.29 in991.9 mb 0.02 in0.5 mm 0.00 in0.0 mm 0.01 in0.3 mm
12:28 AM 33.3°F0.7°C 32.3°F0.2°C 96% 3.0 mph N4.8 kmh N 4.0 mph6.4 kmh 29.29 in991.9 mb 0.02 in0.5 mm 0.00 in0.0 mm 0.01 in0.3 mm
12:29 AM 33.3°F0.7°C 32.3°F0.2°C 96% 3.0 mph N4.8 kmh N 5.0 mph8.0 kmh 29.29 in991.9 mb 0.02 in0.5 mm 0.00 in0.0 mm 0.01 in0.3 mm
12:30 AM 33.3°F0.7°C 32.3°F0.2°C 96% 3.0 mph N4.8 kmh N 5.0 mph8.0 kmh 29.29 in991.9 mb 0.02 in0.5 mm 0.00 in0.0 mm 0.01 in0.3 mm
12:31 AM 33.2°F0.7°C 32.2°F0.1°C 96% 3.0 mph N4.8 kmh N 4.0 mph6.4 kmh 29.29 in991.9 mb 0.02 in0.5 mm 0.00 in0.0 mm 0.01 in0.3 mm
12:32 AM 33.2°F0.7°C 32.2°F0.1°C 96% 3.0 mph N4.8 kmh N 4.0 mph6.4 kmh 29.29 in991.9 mb 0.02 in0.5 mm 0.00 in0.0 mm 0.01 in0.3 mm
12:33 AM 33.2°F0.7°C 32.2°F0.1°C 96% 3.0 mph N4.8 kmh N 4.0 mph6.4 kmh 29.29 in991.9 mb 0.02 in0.5 mm 0.00 in0.0 mm 0.01 in0.3 mm
12:34 AM 33.2°F0.7°C 32.2°F0.1°C 96% 3.0 mph N4.8 kmh N 4.0 mph6.4 kmh 29.29 in991.9 mb 0.02 in0.5 mm 0.00 in0.0 mm 0.01 in0.3 mm
12:35 AM 33.2°F0.7°C 32.2°F0.1°C 96% 2.0 mph N3.2 kmh N 4.0 mph6.4 kmh 29.29 in991.9 mb 0.02 in0.5 mm 0.00 in0.0 mm 0.01 in0.3 mm
12:36 AM 33.2°F0.7°C 32.2°F0.1°C 96% 2.0 mph N3.2 kmh N 4.0 mph6.4 kmh 29.29 in991.9 mb 0.02 in0.5 mm 0.00 in0.0 mm 0.01 in0.3 mm
12:37 AM 33.2°F0.7°C 32.2°F0.1°C 96% 2.0 mph N3.2 kmh N 4.0 mph6.4 kmh 29.29 in991.9 mb 0.02 in0.5 mm 0.00 in0.0 mm 0.01 in0.3 mm
12:38 AM 33.2°F0.7°C 32.2°F0.1°C 96% 1.0 mph N1.6 kmh N 3.0 mph4.8 kmh 29.29 in991.9 mb 0.02 in0.5 mm 0.00 in0.0 mm 0.01 in0.3 mm
12:39 AM 33.2°F0.7°C 32.2°F0.1°C 96% 1.0 mph N1.6 kmh N 3.0 mph4.8 kmh 29.30 in992.2 mb 0.02 in0.5 mm 0.00 in0.0 mm 0.01 in0.3 mm
12:40 AM 33.2°F0.7°C 32.2°F0.1°C 96% 1.0 mph N1.6 kmh N 3.0 mph4.8 kmh 29.30 in992.2 mb 0.02 in0.5 mm 0.00 in0.0 mm 0.01 in0.3 mm
12:41 AM 33.2°F0.7°C 32.2°F0.1°C 96% 1.0 mph N1.6 kmh N 2.0 mph3.2 kmh 29.29 in991.9 mb 0.02 in0.5 mm 0.00 in0.0 mm 0.01 in0.3 mm
12:42 AM 33.2°F0.7°C 32.2°F0.1°C 96% 2.0 mph N3.2 kmh N 2.0 mph3.2 kmh 29.29 in991.9 mb 0.02 in0.5 mm 0.00 in0.0 mm 0.01 in0.3 mm
12:43 AM 33.2°F0.7°C 32.2°F0.1°C 96% 1.0 mph N1.6 kmh N 2.0 mph3.2 kmh 29.29 in991.9 mb 0.02 in0.5 mm 0.00 in0.0 mm 0.01 in0.3 mm
12:44 AM 33.3°F0.7°C 32.3°F0.2°C 96% Calm Calm 2.0 mph3.2 kmh 29.29 in991.9 mb 0.02 in0.5 mm 0.00 in0.0 mm 0.01 in0.3 mm
12:45 AM 33.3°F0.7°C 32.3°F0.2°C 96% Calm Calm 1.0 mph1.6 kmh 29.29 in991.9 mb 0.02 in0.5 mm 0.00 in0.0 mm 0.01 in0.3 mm
12:46 AM 33.3°F0.7°C 32.3°F0.2°C 96% Calm Calm 1.0 mph1.6 kmh 29.30 in992.2 mb 0.02 in0.5 mm 0.00 in0.0 mm 0.01 in0.3 mm
12:47 AM 33.3°F0.7°C 32.3°F0.2°C 96% 1.0 mph N1.6 kmh N 2.0 mph3.2 kmh 29.30 in992.2 mb 0.02 in0.5 mm 0.00 in0.0 mm 0.01 in0.3 mm
12:48 AM 33.3°F0.7°C 32.3°F0.2°C 96% 1.0 mph N1.6 kmh N 2.0 mph3.2 kmh 29.30 in992.2 mb 0.02 in0.5 mm 0.00 in0.0 mm 0.01 in0.3 mm
12:49 AM 33.3°F0.7°C 32.3°F0.2°C 96% 2.0 mph N3.2 kmh N 3.0 mph4.8 kmh 29.30 in992.2 mb 0.02 in0.5 mm 0.00 in0.0 mm 0.01 in0.3 mm
12:50 AM 33.3°F0.7°C 32.3°F0.2°C 96% 3.0 mph NNW4.8 kmh NNW 4.0 mph6.4 kmh 29.30 in992.2 mb 0.02 in0.5 mm 0.00 in0.0 mm 0.01 in0.3 mm
12:51 AM 33.3°F0.7°C 32.3°F0.2°C 96% 2.0 mph NW3.2 kmh NW 4.0 mph6.4 kmh 29.30 in992.2 mb 0.02 in0.5 mm 0.00 in0.0 mm 0.01 in0.3 mm
12:52 AM 33.3°F0.7°C 32.3°F0.2°C 96% 2.0 mph WNW3.2 kmh WNW 4.0 mph6.4 kmh 29.30 in992.2 mb 0.02 in0.5 mm 0.00 in0.0 mm 0.01 in0.3 mm
12:53 AM 33.2°F0.7°C 32.2°F0.1°C 96% 2.0 mph WNW3.2 kmh WNW 3.0 mph4.8 kmh 29.30 in992.2 mb 0.02 in0.5 mm 0.00 in0.0 mm 0.01 in0.3 mm
12:54 AM 33.2°F0.7°C 32.2°F0.1°C 96% 2.0 mph WNW3.2 kmh WNW 3.0 mph4.8 kmh 29.30 in992.2 mb 0.02 in0.5 mm 0.00 in0.0 mm 0.02 in0.5 mm
12:55 AM 33.2°F0.7°C 32.2°F0.1°C 96% 2.0 mph WNW3.2 kmh WNW 3.0 mph4.8 kmh 29.30 in992.2 mb 0.02 in0.5 mm 0.00 in0.0 mm 0.02 in0.5 mm
12:56 AM 33.2°F0.7°C 32.2°F0.1°C 96% 1.0 mph WNW1.6 kmh WNW 2.0 mph3.2 kmh 29.30 in992.2 mb 0.02 in0.5 mm 0.00 in0.0 mm 0.02 in0.5 mm
12:57 AM 33.2°F0.7°C 32.2°F0.1°C 96% 1.0 mph WNW1.6 kmh WNW 2.0 mph3.2 kmh 29.30 in992.2 mb 0.02 in0.5 mm 0.00 in0.0 mm 0.02 in0.5 mm
12:58 AM 33.2°F0.7°C 32.2°F0.1°C 96% 2.0 mph WNW3.2 kmh WNW 2.0 mph3.2 kmh 29.30 in992.2 mb 0.02 in0.5 mm 0.00 in0.0 mm 0.02 in0.5 mm
12:59 AM 33.2°F0.7°C 32.2°F0.1°C 96% 2.0 mph WNW3.2 kmh WNW 3.0 mph4.8 kmh 29.30 in992.2 mb 0.02 in0.5 mm 0.00 in0.0 mm 0.02 in0.5 mm
01:00 AM 33.1°F0.6°C 32.1°F0.1°C 96% 3.0 mph WNW4.8 kmh WNW 3.0 mph4.8 kmh 29.30 in992.2 mb 0.02 in0.5 mm 0.00 in0.0 mm 0.02 in0.5 mm
01:01 AM 33.1°F0.6°C 32.1°F0.1°C 96% 2.0 mph WNW3.2 kmh WNW 3.0 mph4.8 kmh 29.30 in992.2 mb 0.02 in0.5 mm 0.00 in0.0 mm 0.02 in0.5 mm
01:02 AM 33.1°F0.6°C 32.1°F0.1°C 96% 2.0 mph WNW3.2 kmh WNW 3.0 mph4.8 kmh 29.30 in992.2 mb 0.02 in0.5 mm 0.00 in0.0 mm 0.02 in0.5 mm
01:03 AM 33.1°F0.6°C 32.1°F0.1°C 96% 2.0 mph WNW3.2 kmh WNW 3.0 mph4.8 kmh 29.30 in992.2 mb 0.02 in0.5 mm 0.00 in0.0 mm 0.02 in0.5 mm
01:04 AM 33.1°F0.6°C 32.1°F0.1°C 96% 4.0 mph WSW6.4 kmh WSW 5.0 mph8.0 kmh 29.30 in992.2 mb 0.02 in0.5 mm 0.00 in0.0 mm 0.02 in0.5 mm
01:05 AM 33.1°F0.6°C 32.1°F0.1°C 96% 6.0 mph SW9.7 kmh SW 7.0 mph11.3 kmh 29.30 in992.2 mb 0.02 in0.5 mm 0.00 in0.0 mm 0.02 in0.5 mm
01:06 AM 33.1°F0.6°C 32.1°F0.1°C 96% 6.0 mph SW9.7 kmh SW 7.0 mph11.3 kmh 29.30 in992.2 mb 0.02 in0.5 mm 0.00 in0.0 mm 0.02 in0.5 mm
01:07 AM 33.1°F0.6°C 32.1°F0.1°C 96% 6.0 mph SW9.7 kmh SW 8.0 mph12.9 kmh 29.30 in992.2 mb 0.02 in0.5 mm 0.00 in0.0 mm 0.02 in0.5 mm
01:08 AM 33.0°F0.6°C 32.0°F0.0°C 96% 6.0 mph SW9.7 kmh SW 8.0 mph12.9 kmh 29.30 in992.2 mb 0.02 in0.5 mm 0.00 in0.0 mm 0.02 in0.5 mm
01:09 AM 33.0°F0.6°C 32.0°F0.0°C 96% 5.0 mph SSW8.0 kmh SSW 8.0 mph12.9 kmh 29.30 in992.2 mb 0.02 in0.5 mm 0.00 in0.0 mm 0.02 in0.5 mm
01:10 AM 33.0°F0.6°C 32.0°F0.0°C 96% 6.0 mph SSW9.7 kmh SSW 8.0 mph12.9 kmh 29.31 in992.6 mb 0.02 in0.5 mm 0.00 in0.0 mm 0.02 in0.5 mm
01:11 AM 32.9°F0.5°C 31.9°F-0.1°C 96% 7.0 mph SSW11.3 kmh SSW 10.0 mph16.1 kmh 29.30 in992.2 mb 0.02 in0.5 mm 0.00 in0.0 mm 0.02 in0.5 mm
01:12 AM 32.8°F0.4°C 31.8°F-0.1°C 96% 8.0 mph SSW12.9 kmh SSW 10.0 mph16.1 kmh 29.30 in992.2 mb 0.02 in0.5 mm 0.00 in0.0 mm 0.02 in0.5 mm
01:13 AM 32.8°F0.4°C 31.8°F-0.1°C 96% 6.0 mph SSW9.7 kmh SSW 9.0 mph14.5 kmh 29.30 in992.2 mb 0.02 in0.5 mm 0.00 in0.0 mm 0.02 in0.5 mm
01:14 AM 32.8°F0.4°C 31.8°F-0.1°C 96% 5.0 mph SSW8.0 kmh SSW 7.0 mph11.3 kmh 29.30 in992.2 mb 0.02 in0.5 mm 0.00 in0.0 mm 0.02 in0.5 mm
01:15 AM 32.8°F0.4°C 31.8°F-0.1°C 96% 5.0 mph SW8.0 kmh SW 6.0 mph9.7 kmh 29.30 in992.2 mb 0.02 in0.5 mm 0.00 in0.0 mm 0.02 in0.5 mm
01:16 AM 32.8°F0.4°C 31.8°F-0.1°C 96% 4.0 mph SW6.4 kmh SW 6.0 mph9.7 kmh 29.30 in992.2 mb 0.02 in0.5 mm 0.00 in0.0 mm 0.02 in0.5 mm
01:17 AM 32.7°F0.4°C 31.7°F-0.2°C 96% 3.0 mph SW4.8 kmh SW 5.0 mph8.0 kmh 29.30 in992.2 mb 0.03 in0.8 mm 0.60 in15.2 mm 0.03 in0.8 mm
01:18 AM 32.7°F0.4°C 31.7°F-0.2°C 96% 1.0 mph SW1.6 kmh SW 4.0 mph6.4 kmh 29.30 in992.2 mb 0.03 in0.8 mm 0.00 in0.0 mm 0.03 in0.8 mm
01:19 AM 32.8°F0.4°C 31.8°F-0.1°C 96% Calm Calm 2.0 mph3.2 kmh 29.30 in992.2 mb 0.03 in0.8 mm 0.00 in0.0 mm 0.03 in0.8 mm
01:20 AM 32.8°F0.4°C 31.8°F-0.1°C 96% Calm Calm 1.0 mph1.6 kmh 29.30 in992.2 mb 0.03 in0.8 mm 0.00 in0.0 mm 0.03 in0.8 mm
01:21 AM 32.8°F0.4°C 31.8°F-0.1°C 96% Calm Calm 1.0 mph1.6 kmh 29.30 in992.2 mb 0.04 in1.0 mm 0.60 in15.2 mm 0.04 in1.0 mm
01:22 AM 32.8°F0.4°C 31.8°F-0.1°C 96% 1.0 mph SW1.6 kmh SW 2.0 mph3.2 kmh 29.30 in992.2 mb 0.04 in1.0 mm 0.00 in0.0 mm 0.04 in1.0 mm
01:23 AM 32.8°F0.4°C 31.8°F-0.1°C 96% Calm Calm 2.0 mph3.2 kmh 29.29 in991.9 mb 0.04 in1.0 mm 0.00 in0.0 mm 0.04 in1.0 mm
01:24 AM 32.8°F0.4°C 31.8°F-0.1°C 96% 1.0 mph SW1.6 kmh SW 1.0 mph1.6 kmh 29.29 in991.9 mb 0.04 in1.0 mm 0.00 in0.0 mm 0.04 in1.0 mm
01:25 AM 32.8°F0.4°C 31.8°F-0.1°C 96% Calm Calm 1.0 mph1.6 kmh 29.29 in991.9 mb 0.04 in1.0 mm 0.00 in0.0 mm 0.05 in1.3 mm
01:26 AM 32.9°F0.5°C 31.9°F-0.1°C 96% 1.0 mph SW1.6 kmh SW 2.0 mph3.2 kmh 29.30 in992.2 mb 0.04 in1.0 mm 0.00 in0.0 mm 0.05 in1.3 mm
01:27 AM 32.9°F0.5°C 31.9°F-0.1°C 96% Calm Calm 2.0 mph3.2 kmh 29.30 in992.2 mb 0.04 in1.0 mm 0.00 in0.0 mm 0.05 in1.3 mm
01:28 AM 33.0°F0.6°C 32.0°F0.0°C 96% Calm Calm 1.0 mph1.6 kmh 29.30 in992.2 mb 0.04 in1.0 mm 0.00 in0.0 mm 0.05 in1.3 mm
01:29 AM 33.1°F0.6°C 32.0°F0.0°C 96% Calm Calm 1.0 mph1.6 kmh 29.29 in991.9 mb 0.05 in1.3 mm 0.60 in15.2 mm 0.06 in1.5 mm
01:30 AM 33.1°F0.6°C 32.1°F0.1°C 96% 1.0 mph SW1.6 kmh SW 1.0 mph1.6 kmh 29.29 in991.9 mb 0.05 in1.3 mm 0.00 in0.0 mm 0.06 in1.5 mm
01:31 AM 33.1°F0.6°C 32.1°F0.1°C 96% Calm Calm 1.0 mph1.6 kmh 29.29 in991.9 mb 0.05 in1.3 mm 0.00 in0.0 mm 0.06 in1.5 mm
01:32 AM 33.1°F0.6°C 32.1°F0.1°C 96% Calm Calm 2.0 mph3.2 kmh 29.29 in991.9 mb 0.05 in1.3 mm 0.00 in0.0 mm 0.06 in1.5 mm
01:33 AM 33.1°F0.6°C 32.1°F0.1°C 96% 3.0 mph W4.8 kmh W 4.0 mph6.4 kmh 29.29 in991.9 mb 0.05 in1.3 mm 0.00 in0.0 mm 0.06 in1.5 mm
01:34 AM 33.1°F0.6°C 32.1°F0.1°C 96% 4.0 mph N6.4 kmh N 5.0 mph8.0 kmh 29.28 in991.5 mb 0.06 in1.5 mm 0.60 in15.2 mm 0.06 in1.5 mm
01:35 AM 33.1°F0.6°C 32.1°F0.1°C 96% 3.0 mph NNE4.8 kmh NNE 5.0 mph8.0 kmh 29.28 in991.5 mb 0.06 in1.5 mm 0.00 in0.0 mm 0.06 in1.5 mm
01:36 AM 33.2°F0.7°C 32.2°F0.1°C 96% 2.0 mph NNE3.2 kmh NNE 4.0 mph6.4 kmh 29.28 in991.5 mb 0.06 in1.5 mm 0.00 in0.0 mm 0.06 in1.5 mm
01:37 AM 33.2°F0.7°C 32.2°F0.1°C 96% 2.0 mph NNE3.2 kmh NNE 3.0 mph4.8 kmh 29.28 in991.5 mb 0.06 in1.5 mm 0.00 in0.0 mm 0.06 in1.5 mm
01:38 AM 33.2°F0.7°C 32.2°F0.1°C 96% 2.0 mph NNE3.2 kmh NNE 3.0 mph4.8 kmh 29.28 in991.5 mb 0.06 in1.5 mm 0.00 in0.0 mm 0.06 in1.5 mm
01:39 AM 33.2°F0.7°C 32.2°F0.1°C 96% 1.0 mph NNE1.6 kmh NNE 3.0 mph4.8 kmh 29.28 in991.5 mb 0.06 in1.5 mm 0.00 in0.0 mm 0.06 in1.5 mm
01:40 AM 33.2°F0.7°C 32.2°F0.1°C 96% 1.0 mph NNE1.6 kmh NNE 2.0 mph3.2 kmh 29.28 in991.5 mb 0.06 in1.5 mm 0.00 in0.0 mm 0.06 in1.5 mm
01:41 AM 33.2°F0.7°C 32.2°F0.1°C 96% 3.0 mph NNE4.8 kmh NNE 4.0 mph6.4 kmh 29.28 in991.5 mb 0.06 in1.5 mm 0.00 in0.0 mm 0.06 in1.5 mm
01:42 AM 33.2°F0.7°C 32.2°F0.1°C 96% 4.0 mph NNE6.4 kmh NNE 5.0 mph8.0 kmh 29.28 in991.5 mb 0.06 in1.5 mm 0.00 in0.0 mm 0.06 in1.5 mm
01:43 AM 33.2°F0.7°C 32.2°F0.1°C 96% 3.0 mph NE4.8 kmh NE 5.0 mph8.0 kmh 29.27 in991.2 mb 0.06 in1.5 mm 0.00 in0.0 mm 0.07 in1.8 mm
01:44 AM 33.2°F0.7°C 32.2°F0.1°C 96% 3.0 mph NE4.8 kmh NE 4.0 mph6.4 kmh 29.28 in991.5 mb 0.06 in1.5 mm 0.00 in0.0 mm 0.07 in1.8 mm
01:45 AM 33.2°F0.7°C 32.2°F0.1°C 96% 2.0 mph NE3.2 kmh NE 4.0 mph6.4 kmh 29.28 in991.5 mb 0.06 in1.5 mm 0.00 in0.0 mm 0.07 in1.8 mm
01:46 AM 33.2°F0.7°C 32.2°F0.1°C 96% 1.0 mph NNE1.6 kmh NNE 3.0 mph4.8 kmh 29.28 in991.5 mb 0.06 in1.5 mm 0.00 in0.0 mm 0.07 in1.8 mm
01:47 AM 33.2°F0.7°C 32.2°F0.1°C 96% 2.0 mph NNW3.2 kmh NNW 3.0 mph4.8 kmh 29.28 in991.5 mb 0.06 in1.5 mm 0.00 in0.0 mm 0.07 in1.8 mm
01:48 AM 33.2°F0.7°C 32.2°F0.1°C 96% 4.0 mph W6.4 kmh W 6.0 mph9.7 kmh 29.28 in991.5 mb 0.06 in1.5 mm 0.00 in0.0 mm 0.07 in1.8 mm
01:49 AM 33.2°F0.7°C 32.2°F0.1°C 96% 4.0 mph WSW6.4 kmh WSW 6.0 mph9.7 kmh 29.29 in991.9 mb 0.06 in1.5 mm 0.00 in0.0 mm 0.07 in1.8 mm
01:50 AM 33.2°F0.7°C 32.2°F0.1°C 96% 4.0 mph WSW6.4 kmh WSW 6.0 mph9.7 kmh 29.29 in991.9 mb 0.06 in1.5 mm 0.00 in0.0 mm 0.07 in1.8 mm
01:51 AM 33.1°F0.6°C 32.1°F0.1°C 96% 5.0 mph WSW8.0 kmh WSW 7.0 mph11.3 kmh 29.29 in991.9 mb 0.06 in1.5 mm 0.00 in0.0 mm 0.07 in1.8 mm
01:52 AM 33.1°F0.6°C 32.1°F0.1°C 96% 6.0 mph WSW9.7 kmh WSW 7.0 mph11.3 kmh 29.29 in991.9 mb 0.06 in1.5 mm 0.00 in0.0 mm 0.07 in1.8 mm
01:53 AM 33.0°F0.6°C 32.0°F0.0°C 96% 4.0 mph WSW6.4 kmh WSW 7.0 mph11.3 kmh 29.29 in991.9 mb 0.06 in1.5 mm 0.00 in0.0 mm 0.07 in1.8 mm
01:54 AM 33.0°F0.6°C 32.0°F0.0°C 96% 5.0 mph WSW8.0 kmh WSW 7.0 mph11.3 kmh 29.29 in991.9 mb 0.06 in1.5 mm 0.00 in0.0 mm 0.07 in1.8 mm
01:55 AM 33.0°F0.6°C 32.0°F0.0°C 96% 5.0 mph WSW8.0 kmh WSW 7.0 mph11.3 kmh 29.30 in992.2 mb 0.06 in1.5 mm 0.00 in0.0 mm 0.07 in1.8 mm
01:56 AM 32.9°F0.5°C 31.9°F-0.1°C 96% 6.0 mph SW9.7 kmh SW 8.0 mph12.9 kmh 29.30 in992.2 mb 0.06 in1.5 mm 0.00 in0.0 mm 0.07 in1.8 mm
01:57 AM 32.8°F0.4°C 31.8°F-0.1°C 96% 4.0 mph SW6.4 kmh SW 8.0 mph12.9 kmh 29.30 in992.2 mb 0.06 in1.5 mm 0.00 in0.0 mm 0.07 in1.8 mm
01:58 AM 32.8°F0.4°C 31.8°F-0.1°C 96% 3.0 mph SW4.8 kmh SW 6.0 mph9.7 kmh 29.30 in992.2 mb 0.06 in1.5 mm 0.00 in0.0 mm 0.07 in1.8 mm
01:59 AM 32.8°F0.4°C 31.8°F-0.1°C 96% 3.0 mph WSW4.8 kmh WSW 5.0 mph8.0 kmh 29.30 in992.2 mb 0.06 in1.5 mm 0.00 in0.0 mm 0.07 in1.8 mm
02:00 AM 32.8°F0.4°C 31.8°F-0.1°C 96% 3.0 mph WSW4.8 kmh WSW 5.0 mph8.0 kmh 29.30 in992.2 mb 0.06 in1.5 mm 0.00 in0.0 mm 0.08 in2.0 mm
02:01 AM 32.8°F0.4°C 31.8°F-0.1°C 96% 3.0 mph WSW4.8 kmh WSW 6.0 mph9.7 kmh 29.30 in992.2 mb 0.06 in1.5 mm 0.00 in0.0 mm 0.08 in2.0 mm
02:02 AM 32.7°F0.4°C 31.7°F-0.2°C 96% 2.0 mph W3.2 kmh W 6.0 mph9.7 kmh 29.30 in992.2 mb 0.06 in1.5 mm 0.00 in0.0 mm 0.08 in2.0 mm
02:03 AM 32.7°F0.4°C 31.7°F-0.2°C 96% 2.0 mph W3.2 kmh W 4.0 mph6.4 kmh 29.30 in992.2 mb 0.06 in1.5 mm 0.00 in0.0 mm 0.08 in2.0 mm
02:04 AM 32.7°F0.4°C 31.7°F-0.2°C 96% 1.0 mph W1.6 kmh W 4.0 mph6.4 kmh 29.30 in992.2 mb 0.06 in1.5 mm 0.00 in0.0 mm 0.08 in2.0 mm
02:05 AM 32.7°F0.4°C 31.7°F-0.2°C 96% 1.0 mph W1.6 kmh W 2.0 mph3.2 kmh 29.30 in992.2 mb 0.06 in1.5 mm 0.00 in0.0 mm 0.08 in2.0 mm
02:06 AM 32.7°F0.4°C 31.7°F-0.2°C 96% 2.0 mph W3.2 kmh W 3.0 mph4.8 kmh 29.30 in992.2 mb 0.06 in1.5 mm 0.00 in0.0 mm 0.08 in2.0 mm
02:07 AM 32.7°F0.4°C 31.7°F-0.2°C 96% 2.0 mph W3.2 kmh W 3.0 mph4.8 kmh 29.30 in992.2 mb 0.07 in1.8 mm 0.60 in15.2 mm 0.09 in2.3 mm
02:08 AM 32.7°F0.4°C 31.7°F-0.2°C 96% 3.0 mph W4.8 kmh W 3.0 mph4.8 kmh 29.30 in992.2 mb 0.07 in1.8 mm 0.00 in0.0 mm 0.09 in2.3 mm
02:09 AM 32.7°F0.4°C 31.7°F-0.2°C 96% 4.0 mph WSW6.4 kmh WSW 6.0 mph9.7 kmh 29.30 in992.2 mb 0.06 in1.5 mm 0.00 in0.0 mm 0.09 in2.3 mm
02:10 AM 32.7°F0.4°C 31.7°F-0.2°C 96% 5.0 mph WSW8.0 kmh WSW 6.0 mph9.7 kmh 29.30 in992.2 mb 0.06 in1.5 mm 0.00 in0.0 mm 0.09 in2.3 mm
02:11 AM 32.7°F0.4°C 31.7°F-0.2°C 96% 4.0 mph WSW6.4 kmh WSW 6.0 mph9.7 kmh 29.30 in992.2 mb 0.06 in1.5 mm 0.00 in0.0 mm 0.09 in2.3 mm
02:12 AM 32.7°F0.4°C 31.7°F-0.2°C 96% 3.0 mph WSW4.8 kmh WSW 6.0 mph9.7 kmh 29.30 in992.2 mb 0.07 in1.8 mm 0.60 in15.2 mm 0.09 in2.3 mm
02:13 AM 32.7°F0.4°C 31.7°F-0.2°C 96% 2.0 mph WSW3.2 kmh WSW 4.0 mph6.4 kmh 29.30 in992.2 mb 0.07 in1.8 mm 0.00 in0.0 mm 0.09 in2.3 mm
02:14 AM 32.6°F0.3°C 31.6°F-0.2°C 96% 4.0 mph WSW6.4 kmh WSW 5.0 mph8.0 kmh 29.30 in992.2 mb 0.07 in1.8 mm 0.00 in0.0 mm 0.09 in2.3 mm
02:15 AM 32.6°F0.3°C 31.6°F-0.2°C 96% 4.0 mph SW6.4 kmh SW 5.0 mph8.0 kmh 29.30 in992.2 mb 0.07 in1.8 mm 0.00 in0.0 mm 0.09 in2.3 mm
02:16 AM 32.6°F0.3°C 31.6°F-0.2°C 96% 7.0 mph SW11.3 kmh SW 9.0 mph14.5 kmh 29.30 in992.2 mb 0.08 in2.0 mm 0.60 in15.2 mm 0.10 in2.5 mm
02:17 AM 32.6°F0.3°C 31.6°F-0.2°C 96% 7.0 mph SW11.3 kmh SW 9.0 mph14.5 kmh 29.31 in992.6 mb 0.07 in1.8 mm 0.00 in0.0 mm 0.10 in2.5 mm
02:18 AM 32.6°F0.3°C 31.6°F-0.2°C 96% 5.0 mph SW8.0 kmh SW 9.0 mph14.5 kmh 29.31 in992.6 mb 0.07 in1.8 mm 0.00 in0.0 mm 0.10 in2.5 mm
02:19 AM 32.6°F0.3°C 31.6°F-0.2°C 96% 5.0 mph SW8.0 kmh SW 9.0 mph14.5 kmh 29.31 in992.6 mb 0.07 in1.8 mm 0.00 in0.0 mm 0.10 in2.5 mm
02:20 AM 32.5°F0.3°C 31.5°F-0.3°C 96% 6.0 mph SW9.7 kmh SW 9.0 mph14.5 kmh 29.31 in992.6 mb 0.07 in1.8 mm 0.00 in0.0 mm 0.10 in2.5 mm
02:21 AM 32.5°F0.3°C 31.5°F-0.3°C 96% 5.0 mph SW8.0 kmh SW 9.0 mph14.5 kmh 29.31 in992.6 mb 0.06 in1.5 mm 0.00 in0.0 mm 0.10 in2.5 mm
02:22 AM 32.5°F0.3°C 31.5°F-0.3°C 96% 5.0 mph SW8.0 kmh SW 8.0 mph12.9 kmh 29.31 in992.6 mb 0.06 in1.5 mm 0.00 in0.0 mm 0.10 in2.5 mm
02:23 AM 32.5°F0.3°C 31.5°F-0.3°C 96% 7.0 mph WSW11.3 kmh WSW 10.0 mph16.1 kmh 29.31 in992.6 mb 0.07 in1.8 mm 0.60 in15.2 mm 0.11 in2.8 mm
02:24 AM 32.4°F0.2°C 31.4°F-0.3°C 96% 4.0 mph WSW6.4 kmh WSW 10.0 mph16.1 kmh 29.31 in992.6 mb 0.07 in1.8 mm 0.00 in0.0 mm 0.11 in2.8 mm
02:25 AM 32.4°F0.2°C 31.4°F-0.3°C 96% 6.0 mph WSW9.7 kmh WSW 9.0 mph14.5 kmh 29.31 in992.6 mb 0.06 in1.5 mm 0.00 in0.0 mm 0.11 in2.8 mm
02:26 AM 32.4°F0.2°C 31.4°F-0.3°C 96% 7.0 mph SW11.3 kmh SW 9.0 mph14.5 kmh 29.31 in992.6 mb 0.06 in1.5 mm 0.00 in0.0 mm 0.11 in2.8 mm
02:27 AM 32.4°F0.2°C 31.4°F-0.3°C 96% 8.0 mph SW12.9 kmh SW 10.0 mph16.1 kmh 29.32 in992.9 mb 0.07 in1.8 mm 0.60 in15.2 mm 0.12 in3.0 mm
02:28 AM 32.4°F0.2°C 31.4°F-0.3°C 96% 8.0 mph SW12.9 kmh SW 11.0 mph17.7 kmh 29.32 in992.9 mb 0.07 in1.8 mm 0.00 in0.0 mm 0.12 in3.0 mm
02:29 AM 32.4°F0.2°C 31.4°F-0.3°C 96% 8.0 mph SW12.9 kmh SW 11.0 mph17.7 kmh 29.32 in992.9 mb 0.06 in1.5 mm 0.00 in0.0 mm 0.12 in3.0 mm
02:30 AM 32.4°F0.2°C 31.4°F-0.3°C 96% 9.0 mph SW14.5 kmh SW 12.0 mph19.3 kmh 29.32 in992.9 mb 0.06 in1.5 mm 0.00 in0.0 mm 0.12 in3.0 mm
02:31 AM 32.4°F0.2°C 31.4°F-0.3°C 96% 10.0 mph SW16.1 kmh SW 13.0 mph20.9 kmh 29.32 in992.9 mb 0.06 in1.5 mm 0.00 in0.0 mm 0.12 in3.0 mm
02:32 AM 32.4°F0.2°C 31.4°F-0.3°C 96% 8.0 mph SW12.9 kmh SW 13.0 mph20.9 kmh 29.32 in992.9 mb 0.07 in1.8 mm 0.60 in15.2 mm 0.13 in3.3 mm
02:33 AM 32.4°F0.2°C 31.4°F-0.3°C 96% 6.0 mph SW9.7 kmh SW 11.0 mph17.7 kmh 29.32 in992.9 mb 0.07 in1.8 mm 0.00 in0.0 mm 0.13 in3.3 mm
02:34 AM 32.4°F0.2°C 31.4°F-0.3°C 96% 6.0 mph WSW9.7 kmh WSW 9.0 mph14.5 kmh 29.32 in992.9 mb 0.06 in1.5 mm 0.00 in0.0 mm 0.13 in3.3 mm
02:35 AM 32.4°F0.2°C 31.4°F-0.3°C 96% 5.0 mph WSW8.0 kmh WSW 9.0 mph14.5 kmh 29.32 in992.9 mb 0.06 in1.5 mm 0.00 in0.0 mm 0.13 in3.3 mm
02:36 AM 32.4°F0.2°C 31.4°F-0.3°C 96% 5.0 mph WSW8.0 kmh WSW 8.0 mph12.9 kmh 29.32 in992.9 mb 0.07 in1.8 mm 0.60 in15.2 mm 0.13 in3.3 mm
02:37 AM 32.4°F0.2°C 31.4°F-0.3°C 96% 5.0 mph SW8.0 kmh SW 8.0 mph12.9 kmh 29.32 in992.9 mb 0.07 in1.8 mm 0.00 in0.0 mm 0.13 in3.3 mm
02:38 AM 32.3°F0.2°C 31.3°F-0.4°C 96% 4.0 mph SW6.4 kmh SW 8.0 mph12.9 kmh 29.32 in992.9 mb 0.07 in1.8 mm 0.00 in0.0 mm 0.13 in3.3 mm
02:39 AM 32.4°F0.2°C 31.4°F-0.3°C 96% 6.0 mph SW9.7 kmh SW 10.0 mph16.1 kmh 29.32 in992.9 mb 0.07 in1.8 mm 0.00 in0.0 mm 0.13 in3.3 mm
02:40 AM 32.4°F0.2°C 31.4°F-0.3°C 96% 6.0 mph SW9.7 kmh SW 10.0 mph16.1 kmh 29.32 in992.9 mb 0.07 in1.8 mm 0.00 in0.0 mm 0.13 in3.3 mm
02:41 AM 32.4°F0.2°C 31.4°F-0.3°C 96% 4.0 mph SW6.4 kmh SW 9.0 mph14.5 kmh 29.32 in992.9 mb 0.07 in1.8 mm 0.00 in0.0 mm 0.13 in3.3 mm
02:42 AM 32.4°F0.2°C 31.4°F-0.3°C 96% 5.0 mph WSW8.0 kmh WSW 9.0 mph14.5 kmh 29.32 in992.9 mb 0.08 in2.0 mm 0.60 in15.2 mm 0.14 in3.6 mm
02:43 AM 32.4°F0.2°C 31.4°F-0.3°C 96% 7.0 mph SW11.3 kmh SW 9.0 mph14.5 kmh 29.31 in992.6 mb 0.07 in1.8 mm 0.00 in0.0 mm 0.14 in3.6 mm
02:44 AM 32.4°F0.2°C 31.4°F-0.3°C 96% 5.0 mph WSW8.0 kmh WSW 9.0 mph14.5 kmh 29.31 in992.6 mb 0.07 in1.8 mm 0.00 in0.0 mm 0.14 in3.6 mm
02:45 AM 32.4°F0.2°C 31.4°F-0.3°C 96% 4.0 mph WSW6.4 kmh WSW 7.0 mph11.3 kmh 29.31 in992.6 mb 0.07 in1.8 mm 0.00 in0.0 mm 0.14 in3.6 mm
02:46 AM 32.4°F0.2°C 31.4°F-0.3°C 96% 5.0 mph WSW8.0 kmh WSW 7.0 mph11.3 kmh 29.31 in992.6 mb 0.07 in1.8 mm 0.00 in0.0 mm 0.14 in3.6 mm
02:47 AM 32.4°F0.2°C 31.4°F-0.3°C 96% 5.0 mph SW8.0 kmh SW 8.0 mph12.9 kmh 29.32 in992.9 mb 0.08 in2.0 mm 0.60 in15.2 mm 0.15 in3.8 mm
02:48 AM 32.4°F0.2°C 31.4°F-0.3°C 96% 4.0 mph SW6.4 kmh SW 8.0 mph12.9 kmh 29.32 in992.9 mb 0.08 in2.0 mm 0.00 in0.0 mm 0.15 in3.8 mm
02:49 AM 32.4°F0.2°C 31.4°F-0.3°C 96% 4.0 mph WSW6.4 kmh WSW 6.0 mph9.7 kmh 29.32 in992.9 mb 0.08 in2.0 mm 0.00 in0.0 mm 0.15 in3.8 mm
02:50 AM 32.4°F0.2°C 31.4°F-0.3°C 96% 7.0 mph WSW11.3 kmh WSW 8.0 mph12.9 kmh 29.32 in992.9 mb 0.08 in2.0 mm 0.00 in0.0 mm 0.15 in3.8 mm
02:51 AM 32.4°F0.2°C 31.4°F-0.3°C 96% 5.0 mph SW8.0 kmh SW 8.0 mph12.9 kmh 29.32 in992.9 mb 0.08 in2.0 mm 0.00 in0.0 mm 0.15 in3.8 mm
02:52 AM 32.4°F0.2°C 31.4°F-0.3°C 96% 5.0 mph WSW8.0 kmh WSW 7.0 mph11.3 kmh 29.32 in992.9 mb 0.09 in2.3 mm 0.60 in15.2 mm 0.16 in4.1 mm
02:53 AM 32.4°F0.2°C 31.4°F-0.3°C 96% 5.0 mph WSW8.0 kmh WSW 9.0 mph14.5 kmh 29.32 in992.9 mb 0.09 in2.3 mm 0.00 in0.0 mm 0.16 in4.1 mm
02:54 AM 32.4°F0.2°C 31.4°F-0.3°C 96% 6.0 mph WSW9.7 kmh WSW 9.0 mph14.5 kmh 29.32 in992.9 mb 0.09 in2.3 mm 0.00 in0.0 mm 0.16 in4.1 mm
02:55 AM 32.4°F0.2°C 31.4°F-0.3°C 96% 5.0 mph WSW8.0 kmh WSW 9.0 mph14.5 kmh 29.32 in992.9 mb 0.09 in2.3 mm 0.00 in0.0 mm 0.16 in4.1 mm
02:56 AM 32.4°F0.2°C 31.4°F-0.3°C 96% 4.0 mph WSW6.4 kmh WSW 7.0 mph11.3 kmh 29.32 in992.9 mb 0.09 in2.3 mm 0.00 in0.0 mm 0.16 in4.1 mm
02:57 AM 32.4°F0.2°C 31.4°F-0.3°C 96% 2.0 mph WSW3.2 kmh WSW 7.0 mph11.3 kmh 29.32 in992.9 mb 0.09 in2.3 mm 0.00 in0.0 mm 0.17 in4.3 mm
02:58 AM 32.4°F0.2°C 31.4°F-0.3°C 96% 2.0 mph SW3.2 kmh SW 3.0 mph4.8 kmh 29.32 in992.9 mb 0.09 in2.3 mm 0.00 in0.0 mm 0.17 in4.3 mm
02:59 AM 32.4°F0.2°C 31.4°F-0.3°C 96% 2.0 mph SW3.2 kmh SW 3.0 mph4.8 kmh 29.32 in992.9 mb 0.09 in2.3 mm 0.00 in0.0 mm 0.17 in4.3 mm
03:00 AM 32.4°F0.2°C 31.4°F-0.3°C 96% 2.0 mph SW3.2 kmh SW 3.0 mph4.8 kmh 29.32 in992.9 mb 0.09 in2.3 mm 0.00 in0.0 mm 0.17 in4.3 mm
03:01 AM 32.4°F0.2°C 31.4°F-0.3°C 96% 2.0 mph WSW3.2 kmh WSW 4.0 mph6.4 kmh 29.32 in992.9 mb 0.09 in2.3 mm 0.00 in0.0 mm 0.17 in4.3 mm
03:02 AM 32.4°F0.2°C 31.4°F-0.3°C 96% 4.0 mph WSW6.4 kmh WSW 6.0 mph9.7 kmh 29.32 in992.9 mb 0.09 in2.3 mm 0.00 in0.0 mm 0.17 in4.3 mm
03:03 AM 32.4°F0.2°C 31.4°F-0.3°C 96% 4.0 mph WSW6.4 kmh WSW 6.0 mph9.7 kmh 29.32 in992.9 mb 0.09 in2.3 mm 0.00 in0.0 mm 0.17 in4.3 mm
03:04 AM 32.4°F0.2°C 31.4°F-0.3°C 96% 4.0 mph W6.4 kmh W 6.0 mph9.7 kmh 29.32 in992.9 mb 0.09 in2.3 mm 0.00 in0.0 mm 0.17 in4.3 mm
03:05 AM 32.4°F0.2°C 31.4°F-0.3°C 96% 4.0 mph W6.4 kmh W 6.0 mph9.7 kmh 29.32 in992.9 mb 0.09 in2.3 mm 0.00 in0.0 mm 0.17 in4.3 mm
03:06 AM 32.4°F0.2°C 31.4°F-0.3°C 96% 2.0 mph W3.2 kmh W 5.0 mph8.0 kmh 29.32 in992.9 mb 0.10 in2.5 mm 0.60 in15.2 mm 0.18 in4.6 mm
03:07 AM 32.4°F0.2°C 31.4°F-0.3°C 96% 3.0 mph W4.8 kmh W 4.0 mph6.4 kmh 29.31 in992.6 mb 0.09 in2.3 mm 0.00 in0.0 mm 0.18 in4.6 mm
03:08 AM 32.4°F0.2°C 31.4°F-0.3°C 96% 3.0 mph W4.8 kmh W 4.0 mph6.4 kmh 29.31 in992.6 mb 0.09 in2.3 mm 0.00 in0.0 mm 0.18 in4.6 mm
03:09 AM 32.4°F0.2°C 31.4°F-0.3°C 96% 4.0 mph W6.4 kmh W 6.0 mph9.7 kmh 29.31 in992.6 mb 0.09 in2.3 mm 0.00 in0.0 mm 0.18 in4.6 mm
03:10 AM 32.5°F0.3°C 31.5°F-0.3°C 96% 5.0 mph W8.0 kmh W 6.0 mph9.7 kmh 29.31 in992.6 mb 0.09 in2.3 mm 0.00 in0.0 mm 0.18 in4.6 mm
03:11 AM 32.5°F0.3°C 31.5°F-0.3°C 96% 3.0 mph WNW4.8 kmh WNW 6.0 mph9.7 kmh 29.31 in992.6 mb 0.10 in2.5 mm 0.60 in15.2 mm 0.19 in4.8 mm
03:12 AM 32.5°F0.3°C 31.5°F-0.3°C 96% 3.0 mph W4.8 kmh W 4.0 mph6.4 kmh 29.31 in992.6 mb 0.09 in2.3 mm 0.00 in0.0 mm 0.19 in4.8 mm
03:13 AM 32.5°F0.3°C 31.5°F-0.3°C 96% 3.0 mph WNW4.8 kmh WNW 4.0 mph6.4 kmh 29.31 in992.6 mb 0.09 in2.3 mm 0.00 in0.0 mm 0.19 in4.8 mm
03:14 AM 32.5°F0.3°C 31.5°F-0.3°C 96% 3.0 mph WNW4.8 kmh WNW 4.0 mph6.4 kmh 29.31 in992.6 mb 0.09 in2.3 mm 0.00 in0.0 mm 0.19 in4.8 mm
03:15 AM 32.5°F0.3°C 31.5°F-0.3°C 96% 1.0 mph WNW1.6 kmh WNW 4.0 mph6.4 kmh 29.31 in992.6 mb 0.10 in2.5 mm 0.60 in15.2 mm 0.20 in5.1 mm
03:16 AM 32.5°F0.3°C 31.5°F-0.3°C 96% 5.0 mph WNW8.0 kmh WNW 7.0 mph11.3 kmh 29.31 in992.6 mb 0.09 in2.3 mm 0.00 in0.0 mm 0.20 in5.1 mm
03:17 AM 32.6°F0.3°C 31.6°F-0.2°C 96% 3.0 mph WNW4.8 kmh WNW 7.0 mph11.3 kmh 29.31 in992.6 mb 0.09 in2.3 mm 0.00 in0.0 mm 0.20 in5.1 mm
03:18 AM 32.6°F0.3°C 31.6°F-0.2°C 96% 3.0 mph NW4.8 kmh NW 4.0 mph6.4 kmh 29.31 in992.6 mb 0.09 in2.3 mm 0.00 in0.0 mm 0.20 in5.1 mm
03:19 AM 32.6°F0.3°C 31.6°F-0.2°C 96% 3.0 mph WNW4.8 kmh WNW 7.0 mph11.3 kmh 29.31 in992.6 mb 0.09 in2.3 mm 0.00 in0.0 mm 0.20 in5.1 mm
03:20 AM 32.7°F0.4°C 31.7°F-0.2°C 96% 6.0 mph W9.7 kmh W 8.0 mph12.9 kmh 29.31 in992.6 mb 0.09 in2.3 mm 0.00 in0.0 mm 0.20 in5.1 mm
03:21 AM 32.7°F0.4°C 31.7°F-0.2°C 96% 3.0 mph W4.8 kmh W 8.0 mph12.9 kmh 29.31 in992.6 mb 0.10 in2.5 mm 0.60 in15.2 mm 0.20 in5.1 mm
03:22 AM 32.7°F0.4°C 31.7°F-0.2°C 96% 4.0 mph W6.4 kmh W 6.0 mph9.7 kmh 29.31 in992.6 mb 0.10 in2.5 mm 0.00 in0.0 mm 0.20 in5.1 mm
03:23 AM 32.7°F0.4°C 31.7°F-0.2°C 96% 4.0 mph W6.4 kmh W 6.0 mph9.7 kmh 29.31 in992.6 mb 0.09 in2.3 mm 0.00 in0.0 mm 0.20 in5.1 mm
03:24 AM 32.7°F0.4°C 31.7°F-0.2°C 96% 4.0 mph NW6.4 kmh NW 7.0 mph11.3 kmh 29.31 in992.6 mb 0.09 in2.3 mm 0.00 in0.0 mm 0.20 in5.1 mm
03:25 AM 32.7°F0.4°C 31.7°F-0.2°C 96% 3.0 mph WNW4.8 kmh WNW 7.0 mph11.3 kmh 29.31 in992.6 mb 0.10 in2.5 mm 0.60 in15.2 mm 0.21 in5.3 mm
03:26 AM 32.7°F0.4°C 31.7°F-0.2°C 96% 3.0 mph WNW4.8 kmh WNW 5.0 mph8.0 kmh 29.31 in992.6 mb 0.10 in2.5 mm 0.00 in0.0 mm 0.21 in5.3 mm
03:27 AM 32.7°F0.4°C 31.7°F-0.2°C 96% 3.0 mph NW4.8 kmh NW 5.0 mph8.0 kmh 29.31 in992.6 mb 0.09 in2.3 mm 0.00 in0.0 mm 0.21 in5.3 mm
03:28 AM 32.8°F0.4°C 31.8°F-0.1°C 96% 4.0 mph NW6.4 kmh NW 5.0 mph8.0 kmh 29.31 in992.6 mb 0.09 in2.3 mm 0.00 in0.0 mm 0.21 in5.3 mm
03:29 AM 32.8°F0.4°C 31.8°F-0.1°C 96% 4.0 mph NW6.4 kmh NW 6.0 mph9.7 kmh 29.31 in992.6 mb 0.09 in2.3 mm 0.00 in0.0 mm 0.21 in5.3 mm
03:30 AM 32.8°F0.4°C 31.8°F-0.1°C 96% 4.0 mph NW6.4 kmh NW 6.0 mph9.7 kmh 29.30 in992.2 mb 0.10 in2.5 mm 0.60 in15.2 mm 0.22 in5.6 mm
03:31 AM 32.9°F0.5°C 31.8°F-0.1°C 96% 3.0 mph NNW4.8 kmh NNW 6.0 mph9.7 kmh 29.30 in992.2 mb 0.10 in2.5 mm 0.00 in0.0 mm 0.22 in5.6 mm
03:32 AM 32.9°F0.5°C 31.9°F-0.1°C 96% 3.0 mph NW4.8 kmh NW 5.0 mph8.0 kmh 29.30 in992.2 mb 0.09 in2.3 mm 0.00 in0.0 mm 0.22 in5.6 mm
03:33 AM 32.9°F0.5°C 31.9°F-0.1°C 96% 3.0 mph NNW4.8 kmh NNW 6.0 mph9.7 kmh 29.30 in992.2 mb 0.09 in2.3 mm 0.00 in0.0 mm 0.22 in5.6 mm
03:34 AM 32.9°F0.5°C 31.9°F-0.1°C 96% 3.0 mph NNW4.8 kmh NNW 6.0 mph9.7 kmh 29.29 in991.9 mb 0.09 in2.3 mm 0.00 in0.0 mm 0.22 in5.6 mm
03:35 AM 32.9°F0.5°C 31.9°F-0.1°C 96% 2.0 mph NNW3.2 kmh NNW 4.0 mph6.4 kmh 29.29 in991.9 mb 0.10 in2.5 mm 0.60 in15.2 mm 0.23 in5.8 mm
03:36 AM 33.0°F0.6°C 32.0°F0.0°C 96% 2.0 mph NNW3.2 kmh NNW 3.0 mph4.8 kmh 29.29 in991.9 mb 0.09 in2.3 mm 0.00 in0.0 mm 0.23 in5.8 mm
03:37 AM 33.0°F0.6°C 32.0°F0.0°C 96% 2.0 mph NNW3.2 kmh NNW 3.0 mph4.8 kmh 29.30 in992.2 mb 0.09 in2.3 mm 0.00 in0.0 mm 0.23 in5.8 mm
03:38 AM 33.0°F0.6°C 32.0°F0.0°C 96% 3.0 mph NNW4.8 kmh NNW 4.0 mph6.4 kmh 29.29 in991.9 mb 0.09 in2.3 mm 0.00 in0.0 mm 0.23 in5.8 mm
03:39 AM 33.0°F0.6°C 32.0°F0.0°C 96% 2.0 mph NW3.2 kmh NW 4.0 mph6.4 kmh 29.30 in992.2 mb 0.09 in2.3 mm 0.00 in0.0 mm 0.23 in5.8 mm
03:40 AM 33.0°F0.6°C 32.0°F0.0°C 96% 2.0 mph NW3.2 kmh NW 5.0 mph8.0 kmh 29.30 in992.2 mb 0.09 in2.3 mm 0.00 in0.0 mm 0.23 in5.8 mm
03:41 AM 33.0°F0.6°C 32.0°F0.0°C 96% 1.0 mph N1.6 kmh N 5.0 mph8.0 kmh 29.30 in992.2 mb 0.09 in2.3 mm 0.00 in0.0 mm 0.23 in5.8 mm
03:42 AM 33.0°F0.6°C 32.0°F0.0°C 96% 3.0 mph N4.8 kmh N 4.0 mph6.4 kmh 29.30 in992.2 mb 0.09 in2.3 mm 0.00 in0.0 mm 0.24 in6.1 mm
03:43 AM 33.0°F0.6°C 32.0°F0.0°C 96% 3.0 mph N4.8 kmh N 4.0 mph6.4 kmh 29.30 in992.2 mb 0.09 in2.3 mm 0.00 in0.0 mm 0.24 in6.1 mm
03:44 AM 33.0°F0.6°C 32.0°F0.0°C 96% 4.0 mph N6.4 kmh N 7.0 mph11.3 kmh 29.30 in992.2 mb 0.09 in2.3 mm 0.00 in0.0 mm 0.24 in6.1 mm
03:45 AM 33.0°F0.6°C 32.0°F0.0°C 96% 3.0 mph NNE4.8 kmh NNE 7.0 mph11.3 kmh 29.30 in992.2 mb 0.09 in2.3 mm 0.00 in0.0 mm 0.24 in6.1 mm
03:46 AM 33.0°F0.6°C 32.0°F0.0°C 96% 3.0 mph NE4.8 kmh NE 4.0 mph6.4 kmh 29.30 in992.2 mb 0.09 in2.3 mm 0.00 in0.0 mm 0.24 in6.1 mm
03:47 AM 33.0°F0.6°C 32.0°F0.0°C 96% 3.0 mph NE4.8 kmh NE 5.0 mph8.0 kmh 29.29 in991.9 mb 0.09 in2.3 mm 0.00 in0.0 mm 0.24 in6.1 mm
03:48 AM 33.0°F0.6°C 32.0°F0.0°C 96% 3.0 mph NE4.8 kmh NE 5.0 mph8.0 kmh 29.29 in991.9 mb 0.09 in2.3 mm 0.00 in0.0 mm 0.24 in6.1 mm
03:49 AM 33.0°F0.6°C 32.0°F0.0°C 96% 5.0 mph NE8.0 kmh NE 7.0 mph11.3 kmh 29.29 in991.9 mb 0.09 in2.3 mm 0.00 in0.0 mm 0.24 in6.1 mm
03:50 AM 33.0°F0.6°C 32.0°F0.0°C 96% 5.0 mph NE8.0 kmh NE 7.0 mph11.3 kmh 29.29 in991.9 mb 0.09 in2.3 mm 0.00 in0.0 mm 0.24 in6.1 mm
03:51 AM 32.9°F0.5°C 31.9°F-0.1°C 96% 4.0 mph NE6.4 kmh NE 6.0 mph9.7 kmh 29.29 in991.9 mb 0.09 in2.3 mm 0.00 in0.0 mm 0.24 in6.1 mm
03:52 AM 32.9°F0.5°C 31.9°F-0.1°C 96% 5.0 mph NE8.0 kmh NE 9.0 mph14.5 kmh 29.28 in991.5 mb 0.09 in2.3 mm 0.00 in0.0 mm 0.24 in6.1 mm
03:53 AM 32.9°F0.5°C 31.9°F-0.1°C 96% 6.0 mph NE9.7 kmh NE 11.0 mph17.7 kmh 29.28 in991.5 mb 0.09 in2.3 mm 0.00 in0.0 mm 0.24 in6.1 mm
03:54 AM 32.9°F0.5°C 31.9°F-0.1°C 96% 12.0 mph NE19.3 kmh NE 16.0 mph25.7 kmh 29.27 in991.2 mb 0.09 in2.3 mm 0.00 in0.0 mm 0.24 in6.1 mm
03:55 AM 32.9°F0.5°C 31.9°F-0.1°C 96% 13.0 mph NE20.9 kmh NE 17.0 mph27.4 kmh 29.26 in990.9 mb 0.09 in2.3 mm 0.00 in0.0 mm 0.24 in6.1 mm
03:56 AM 32.9°F0.5°C 31.9°F-0.1°C 96% 13.0 mph NE20.9 kmh NE 16.0 mph25.7 kmh 29.25 in990.5 mb 0.09 in2.3 mm 0.00 in0.0 mm 0.24 in6.1 mm
03:57 AM 32.9°F0.5°C 31.9°F-0.1°C 96% 9.0 mph NE14.5 kmh NE 16.0 mph25.7 kmh 29.26 in990.9 mb 0.09 in2.3 mm 0.00 in0.0 mm 0.25 in6.4 mm
03:58 AM 32.9°F0.5°C 31.9°F-0.1°C 96% 2.0 mph NNE3.2 kmh NNE 13.0 mph20.9 kmh 29.26 in990.9 mb 0.09 in2.3 mm 0.00 in0.0 mm 0.25 in6.4 mm
03:59 AM 32.9°F0.5°C 31.9°F-0.1°C 96% 2.0 mph NNE3.2 kmh NNE 4.0 mph6.4 kmh 29.27 in991.2 mb 0.09 in2.3 mm 0.00 in0.0 mm 0.25 in6.4 mm
04:00 AM 32.9°F0.5°C 31.9°F-0.1°C 96% 3.0 mph NNE4.8 kmh NNE 6.0 mph9.7 kmh 29.27 in991.2 mb 0.09 in2.3 mm 0.00 in0.0 mm 0.26 in6.6 mm
04:01 AM 33.0°F0.6°C 32.0°F0.0°C 96% 1.0 mph NNE1.6 kmh NNE 6.0 mph9.7 kmh 29.27 in991.2 mb 0.09 in2.3 mm 0.00 in0.0 mm 0.26 in6.6 mm
04:02 AM 33.0°F0.6°C 32.0°F0.0°C 96% Calm Calm 3.0 mph4.8 kmh 29.27 in991.2 mb 0.09 in2.3 mm 0.00 in0.0 mm 0.26 in6.6 mm
04:03 AM 33.0°F0.6°C 32.0°F0.0°C 96% 1.0 mph N1.6 kmh N 4.0 mph6.4 kmh 29.27 in991.2 mb 0.09 in2.3 mm 0.00 in0.0 mm 0.26 in6.6 mm
04:04 AM 33.1°F0.6°C 32.1°F0.1°C 96% 2.0 mph NW3.2 kmh NW 4.0 mph6.4 kmh 29.27 in991.2 mb 0.09 in2.3 mm 0.00 in0.0 mm 0.26 in6.6 mm
04:05 AM 33.1°F0.6°C 32.1°F0.1°C 96% 4.0 mph WSW6.4 kmh WSW 5.0 mph8.0 kmh 29.27 in991.2 mb 0.09 in2.3 mm 0.00 in0.0 mm 0.26 in6.6 mm
04:06 AM 33.2°F0.7°C 32.2°F0.1°C 96% 5.0 mph SW8.0 kmh SW 6.0 mph9.7 kmh 29.28 in991.5 mb 0.08 in2.0 mm 0.00 in0.0 mm 0.26 in6.6 mm
04:07 AM 33.2°F0.7°C 32.2°F0.1°C 96% 8.0 mph SW12.9 kmh SW 10.0 mph16.1 kmh 29.28 in991.5 mb 0.08 in2.0 mm 0.00 in0.0 mm 0.26 in6.6 mm
04:08 AM 33.2°F0.7°C 32.2°F0.1°C 96% 10.0 mph SW16.1 kmh SW 12.0 mph19.3 kmh 29.28 in991.5 mb 0.08 in2.0 mm 0.00 in0.0 mm 0.26 in6.6 mm
04:09 AM 33.2°F0.7°C 32.2°F0.1°C 96% 12.0 mph SW19.3 kmh SW 15.0 mph24.1 kmh 29.29 in991.9 mb 0.08 in2.0 mm 0.00 in0.0 mm 0.26 in6.6 mm
04:10 AM 33.1°F0.6°C 32.1°F0.1°C 96% 12.0 mph SW19.3 kmh SW 16.0 mph25.7 kmh 29.29 in991.9 mb 0.08 in2.0 mm 0.00 in0.0 mm 0.26 in6.6 mm
04:11 AM 33.1°F0.6°C 32.1°F0.1°C 96% 11.0 mph SSW17.7 kmh SSW 16.0 mph25.7 kmh 29.30 in992.2 mb 0.07 in1.8 mm 0.00 in0.0 mm 0.26 in6.6 mm
04:12 AM 33.0°F0.6°C 32.0°F0.0°C 96% 13.0 mph SSW20.9 kmh SSW 15.0 mph24.1 kmh 29.30 in992.2 mb 0.07 in1.8 mm 0.00 in0.0 mm 0.26 in6.6 mm
04:13 AM 33.0°F0.6°C 32.0°F0.0°C 96% 11.0 mph SW17.7 kmh SW 15.0 mph24.1 kmh 29.30 in992.2 mb 0.07 in1.8 mm 0.00 in0.0 mm 0.26 in6.6 mm
04:14 AM 33.0°F0.6°C 32.0°F0.0°C 96% 10.0 mph SSW16.1 kmh SSW 15.0 mph24.1 kmh 29.30 in992.2 mb 0.07 in1.8 mm 0.00 in0.0 mm 0.26 in6.6 mm
04:15 AM 33.0°F0.6°C 32.0°F0.0°C 96% 11.0 mph SW17.7 kmh SW 15.0 mph24.1 kmh 29.30 in992.2 mb 0.06 in1.5 mm 0.00 in0.0 mm 0.26 in6.6 mm
04:16 AM 32.9°F0.5°C 31.9°F-0.1°C 96% 8.0 mph SW12.9 kmh SW 14.0 mph22.5 kmh 29.31 in992.6 mb 0.07 in1.8 mm 0.60 in15.2 mm 0.27 in6.9 mm
04:17 AM 32.9°F0.5°C 31.9°F-0.1°C 96% 9.0 mph SW14.5 kmh SW 13.0 mph20.9 kmh 29.31 in992.6 mb 0.07 in1.8 mm 0.00 in0.0 mm 0.27 in6.9 mm
04:18 AM 32.9°F0.5°C 31.9°F-0.1°C 96% 8.0 mph SW12.9 kmh SW 13.0 mph20.9 kmh 29.31 in992.6 mb 0.07 in1.8 mm 0.00 in0.0 mm 0.27 in6.9 mm
04:19 AM 32.8°F0.4°C 31.8°F-0.1°C 96% 10.0 mph SSW16.1 kmh SSW 12.0 mph19.3 kmh 29.31 in992.6 mb 0.07 in1.8 mm 0.00 in0.0 mm 0.27 in6.9 mm
04:20 AM 32.8°F0.4°C 31.8°F-0.1°C 96% 9.0 mph SW14.5 kmh SW 12.0 mph19.3 kmh 29.31 in992.6 mb 0.07 in1.8 mm 0.00 in0.0 mm 0.27 in6.9 mm
04:21 AM 32.8°F0.4°C 31.8°F-0.1°C 96% 7.0 mph SSW11.3 kmh SSW 11.0 mph17.7 kmh 29.31 in992.6 mb 0.06 in1.5 mm 0.00 in0.0 mm 0.27 in6.9 mm
04:22 AM 32.9°F0.5°C 31.9°F-0.1°C 96% 7.0 mph SW11.3 kmh SW 9.0 mph14.5 kmh 29.31 in992.6 mb 0.06 in1.5 mm 0.00 in0.0 mm 0.27 in6.9 mm
04:23 AM 32.9°F0.5°C 31.9°F-0.1°C 96% 8.0 mph SSW12.9 kmh SSW 9.0 mph14.5 kmh 29.31 in992.6 mb 0.06 in1.5 mm 0.00 in0.0 mm 0.27 in6.9 mm
04:24 AM 32.9°F0.5°C 31.9°F-0.1°C 96% 8.0 mph SW12.9 kmh SW 10.0 mph16.1 kmh 29.31 in992.6 mb 0.06 in1.5 mm 0.00 in0.0 mm 0.27 in6.9 mm
04:25 AM 32.9°F0.5°C 31.8°F-0.1°C 96% 6.0 mph SW9.7 kmh SW 10.0 mph16.1 kmh 29.31 in992.6 mb 0.06 in1.5 mm 0.00 in0.0 mm 0.27 in6.9 mm
04:26 AM 32.8°F0.4°C 31.8°F-0.1°C 96% 6.0 mph SW9.7 kmh SW 11.0 mph17.7 kmh 29.31 in992.6 mb 0.06 in1.5 mm 0.00 in0.0 mm 0.27 in6.9 mm
04:27 AM 32.9°F0.5°C 31.9°F-0.1°C 96% 5.0 mph SW8.0 kmh SW 11.0 mph17.7 kmh 29.30 in992.2 mb 0.06 in1.5 mm 0.00 in0.0 mm 0.27 in6.9 mm
04:28 AM 32.9°F0.5°C 31.9°F-0.1°C 96% 5.0 mph W8.0 kmh W 8.0 mph12.9 kmh 29.30 in992.2 mb 0.06 in1.5 mm 0.00 in0.0 mm 0.27 in6.9 mm
04:29 AM 32.9°F0.5°C 31.9°F-0.1°C 96% 3.0 mph WSW4.8 kmh WSW 7.0 mph11.3 kmh 29.30 in992.2 mb 0.06 in1.5 mm 0.00 in0.0 mm 0.27 in6.9 mm
04:30 AM 32.9°F0.5°C 31.9°F-0.1°C 96% 4.0 mph WSW6.4 kmh WSW 6.0 mph9.7 kmh 29.30 in992.2 mb 0.06 in1.5 mm 0.00 in0.0 mm 0.28 in7.1 mm
04:31 AM 32.9°F0.5°C 31.9°F-0.1°C 96% 2.0 mph WSW3.2 kmh WSW 6.0 mph9.7 kmh 29.30 in992.2 mb 0.06 in1.5 mm 0.00 in0.0 mm 0.28 in7.1 mm
04:32 AM 32.9°F0.5°C 31.9°F-0.1°C 96% 1.0 mph WSW1.6 kmh WSW 3.0 mph4.8 kmh 29.30 in992.2 mb 0.06 in1.5 mm 0.00 in0.0 mm 0.28 in7.1 mm
04:33 AM 32.9°F0.5°C 31.9°F-0.1°C 96% 2.0 mph WSW3.2 kmh WSW 4.0 mph6.4 kmh 29.30 in992.2 mb 0.06 in1.5 mm 0.00 in0.0 mm 0.28 in7.1 mm
04:34 AM 32.9°F0.5°C 31.9°F-0.1°C 96% 3.0 mph WSW4.8 kmh WSW 4.0 mph6.4 kmh 29.30 in992.2 mb 0.06 in1.5 mm 0.00 in0.0 mm 0.28 in7.1 mm
04:35 AM 32.9°F0.5°C 31.9°F-0.1°C 96% 2.0 mph WSW3.2 kmh WSW 4.0 mph6.4 kmh 29.30 in992.2 mb 0.05 in1.3 mm 0.00 in0.0 mm 0.28 in7.1 mm
04:36 AM 33.0°F0.6°C 32.0°F0.0°C 96% 4.0 mph SW6.4 kmh SW 6.0 mph9.7 kmh 29.30 in992.2 mb 0.05 in1.3 mm 0.00 in0.0 mm 0.28 in7.1 mm
04:37 AM 33.0°F0.6°C 32.0°F0.0°C 96% 4.0 mph SW6.4 kmh SW 6.0 mph9.7 kmh 29.30 in992.2 mb 0.06 in1.5 mm 0.60 in15.2 mm 0.28 in7.1 mm
04:38 AM 33.0°F0.6°C 32.0°F0.0°C 96% 3.0 mph WSW4.8 kmh WSW 6.0 mph9.7 kmh 29.30 in992.2 mb 0.06 in1.5 mm 0.00 in0.0 mm 0.28 in7.1 mm
04:39 AM 33.0°F0.6°C 32.0°F0.0°C 96% 3.0 mph SW4.8 kmh SW 6.0 mph9.7 kmh 29.30 in992.2 mb 0.06 in1.5 mm 0.00 in0.0 mm 0.28 in7.1 mm
04:40 AM 33.0°F0.6°C 32.0°F0.0°C 96% 3.0 mph WSW4.8 kmh WSW 4.0 mph6.4 kmh 29.30 in992.2 mb 0.06 in1.5 mm 0.00 in0.0 mm 0.28 in7.1 mm
04:41 AM 33.0°F0.6°C 32.0°F0.0°C 96% 2.0 mph WSW3.2 kmh WSW 4.0 mph6.4 kmh 29.30 in992.2 mb 0.06 in1.5 mm 0.00 in0.0 mm 0.28 in7.1 mm
04:42 AM 33.0°F0.6°C 32.0°F0.0°C 96% 3.0 mph WSW4.8 kmh WSW 4.0 mph6.4 kmh 29.30 in992.2 mb 0.05 in1.3 mm 0.00 in0.0 mm 0.28 in7.1 mm
04:43 AM 33.0°F0.6°C 32.0°F0.0°C 96% 5.0 mph WSW8.0 kmh WSW 6.0 mph9.7 kmh 29.30 in992.2 mb 0.05 in1.3 mm 0.00 in0.0 mm 0.28 in7.1 mm
04:44 AM 33.0°F0.6°C 32.0°F0.0°C 96% 5.0 mph WSW8.0 kmh WSW 7.0 mph11.3 kmh 29.30 in992.2 mb 0.05 in1.3 mm 0.00 in0.0 mm 0.28 in7.1 mm
04:45 AM 33.0°F0.6°C 32.0°F0.0°C 96% 3.0 mph WSW4.8 kmh WSW 7.0 mph11.3 kmh 29.29 in991.9 mb 0.05 in1.3 mm 0.00 in0.0 mm 0.28 in7.1 mm
04:46 AM 33.0°F0.6°C 32.0°F0.0°C 96% 3.0 mph W4.8 kmh W 6.0 mph9.7 kmh 29.29 in991.9 mb 0.05 in1.3 mm 0.00 in0.0 mm 0.28 in7.1 mm
04:47 AM 33.0°F0.6°C 32.0°F0.0°C 96% 2.0 mph WNW3.2 kmh WNW 4.0 mph6.4 kmh 29.29 in991.9 mb 0.05 in1.3 mm 0.00 in0.0 mm 0.28 in7.1 mm
04:48 AM 33.0°F0.6°C 32.0°F0.0°C 96% 2.0 mph WNW3.2 kmh WNW 3.0 mph4.8 kmh 29.29 in991.9 mb 0.05 in1.3 mm 0.00 in0.0 mm 0.28 in7.1 mm
04:49 AM 33.0°F0.6°C 32.0°F0.0°C 96% 3.0 mph W4.8 kmh W 4.0 mph6.4 kmh 29.29 in991.9 mb 0.04 in1.0 mm 0.00 in0.0 mm 0.28 in7.1 mm
04:50 AM 33.0°F0.6°C 32.0°F0.0°C 96% 4.0 mph W6.4 kmh W 6.0 mph9.7 kmh 29.29 in991.9 mb 0.04 in1.0 mm 0.00 in0.0 mm 0.28 in7.1 mm
04:51 AM 33.0°F0.6°C 32.0°F0.0°C 96% 4.0 mph W6.4 kmh W 6.0 mph9.7 kmh 29.29 in991.9 mb 0.05 in1.3 mm 0.60 in15.2 mm 0.29 in7.4 mm
04:52 AM 33.0°F0.6°C 32.0°F0.0°C 96% 3.0 mph WNW4.8 kmh WNW 6.0 mph9.7 kmh 29.29 in991.9 mb 0.05 in1.3 mm 0.00 in0.0 mm 0.29 in7.4 mm
04:53 AM 33.0°F0.6°C 32.0°F0.0°C 96% 4.0 mph WNW6.4 kmh WNW 5.0 mph8.0 kmh 29.29 in991.9 mb 0.05 in1.3 mm 0.00 in0.0 mm 0.29 in7.4 mm
04:54 AM 33.0°F0.6°C 32.0°F0.0°C 96% 2.0 mph W3.2 kmh W 5.0 mph8.0 kmh 29.29 in991.9 mb 0.05 in1.3 mm 0.00 in0.0 mm 0.29 in7.4 mm
04:55 AM 33.0°F0.6°C 32.0°F0.0°C 96% 2.0 mph W3.2 kmh W 4.0 mph6.4 kmh 29.29 in991.9 mb 0.05 in1.3 mm 0.00 in0.0 mm 0.29 in7.4 mm
04:56 AM 33.0°F0.6°C 32.0°F0.0°C 96% 2.0 mph WNW3.2 kmh WNW 4.0 mph6.4 kmh 29.29 in991.9 mb 0.05 in1.3 mm 0.00 in0.0 mm 0.29 in7.4 mm
04:57 AM 33.0°F0.6°C 32.0°F0.0°C 96% 4.0 mph WNW6.4 kmh WNW 5.0 mph8.0 kmh 29.29 in991.9 mb 0.04 in1.0 mm 0.00 in0.0 mm 0.29 in7.4 mm
04:58 AM 33.0°F0.6°C 32.0°F0.0°C 96% 4.0 mph W6.4 kmh W 6.0 mph9.7 kmh 29.29 in991.9 mb 0.04 in1.0 mm 0.00 in0.0 mm 0.29 in7.4 mm
04:59 AM 33.0°F0.6°C 32.0°F0.0°C 96% 4.0 mph WSW6.4 kmh WSW 6.0 mph9.7 kmh 29.29 in991.9 mb 0.04 in1.0 mm 0.00 in0.0 mm 0.29 in7.4 mm
05:00 AM 33.0°F0.6°C 32.0°F0.0°C 96% 3.0 mph WSW4.8 kmh WSW 5.0 mph8.0 kmh 29.29 in991.9 mb 0.03 in0.8 mm 0.00 in0.0 mm 0.29 in7.4 mm
05:01 AM 33.0°F0.6°C 32.0°F0.0°C 96% 3.0 mph WSW4.8 kmh WSW 5.0 mph8.0 kmh 29.29 in991.9 mb 0.03 in0.8 mm 0.00 in0.0 mm 0.29 in7.4 mm
05:02 AM 33.0°F0.6°C 32.0°F0.0°C 96% 4.0 mph WSW6.4 kmh WSW 5.0 mph8.0 kmh 29.29 in991.9 mb 0.03 in0.8 mm 0.00 in0.0 mm 0.29 in7.4 mm
05:03 AM 33.0°F0.6°C 31.9°F-0.1°C 96% 5.0 mph WSW8.0 kmh WSW 7.0 mph11.3 kmh 29.29 in991.9 mb 0.03 in0.8 mm 0.00 in0.0 mm 0.29 in7.4 mm
05:04 AM 32.9°F0.5°C 31.9°F-0.1°C 96% 3.0 mph WSW4.8 kmh WSW 7.0 mph11.3 kmh 29.29 in991.9 mb 0.03 in0.8 mm 0.00 in0.0 mm 0.29 in7.4 mm
05:05 AM 32.9°F0.5°C 31.9°F-0.1°C 96% 3.0 mph WSW4.8 kmh WSW 7.0 mph11.3 kmh 29.30 in992.2 mb 0.03 in0.8 mm 0.00 in0.0 mm 0.29 in7.4 mm
05:06 AM 32.9°F0.5°C 31.9°F-0.1°C 96% 5.0 mph SW8.0 kmh SW 6.0 mph9.7 kmh 29.30 in992.2 mb 0.03 in0.8 mm 0.00 in0.0 mm 0.29 in7.4 mm
05:07 AM 32.9°F0.5°C 31.9°F-0.1°C 96% 4.0 mph WSW6.4 kmh WSW 7.0 mph11.3 kmh 29.30 in992.2 mb 0.03 in0.8 mm 0.00 in0.0 mm 0.29 in7.4 mm
05:08 AM 32.9°F0.5°C 31.9°F-0.1°C 96% 3.0 mph WSW4.8 kmh WSW 7.0 mph11.3 kmh 29.30 in992.2 mb 0.03 in0.8 mm 0.00 in0.0 mm 0.29 in7.4 mm
05:09 AM 32.9°F0.5°C 31.9°F-0.1°C 96% 4.0 mph WSW6.4 kmh WSW 7.0 mph11.3 kmh 29.30 in992.2 mb 0.03 in0.8 mm 0.00 in0.0 mm 0.29 in7.4 mm
05:10 AM 32.9°F0.5°C 31.9°F-0.1°C 96% 4.0 mph SW6.4 kmh SW 7.0 mph11.3 kmh 29.30 in992.2 mb 0.03 in0.8 mm 0.00 in0.0 mm 0.29 in7.4 mm
05:11 AM 32.9°F0.5°C 31.9°F-0.1°C 96% 4.0 mph WSW6.4 kmh WSW 6.0 mph9.7 kmh 29.30 in992.2 mb 0.03 in0.8 mm 0.00 in0.0 mm 0.29 in7.4 mm
05:12 AM 32.9°F0.5°C 31.9°F-0.1°C 96% 5.0 mph WSW8.0 kmh WSW 7.0 mph11.3 kmh 29.30 in992.2 mb 0.03 in0.8 mm 0.00 in0.0 mm 0.29 in7.4 mm
05:13 AM 32.9°F0.5°C 31.9°F-0.1°C 96% 5.0 mph SW8.0 kmh SW 7.0 mph11.3 kmh 29.30 in992.2 mb 0.03 in0.8 mm 0.00 in0.0 mm 0.29 in7.4 mm
05:14 AM 32.9°F0.5°C 31.9°F-0.1°C 96% 6.0 mph SW9.7 kmh SW 9.0 mph14.5 kmh 29.31 in992.6 mb 0.03 in0.8 mm 0.00 in0.0 mm 0.29 in7.4 mm
05:15 AM 32.9°F0.5°C 31.9°F-0.1°C 96% 8.0 mph SW12.9 kmh SW 10.0 mph16.1 kmh 29.31 in992.6 mb 0.03 in0.8 mm 0.00 in0.0 mm 0.29 in7.4 mm
05:16 AM 32.8°F0.4°C 31.8°F-0.1°C 96% 6.0 mph SW9.7 kmh SW 10.0 mph16.1 kmh 29.31 in992.6 mb 0.02 in0.5 mm 0.00 in0.0 mm 0.29 in7.4 mm
05:17 AM 32.8°F0.4°C 31.8°F-0.1°C 96% 8.0 mph SW12.9 kmh SW 12.0 mph19.3 kmh 29.31 in992.6 mb 0.02 in0.5 mm 0.00 in0.0 mm 0.29 in7.4 mm
05:18 AM 32.8°F0.4°C 31.8°F-0.1°C 96% 8.0 mph SW12.9 kmh SW 12.0 mph19.3 kmh 29.31 in992.6 mb 0.02 in0.5 mm 0.00 in0.0 mm 0.29 in7.4 mm
05:19 AM 32.8°F0.4°C 31.8°F-0.1°C 96% 6.0 mph SW9.7 kmh SW 10.0 mph16.1 kmh 29.31 in992.6 mb 0.02 in0.5 mm 0.00 in0.0 mm 0.29 in7.4 mm
05:20 AM 32.7°F0.4°C 31.7°F-0.2°C 96% 7.0 mph W11.3 kmh W 10.0 mph16.1 kmh 29.31 in992.6 mb 0.02 in0.5 mm 0.00 in0.0 mm 0.29 in7.4 mm
05:21 AM 32.7°F0.4°C 31.7°F-0.2°C 96% 6.0 mph W9.7 kmh W 9.0 mph14.5 kmh 29.30 in992.2 mb 0.02 in0.5 mm 0.00 in0.0 mm 0.29 in7.4 mm
05:22 AM 32.7°F0.4°C 31.7°F-0.2°C 96% 5.0 mph WNW8.0 kmh WNW 9.0 mph14.5 kmh 29.30 in992.2 mb 0.03 in0.8 mm 0.60 in15.2 mm 0.30 in7.6 mm
05:23 AM 32.7°F0.4°C 31.7°F-0.2°C 96% 7.0 mph WNW11.3 kmh WNW 9.0 mph14.5 kmh 29.30 in992.2 mb 0.03 in0.8 mm 0.00 in0.0 mm 0.30 in7.6 mm
05:24 AM 32.7°F0.4°C 31.7°F-0.2°C 96% 6.0 mph W9.7 kmh W 9.0 mph14.5 kmh 29.30 in992.2 mb 0.03 in0.8 mm 0.00 in0.0 mm 0.30 in7.6 mm
05:25 AM 32.7°F0.4°C 31.7°F-0.2°C 96% 3.0 mph WNW4.8 kmh WNW 9.0 mph14.5 kmh 29.30 in992.2 mb 0.03 in0.8 mm 0.00 in0.0 mm 0.30 in7.6 mm
05:26 AM 32.7°F0.4°C 31.7°F-0.2°C 96% 5.0 mph W8.0 kmh W 8.0 mph12.9 kmh 29.30 in992.2 mb 0.03 in0.8 mm 0.00 in0.0 mm 0.30 in7.6 mm
05:27 AM 32.7°F0.4°C 31.7°F-0.2°C 96% 3.0 mph WSW4.8 kmh WSW 8.0 mph12.9 kmh 29.30 in992.2 mb 0.03 in0.8 mm 0.00 in0.0 mm 0.30 in7.6 mm
05:28 AM 32.6°F0.3°C 31.6°F-0.2°C 96% 4.0 mph WSW6.4 kmh WSW 6.0 mph9.7 kmh 29.30 in992.2 mb 0.03 in0.8 mm 0.00 in0.0 mm 0.30 in7.6 mm
05:29 AM 32.6°F0.3°C 31.6°F-0.2°C 96% 3.0 mph WSW4.8 kmh WSW 6.0 mph9.7 kmh 29.30 in992.2 mb 0.03 in0.8 mm 0.00 in0.0 mm 0.30 in7.6 mm
05:30 AM 32.6°F0.3°C 31.6°F-0.2°C 96% 4.0 mph SW6.4 kmh SW 6.0 mph9.7 kmh 29.30 in992.2 mb 0.02 in0.5 mm 0.00 in0.0 mm 0.30 in7.6 mm
05:31 AM 32.6°F0.3°C 31.6°F-0.2°C 96% 3.0 mph SW4.8 kmh SW 6.0 mph9.7 kmh 29.30 in992.2 mb 0.02 in0.5 mm 0.00 in0.0 mm 0.30 in7.6 mm
05:32 AM 32.6°F0.3°C 31.6°F-0.2°C 96% 3.0 mph WSW4.8 kmh WSW 5.0 mph8.0 kmh 29.30 in992.2 mb 0.02 in0.5 mm 0.00 in0.0 mm 0.30 in7.6 mm
05:33 AM 32.6°F0.3°C 31.6°F-0.2°C 96% 2.0 mph WSW3.2 kmh WSW 4.0 mph6.4 kmh 29.30 in992.2 mb 0.02 in0.5 mm 0.00 in0.0 mm 0.30 in7.6 mm
05:34 AM 32.6°F0.3°C 31.6°F-0.2°C 96% 2.0 mph WSW3.2 kmh WSW 4.0 mph6.4 kmh 29.30 in992.2 mb 0.02 in0.5 mm 0.00 in0.0 mm 0.30 in7.6 mm
05:35 AM 32.7°F0.4°C 31.7°F-0.2°C 96% 3.0 mph WSW4.8 kmh WSW 4.0 mph6.4 kmh 29.30 in992.2 mb 0.02 in0.5 mm 0.00 in0.0 mm 0.30 in7.6 mm
05:36 AM 32.7°F0.4°C 31.7°F-0.2°C 96% 3.0 mph WSW4.8 kmh WSW 5.0 mph8.0 kmh 29.30 in992.2 mb 0.02 in0.5 mm 0.00 in0.0 mm 0.30 in7.6 mm
05:37 AM 32.7°F0.4°C 31.7°F-0.2°C 96% 4.0 mph WSW6.4 kmh WSW 5.0 mph8.0 kmh 29.31 in992.6 mb 0.02 in0.5 mm 0.00 in0.0 mm 0.30 in7.6 mm
05:38 AM 32.7°F0.4°C 31.7°F-0.2°C 96% 3.0 mph WSW4.8 kmh WSW 5.0 mph8.0 kmh 29.31 in992.6 mb 0.02 in0.5 mm 0.00 in0.0 mm 0.30 in7.6 mm
05:39 AM 32.7°F0.4°C 31.7°F-0.2°C 96% 2.0 mph WSW3.2 kmh WSW 4.0 mph6.4 kmh 29.31 in992.6 mb 0.02 in0.5 mm 0.00 in0.0 mm 0.30 in7.6 mm
05:40 AM 32.7°F0.4°C 31.7°F-0.2°C 96% 1.0 mph WSW1.6 kmh WSW 4.0 mph6.4 kmh 29.31 in992.6 mb 0.02 in0.5 mm 0.00 in0.0 mm 0.30 in7.6 mm
05:41 AM 32.7°F0.4°C 31.7°F-0.2°C 96% 1.0 mph WSW1.6 kmh WSW 3.0 mph4.8 kmh 29.31 in992.6 mb 0.02 in0.5 mm 0.00 in0.0 mm 0.30 in7.6 mm
05:42 AM 32.7°F0.4°C 31.7°F-0.2°C 96% 2.0 mph WSW3.2 kmh WSW 3.0 mph4.8 kmh 29.31 in992.6 mb 0.02 in0.5 mm 0.00 in0.0 mm 0.30 in7.6 mm
05:43 AM 32.7°F0.4°C 31.7°F-0.2°C 96% 1.0 mph WSW1.6 kmh WSW 3.0 mph4.8 kmh 29.30 in992.2 mb 0.02 in0.5 mm 0.00 in0.0 mm 0.30 in7.6 mm
05:44 AM 32.7°F0.4°C 31.7°F-0.2°C 96% 3.0 mph WSW4.8 kmh WSW 4.0 mph6.4 kmh 29.30 in992.2 mb 0.02 in0.5 mm 0.00 in0.0 mm 0.30 in7.6 mm
05:45 AM 32.7°F0.4°C 31.7°F-0.2°C 96% 2.0 mph WSW3.2 kmh WSW 4.0 mph6.4 kmh 29.31 in992.6 mb 0.02 in0.5 mm 0.00 in0.0 mm 0.30 in7.6 mm
05:46 AM 32.7°F0.4°C 31.7°F-0.2°C 96% 3.0 mph WSW4.8 kmh WSW 4.0 mph6.4 kmh 29.31 in992.6 mb 0.02 in0.5 mm 0.00 in0.0 mm 0.30 in7.6 mm
05:47 AM 32.7°F0.4°C 31.7°F-0.2°C 96% 4.0 mph WSW6.4 kmh WSW 5.0 mph8.0 kmh 29.31 in992.6 mb 0.02 in0.5 mm 0.00 in0.0 mm 0.30 in7.6 mm
05:48 AM 32.6°F0.3°C 31.6°F-0.2°C 96% 6.0 mph SW9.7 kmh SW 7.0 mph11.3 kmh 29.31 in992.6 mb 0.02 in0.5 mm 0.00 in0.0 mm 0.30 in7.6 mm
05:49 AM 32.6°F0.3°C 31.6°F-0.2°C 96% 6.0 mph SW9.7 kmh SW 7.0 mph11.3 kmh 29.31 in992.6 mb 0.02 in0.5 mm 0.00 in0.0 mm 0.31 in7.9 mm
05:50 AM 32.6°F0.3°C 31.6°F-0.2°C 96% 3.0 mph SW4.8 kmh SW 7.0 mph11.3 kmh 29.31 in992.6 mb 0.02 in0.5 mm 0.00 in0.0 mm 0.31 in7.9 mm
05:51 AM 32.6°F0.3°C 31.6°F-0.2°C 96% 4.0 mph WSW6.4 kmh WSW 9.0 mph14.5 kmh 29.31 in992.6 mb 0.02 in0.5 mm 0.00 in0.0 mm 0.31 in7.9 mm
05:52 AM 32.6°F0.3°C 31.6°F-0.2°C 96% 6.0 mph WSW9.7 kmh WSW 9.0 mph14.5 kmh 29.31 in992.6 mb 0.02 in0.5 mm 0.00 in0.0 mm 0.31 in7.9 mm
05:53 AM 32.6°F0.3°C 31.6°F-0.2°C 96% 6.0 mph SW9.7 kmh SW 8.0 mph12.9 kmh 29.31 in992.6 mb 0.02 in0.5 mm 0.00 in0.0 mm 0.31 in7.9 mm
05:54 AM 32.6°F0.3°C 31.6°F-0.2°C 96% 5.0 mph WSW8.0 kmh WSW 8.0 mph12.9 kmh 29.31 in992.6 mb 0.02 in0.5 mm 0.00 in0.0 mm 0.31 in7.9 mm
05:55 AM 32.6°F0.3°C 31.6°F-0.2°C 96% 5.0 mph SW8.0 kmh SW 8.0 mph12.9 kmh 29.31 in992.6 mb 0.02 in0.5 mm 0.00 in0.0 mm 0.31 in7.9 mm
05:56 AM 32.6°F0.3°C 31.6°F-0.2°C 96% 4.0 mph SSW6.4 kmh SSW 8.0 mph12.9 kmh 29.31 in992.6 mb 0.02 in0.5 mm 0.00 in0.0 mm 0.31 in7.9 mm
05:57 AM 32.6°F0.3°C 31.6°F-0.2°C 96% 7.0 mph SW11.3 kmh SW 9.0 mph14.5 kmh 29.31 in992.6 mb 0.02 in0.5 mm 0.00 in0.0 mm 0.31 in7.9 mm
05:58 AM 32.6°F0.3°C 31.6°F-0.2°C 96% 6.0 mph SW9.7 kmh SW 9.0 mph14.5 kmh 29.31 in992.6 mb 0.02 in0.5 mm 0.00 in0.0 mm 0.31 in7.9 mm
05:59 AM 32.6°F0.3°C 31.6°F-0.2°C 96% 6.0 mph SW9.7 kmh SW 8.0 mph12.9 kmh 29.31 in992.6 mb 0.02 in0.5 mm 0.00 in0.0 mm 0.31 in7.9 mm
06:00 AM 32.6°F0.3°C 31.6°F-0.2°C 96% 5.0 mph SW8.0 kmh SW 7.0 mph11.3 kmh 29.31 in992.6 mb 0.02 in0.5 mm 0.00 in0.0 mm 0.31 in7.9 mm
06:01 AM 32.5°F0.3°C 31.5°F-0.3°C 96% 5.0 mph WSW8.0 kmh WSW 8.0 mph12.9 kmh 29.31 in992.6 mb 0.02 in0.5 mm 0.00 in0.0 mm 0.31 in7.9 mm
06:02 AM 32.6°F0.3°C 31.6°F-0.2°C 96% 5.0 mph SW8.0 kmh SW 9.0 mph14.5 kmh 29.31 in992.6 mb 0.02 in0.5 mm 0.00 in0.0 mm 0.31 in7.9 mm
06:03 AM 32.6°F0.3°C 31.6°F-0.2°C 96% 6.0 mph SW9.7 kmh SW 10.0 mph16.1 kmh 29.32 in992.9 mb 0.02 in0.5 mm 0.00 in0.0 mm 0.31 in7.9 mm
06:04 AM 32.6°F0.3°C 31.6°F-0.2°C 96% 9.0 mph SW14.5 kmh SW 10.0 mph16.1 kmh 29.32 in992.9 mb 0.02 in0.5 mm 0.00 in0.0 mm 0.31 in7.9 mm
06:05 AM 32.6°F0.3°C 31.6°F-0.2°C 96% 9.0 mph SW14.5 kmh SW 11.0 mph17.7 kmh 29.32 in992.9 mb 0.02 in0.5 mm 0.00 in0.0 mm 0.31 in7.9 mm
06:06 AM 32.6°F0.3°C 31.5°F-0.3°C 96% 8.0 mph SW12.9 kmh SW 11.0 mph17.7 kmh 29.32 in992.9 mb 0.02 in0.5 mm 0.00 in0.0 mm 0.31 in7.9 mm
06:07 AM 32.5°F0.3°C 31.5°F-0.3°C 96% 6.0 mph SW9.7 kmh SW 11.0 mph17.7 kmh 29.32 in992.9 mb 0.02 in0.5 mm 0.00 in0.0 mm 0.31 in7.9 mm
06:08 AM 32.5°F0.3°C 31.5°F-0.3°C 96% 7.0 mph SW11.3 kmh SW 11.0 mph17.7 kmh 29.32 in992.9 mb 0.02 in0.5 mm 0.00 in0.0 mm 0.31 in7.9 mm
06:09 AM 32.5°F0.3°C 31.5°F-0.3°C 96% 7.0 mph SW11.3 kmh SW 10.0 mph16.1 kmh 29.32 in992.9 mb 0.02 in0.5 mm 0.00 in0.0 mm 0.31 in7.9 mm
06:10 AM 32.5°F0.3°C 31.4°F-0.3°C 96% 7.0 mph SW11.3 kmh SW 10.0 mph16.1 kmh 29.32 in992.9 mb 0.02 in0.5 mm 0.00 in0.0 mm 0.31 in7.9 mm
06:11 AM 32.4°F0.2°C 31.4°F-0.3°C 96% 3.0 mph SW4.8 kmh SW 8.0 mph12.9 kmh 29.32 in992.9 mb 0.02 in0.5 mm 0.00 in0.0 mm 0.31 in7.9 mm
06:12 AM 32.4°F0.2°C 31.4°F-0.3°C 96% 3.0 mph WSW4.8 kmh WSW 6.0 mph9.7 kmh 29.32 in992.9 mb 0.02 in0.5 mm 0.00 in0.0 mm 0.31 in7.9 mm
06:13 AM 32.4°F0.2°C 31.4°F-0.3°C 96% 3.0 mph WSW4.8 kmh WSW 6.0 mph9.7 kmh 29.32 in992.9 mb 0.02 in0.5 mm 0.00 in0.0 mm 0.31 in7.9 mm
06:14 AM 32.4°F0.2°C 31.4°F-0.3°C 96% 4.0 mph W6.4 kmh W 6.0 mph9.7 kmh 29.32 in992.9 mb 0.02 in0.5 mm 0.00 in0.0 mm 0.31 in7.9 mm
06:15 AM 32.4°F0.2°C 31.4°F-0.3°C 96% 4.0 mph WSW6.4 kmh WSW 6.0 mph9.7 kmh 29.32 in992.9 mb 0.02 in0.5 mm 0.00 in0.0 mm 0.31 in7.9 mm
06:16 AM 32.4°F0.2°C 31.4°F-0.3°C 96% 3.0 mph WSW4.8 kmh WSW 6.0 mph9.7 kmh 29.32 in992.9 mb 0.02 in0.5 mm 0.00 in0.0 mm 0.31 in7.9 mm
06:17 AM 32.4°F0.2°C 31.4°F-0.3°C 96% 3.0 mph WNW4.8 kmh WNW 4.0 mph6.4 kmh 29.32 in992.9 mb 0.02 in0.5 mm 0.00 in0.0 mm 0.31 in7.9 mm
06:18 AM 32.4°F0.2°C 31.4°F-0.3°C 96% 3.0 mph W4.8 kmh W 6.0 mph9.7 kmh 29.32 in992.9 mb 0.02 in0.5 mm 0.00 in0.0 mm 0.31 in7.9 mm
06:19 AM 32.4°F0.2°C 31.4°F-0.3°C 96% 4.0 mph W6.4 kmh W 6.0 mph9.7 kmh 29.32 in992.9 mb 0.03 in0.8 mm 0.60 in15.2 mm 0.32 in8.1 mm
06:20 AM 32.4°F0.2°C 31.4°F-0.3°C 96% 4.0 mph WNW6.4 kmh WNW 6.0 mph9.7 kmh 29.32 in992.9 mb 0.03 in0.8 mm 0.00 in0.0 mm 0.32 in8.1 mm
06:21 AM 32.4°F0.2°C 31.4°F-0.3°C 96% 3.0 mph NW4.8 kmh NW 5.0 mph8.0 kmh 29.32 in992.9 mb 0.03 in0.8 mm 0.00 in0.0 mm 0.32 in8.1 mm
06:22 AM 32.4°F0.2°C 31.4°F-0.3°C 96% 3.0 mph NW4.8 kmh NW 5.0 mph8.0 kmh 29.32 in992.9 mb 0.02 in0.5 mm 0.00 in0.0 mm 0.32 in8.1 mm
06:23 AM 32.5°F0.3°C 31.5°F-0.3°C 96% 2.0 mph NW3.2 kmh NW 5.0 mph8.0 kmh 29.32 in992.9 mb 0.02 in0.5 mm 0.00 in0.0 mm 0.32 in8.1 mm
06:24 AM 32.5°F0.3°C 31.5°F-0.3°C 96% 3.0 mph WNW4.8 kmh WNW 7.0 mph11.3 kmh 29.32 in992.9 mb 0.02 in0.5 mm 0.00 in0.0 mm 0.32 in8.1 mm
06:25 AM 32.5°F0.3°C 31.5°F-0.3°C 96% 2.0 mph NW3.2 kmh NW 7.0 mph11.3 kmh 29.32 in992.9 mb 0.02 in0.5 mm 0.00 in0.0 mm 0.32 in8.1 mm
06:26 AM 32.5°F0.3°C 31.5°F-0.3°C 96% 3.0 mph NW4.8 kmh NW 5.0 mph8.0 kmh 29.32 in992.9 mb 0.02 in0.5 mm 0.00 in0.0 mm 0.32 in8.1 mm
06:27 AM 32.6°F0.3°C 31.5°F-0.3°C 96% 3.0 mph NW4.8 kmh NW 7.0 mph11.3 kmh 29.32 in992.9 mb 0.02 in0.5 mm 0.00 in0.0 mm 0.32 in8.1 mm
06:28 AM 32.6°F0.3°C 31.6°F-0.2°C 96% 5.0 mph NW8.0 kmh NW 8.0 mph12.9 kmh 29.32 in992.9 mb 0.02 in0.5 mm 0.00 in0.0 mm 0.32 in8.1 mm
06:29 AM 32.6°F0.3°C 31.6°F-0.2°C 96% 4.0 mph NW6.4 kmh NW 8.0 mph12.9 kmh 29.32 in992.9 mb 0.02 in0.5 mm 0.00 in0.0 mm 0.32 in8.1 mm
06:30 AM 32.6°F0.3°C 31.6°F-0.2°C 96% 5.0 mph WNW8.0 kmh WNW 7.0 mph11.3 kmh 29.32 in992.9 mb 0.02 in0.5 mm 0.00 in0.0 mm 0.32 in8.1 mm
06:31 AM 32.6°F0.3°C 31.6°F-0.2°C 96% 2.0 mph W3.2 kmh W 7.0 mph11.3 kmh 29.32 in992.9 mb 0.02 in0.5 mm 0.00 in0.0 mm 0.32 in8.1 mm
06:32 AM 32.5°F0.3°C 31.5°F-0.3°C 96% 2.0 mph WNW3.2 kmh WNW 3.0 mph4.8 kmh 29.32 in992.9 mb 0.02 in0.5 mm 0.00 in0.0 mm 0.32 in8.1 mm
06:33 AM 32.5°F0.3°C 31.5°F-0.3°C 96% 3.0 mph NW4.8 kmh NW 5.0 mph8.0 kmh 29.32 in992.9 mb 0.02 in0.5 mm 0.00 in0.0 mm 0.32 in8.1 mm
06:34 AM 32.5°F0.3°C 31.5°F-0.3°C 96% 3.0 mph NW4.8 kmh NW 5.0 mph8.0 kmh 29.32 in992.9 mb 0.02 in0.5 mm 0.00 in0.0 mm 0.32 in8.1 mm
06:35 AM 32.5°F0.3°C 31.5°F-0.3°C 96% 1.0 mph NW1.6 kmh NW 5.0 mph8.0 kmh 29.32 in992.9 mb 0.02 in0.5 mm 0.00 in0.0 mm 0.32 in8.1 mm
06:36 AM 32.5°F0.3°C 31.5°F-0.3°C 96% 2.0 mph NW3.2 kmh NW 3.0 mph4.8 kmh 29.32 in992.9 mb 0.02 in0.5 mm 0.00 in0.0 mm 0.32 in8.1 mm
06:37 AM 32.5°F0.3°C 31.5°F-0.3°C 96% 2.0 mph NW3.2 kmh NW 3.0 mph4.8 kmh 29.32 in992.9 mb 0.02 in0.5 mm 0.00 in0.0 mm 0.32 in8.1 mm
06:38 AM 32.5°F0.3°C 31.5°F-0.3°C 96% 1.0 mph NW1.6 kmh NW 3.0 mph4.8 kmh 29.33 in993.2 mb 0.02 in0.5 mm 0.00 in0.0 mm 0.32 in8.1 mm
06:39 AM 32.5°F0.3°C 31.5°F-0.3°C 96% 2.0 mph NW3.2 kmh NW 3.0 mph4.8 kmh 29.33 in993.2 mb 0.02 in0.5 mm 0.00 in0.0 mm 0.32 in8.1 mm
06:40 AM 32.5°F0.3°C 31.5°F-0.3°C 96% 2.0 mph NW3.2 kmh NW 3.0 mph4.8 kmh 29.33 in993.2 mb 0.02 in0.5 mm 0.00 in0.0 mm 0.32 in8.1 mm
06:41 AM 32.5°F0.3°C 31.7°F-0.2°C 97% 2.0 mph NW3.2 kmh NW 3.0 mph4.8 kmh 29.33 in993.2 mb 0.02 in0.5 mm 0.00 in0.0 mm 0.32 in8.1 mm
06:42 AM 32.4°F0.2°C 31.4°F-0.3°C 96% 2.0 mph NW3.2 kmh NW 3.0 mph4.8 kmh 29.33 in993.2 mb 0.02 in0.5 mm 0.00 in0.0 mm 0.32 in8.1 mm
06:43 AM 32.4°F0.2°C 31.5°F-0.3°C 96% 1.0 mph NW1.6 kmh NW 3.0 mph4.8 kmh 29.33 in993.2 mb 0.02 in0.5 mm 0.00 in0.0 mm 0.32 in8.1 mm
06:44 AM 32.4°F0.2°C 31.5°F-0.3°C 96% 3.0 mph WSW4.8 kmh WSW 4.0 mph6.4 kmh 29.33 in993.2 mb 0.02 in0.5 mm 0.00 in0.0 mm 0.32 in8.1 mm
06:45 AM 32.4°F0.2°C 31.4°F-0.3°C 96% 4.0 mph SW6.4 kmh SW 5.0 mph8.0 kmh 29.33 in993.2 mb 0.02 in0.5 mm 0.00 in0.0 mm 0.32 in8.1 mm
06:46 AM 32.4°F0.2°C 31.4°F-0.3°C 96% 2.0 mph WSW3.2 kmh WSW 5.0 mph8.0 kmh 29.33 in993.2 mb 0.02 in0.5 mm 0.00 in0.0 mm 0.32 in8.1 mm
06:47 AM 32.4°F0.2°C 31.4°F-0.3°C 96% 3.0 mph WSW4.8 kmh WSW 4.0 mph6.4 kmh 29.33 in993.2 mb 0.02 in0.5 mm 0.00 in0.0 mm 0.32 in8.1 mm
06:48 AM 32.4°F0.2°C 31.4°F-0.3°C 96% 2.0 mph WSW3.2 kmh WSW 4.0 mph6.4 kmh 29.33 in993.2 mb 0.02 in0.5 mm 0.00 in0.0 mm 0.32 in8.1 mm
06:49 AM 32.4°F0.2°C 31.4°F-0.3°C 96% Calm Calm 3.0 mph4.8 kmh 29.34 in993.6 mb 0.02 in0.5 mm 0.00 in0.0 mm 0.32 in8.1 mm
06:50 AM 32.4°F0.2°C 31.4°F-0.3°C 96% 2.0 mph WSW3.2 kmh WSW 3.0 mph4.8 kmh 29.34 in993.6 mb 0.02 in0.5 mm 0.00 in0.0 mm 0.32 in8.1 mm
06:51 AM 32.4°F0.2°C 31.4°F-0.3°C 96% 2.0 mph WSW3.2 kmh WSW 4.0 mph6.4 kmh 29.34 in993.6 mb 0.02 in0.5 mm 0.00 in0.0 mm 0.32 in8.1 mm
06:52 AM 32.4°F0.2°C 31.4°F-0.3°C 96% 2.0 mph W3.2 kmh W 4.0 mph6.4 kmh 29.34 in993.6 mb 0.02 in0.5 mm 0.00 in0.0 mm 0.32 in8.1 mm
06:53 AM 32.4°F0.2°C 31.4°F-0.3°C 96% 3.0 mph WNW4.8 kmh WNW 5.0 mph8.0 kmh 29.34 in993.6 mb 0.02 in0.5 mm 0.00 in0.0 mm 0.32 in8.1 mm
06:54 AM 32.4°F0.2°C 31.4°F-0.3°C 96% 3.0 mph W4.8 kmh W 5.0 mph8.0 kmh 29.34 in993.6 mb 0.02 in0.5 mm 0.00 in0.0 mm 0.32 in8.1 mm
06:55 AM 32.4°F0.2°C 31.4°F-0.3°C 96% 2.0 mph WNW3.2 kmh WNW 4.0 mph6.4 kmh 29.34 in993.6 mb 0.02 in0.5 mm 0.00 in0.0 mm 0.32 in8.1 mm
06:56 AM 32.4°F0.2°C 31.4°F-0.3°C 96% 3.0 mph WNW4.8 kmh WNW 4.0 mph6.4 kmh 29.34 in993.6 mb 0.02 in0.5 mm 0.00 in0.0 mm 0.32 in8.1 mm
06:57 AM 32.4°F0.2°C 31.4°F-0.3°C 96% 2.0 mph W3.2 kmh W 4.0 mph6.4 kmh 29.34 in993.6 mb 0.02 in0.5 mm 0.00 in0.0 mm 0.32 in8.1 mm
06:58 AM 32.4°F0.2°C 31.4°F-0.3°C 96% 1.0 mph W1.6 kmh W 3.0 mph4.8 kmh 29.34 in993.6 mb 0.02 in0.5 mm 0.00 in0.0 mm 0.32 in8.1 mm
06:59 AM 32.4°F0.2°C 31.4°F-0.3°C 96% Calm Calm 2.0 mph3.2 kmh 29.34 in993.6 mb 0.02 in0.5 mm 0.00 in0.0 mm 0.32 in8.1 mm
07:00 AM 32.4°F0.2°C 31.4°F-0.3°C 96% 1.0 mph W1.6 kmh W 2.0 mph3.2 kmh 29.34 in993.6 mb 0.02 in0.5 mm 0.00 in0.0 mm 0.32 in8.1 mm
07:01 AM 32.4°F0.2°C 31.4°F-0.3°C 96% 1.0 mph W1.6 kmh W 2.0 mph3.2 kmh 29.34 in993.6 mb 0.02 in0.5 mm 0.00 in0.0 mm 0.32 in8.1 mm
07:02 AM 32.5°F0.3°C 31.4°F-0.3°C 96% 2.0 mph WNW3.2 kmh WNW 3.0 mph4.8 kmh 29.34 in993.6 mb 0.02 in0.5 mm 0.00 in0.0 mm 0.32 in8.1 mm
07:03 AM 32.5°F0.3°C 31.7°F-0.2°C 97% 1.0 mph WNW1.6 kmh WNW 3.0 mph4.8 kmh 29.34 in993.6 mb 0.02 in0.5 mm 0.00 in0.0 mm 0.32 in8.1 mm
07:04 AM 32.6°F0.3°C 31.8°F-0.1°C 97% 1.0 mph NW1.6 kmh NW 3.0 mph4.8 kmh 29.34 in993.6 mb 0.02 in0.5 mm 0.00 in0.0 mm 0.32 in8.1 mm
07:05 AM 32.6°F0.3°C 31.8°F-0.1°C 97% 2.0 mph NW3.2 kmh NW 3.0 mph4.8 kmh 29.34 in993.6 mb 0.01 in0.3 mm 0.00 in0.0 mm 0.32 in8.1 mm
07:06 AM 32.6°F0.3°C 31.8°F-0.1°C 97% 3.0 mph NW4.8 kmh NW 4.0 mph6.4 kmh 29.34 in993.6 mb 0.01 in0.3 mm 0.00 in0.0 mm 0.32 in8.1 mm
07:07 AM 32.6°F0.3°C 31.9°F-0.1°C 97% 2.0 mph NW3.2 kmh NW 4.0 mph6.4 kmh 29.34 in993.6 mb 0.01 in0.3 mm 0.00 in0.0 mm 0.32 in8.1 mm
07:08 AM 32.7°F0.4°C 31.9°F-0.1°C 97% 3.0 mph NW4.8 kmh NW 5.0 mph8.0 kmh 29.34 in993.6 mb 0.01 in0.3 mm 0.00 in0.0 mm 0.32 in8.1 mm
07:09 AM 32.7°F0.4°C 31.9°F-0.1°C 97% 1.0 mph NW1.6 kmh NW 5.0 mph8.0 kmh 29.34 in993.6 mb 0.01 in0.3 mm 0.00 in0.0 mm 0.32 in8.1 mm
07:10 AM 32.7°F0.4°C 31.9°F-0.1°C 97% 1.0 mph NW1.6 kmh NW 3.0 mph4.8 kmh 29.34 in993.6 mb 0.02 in0.5 mm 0.60 in15.2 mm 0.33 in8.4 mm
07:11 AM 32.7°F0.4°C 32.0°F0.0°C 97% 1.0 mph NW1.6 kmh NW 3.0 mph4.8 kmh 29.34 in993.6 mb 0.02 in0.5 mm 0.00 in0.0 mm 0.33 in8.4 mm
07:12 AM 32.8°F0.4°C 31.9°F-0.1°C 97% 2.0 mph NW3.2 kmh NW 3.0 mph4.8 kmh 29.34 in993.6 mb 0.02 in0.5 mm 0.00 in0.0 mm 0.33 in8.4 mm
07:13 AM 32.8°F0.4°C 31.8°F-0.1°C 96% 2.0 mph NW3.2 kmh NW 3.0 mph4.8 kmh 29.34 in993.6 mb 0.02 in0.5 mm 0.00 in0.0 mm 0.33 in8.4 mm
07:14 AM 32.8°F0.4°C 31.8°F-0.1°C 96% 2.0 mph NW3.2 kmh NW 3.0 mph4.8 kmh 29.34 in993.6 mb 0.02 in0.5 mm 0.00 in0.0 mm 0.33 in8.4 mm
07:15 AM 32.8°F0.4°C 31.8°F-0.1°C 96% Calm Calm 3.0 mph4.8 kmh 29.34 in993.6 mb 0.02 in0.5 mm 0.00 in0.0 mm 0.33 in8.4 mm
07:16 AM 32.8°F0.4°C 31.8°F-0.1°C 96% 1.0 mph NW1.6 kmh NW 3.0 mph4.8 kmh 29.34 in993.6 mb 0.02 in0.5 mm 0.00 in0.0 mm 0.33 in8.4 mm
07:17 AM 32.9°F0.5°C 31.9°F-0.1°C 96% 2.0 mph NW3.2 kmh NW 3.0 mph4.8 kmh 29.34 in993.6 mb 0.02 in0.5 mm 0.00 in0.0 mm 0.33 in8.4 mm
07:18 AM 32.9°F0.5°C 31.9°F-0.1°C 96% 2.0 mph NW3.2 kmh NW 3.0 mph4.8 kmh 29.34 in993.6 mb 0.02 in0.5 mm 0.00 in0.0 mm 0.33 in8.4 mm
07:19 AM 32.9°F0.5°C 31.9°F-0.1°C 96% 2.0 mph NW3.2 kmh NW 3.0 mph4.8 kmh 29.34 in993.6 mb 0.01 in0.3 mm 0.00 in0.0 mm 0.33 in8.4 mm
07:20 AM 32.8°F0.4°C 31.8°F-0.1°C 96% 2.0 mph NW3.2 kmh NW 3.0 mph4.8 kmh 29.34 in993.6 mb 0.01 in0.3 mm 0.00 in0.0 mm 0.33 in8.4 mm
07:21 AM 32.9°F0.5°C 31.9°F-0.1°C 96% 2.0 mph NW3.2 kmh NW 4.0 mph6.4 kmh 29.34 in993.6 mb 0.01 in0.3 mm 0.00 in0.0 mm 0.33 in8.4 mm
07:22 AM 32.8°F0.4°C 31.8°F-0.1°C 96% 3.0 mph NW4.8 kmh NW 4.0 mph6.4 kmh 29.34 in993.6 mb 0.01 in0.3 mm 0.00 in0.0 mm 0.33 in8.4 mm
07:23 AM 32.8°F0.4°C 31.8°F-0.1°C 96% 1.0 mph NW1.6 kmh NW 4.0 mph6.4 kmh 29.34 in993.6 mb 0.01 in0.3 mm 0.00 in0.0 mm 0.33 in8.4 mm
07:24 AM 32.8°F0.4°C 31.8°F-0.1°C 96% 2.0 mph NW3.2 kmh NW 3.0 mph4.8 kmh 29.34 in993.6 mb 0.01 in0.3 mm 0.00 in0.0 mm 0.33 in8.4 mm
07:25 AM 32.8°F0.4°C 31.8°F-0.1°C 96% 2.0 mph WNW3.2 kmh WNW 4.0 mph6.4 kmh 29.35 in993.9 mb 0.01 in0.3 mm 0.00 in0.0 mm 0.33 in8.4 mm
07:26 AM 32.8°F0.4°C 31.9°F-0.1°C 97% 2.0 mph WNW3.2 kmh WNW 3.0 mph4.8 kmh 29.35 in993.9 mb 0.01 in0.3 mm 0.00 in0.0 mm 0.33 in8.4 mm
07:27 AM 32.7°F0.4°C 31.9°F-0.1°C 97% 2.0 mph WNW3.2 kmh WNW 3.0 mph4.8 kmh 29.35 in993.9 mb 0.01 in0.3 mm 0.00 in0.0 mm 0.33 in8.4 mm
07:28 AM 32.7°F0.4°C 31.9°F-0.1°C 97% 1.0 mph WNW1.6 kmh WNW 3.0 mph4.8 kmh 29.35 in993.9 mb 0.01 in0.3 mm 0.00 in0.0 mm 0.33 in8.4 mm
07:29 AM 32.7°F0.4°C 31.9°F-0.1°C 97% 2.0 mph WNW3.2 kmh WNW 3.0 mph4.8 kmh 29.35 in993.9 mb 0.01 in0.3 mm 0.00 in0.0 mm 0.33 in8.4 mm
07:30 AM 32.7°F0.4°C 31.9°F-0.1°C 97% 3.0 mph WNW4.8 kmh WNW 3.0 mph4.8 kmh 29.35 in993.9 mb 0.01 in0.3 mm 0.00 in0.0 mm 0.33 in8.4 mm
07:31 AM 32.6°F0.3°C 31.9°F-0.1°C 97% 2.0 mph WNW3.2 kmh WNW 3.0 mph4.8 kmh 29.35 in993.9 mb 0.01 in0.3 mm 0.00 in0.0 mm 0.33 in8.4 mm
07:32 AM 32.6°F0.3°C 31.8°F-0.1°C 97% 1.0 mph WNW1.6 kmh WNW 3.0 mph4.8 kmh 29.35 in993.9 mb 0.01 in0.3 mm 0.00 in0.0 mm 0.33 in8.4 mm
07:33 AM 32.6°F0.3°C 31.8°F-0.1°C 97% Calm Calm 2.0 mph3.2 kmh 29.35 in993.9 mb 0.01 in0.3 mm 0.00 in0.0 mm 0.33 in8.4 mm
07:34 AM 32.6°F0.3°C 31.8°F-0.1°C 97% Calm Calm -- 29.36 in994.2 mb 0.01 in0.3 mm 0.00 in0.0 mm 0.33 in8.4 mm
07:35 AM 32.6°F0.3°C 31.8°F-0.1°C 97% Calm Calm -- 29.36 in994.2 mb 0.01 in0.3 mm 0.00 in0.0 mm 0.33 in8.4 mm
07:36 AM 32.6°F0.3°C 31.9°F-0.1°C 97% Calm Calm -- 29.36 in994.2 mb 0.01 in0.3 mm 0.00 in0.0 mm 0.33 in8.4 mm
07:37 AM 32.7°F0.4°C 31.9°F-0.1°C 97% Calm Calm -- 29.36 in994.2 mb 0.01 in0.3 mm 0.00 in0.0 mm 0.33 in8.4 mm
07:38 AM 32.7°F0.4°C 31.9°F-0.1°C 97% Calm Calm -- 29.36 in994.2 mb 0.01 in0.3 mm 0.00 in0.0 mm 0.33 in8.4 mm
07:39 AM 32.7°F0.4°C 32.0°F0.0°C 97% Calm Calm -- 29.36 in994.2 mb 0.01 in0.3 mm 0.00 in0.0 mm 0.33 in8.4 mm
07:40 AM 32.8°F0.4°C 31.8°F-0.1°C 96% Calm Calm -- 29.36 in994.2 mb 0.01 in0.3 mm 0.00 in0.0 mm 0.33 in8.4 mm
07:41 AM 32.8°F0.4°C 31.8°F-0.1°C 96% Calm Calm -- 29.36 in994.2 mb 0.01 in0.3 mm 0.00 in0.0 mm 0.33 in8.4 mm
07:42 AM 32.8°F0.4°C 31.8°F-0.1°C 96% Calm Calm -- 29.36 in994.2 mb 0.01 in0.3 mm 0.00 in0.0 mm 0.33 in8.4 mm
07:43 AM 32.8°F0.4°C 31.8°F-0.1°C 96% Calm Calm -- 29.36 in994.2 mb 0.01 in0.3 mm 0.00 in0.0 mm 0.33 in8.4 mm
07:44 AM 32.8°F0.4°C 31.8°F-0.1°C 96% Calm Calm -- 29.36 in994.2 mb 0.01 in0.3 mm 0.00 in0.0 mm 0.33 in8.4 mm
07:45 AM 32.8°F0.4°C 31.8°F-0.1°C 96% Calm Calm -- 29.36 in994.2 mb 0.01 in0.3 mm 0.00 in0.0 mm 0.33 in8.4 mm
07:46 AM 32.8°F0.4°C 31.8°F-0.1°C 96% 1.0 mph WNW1.6 kmh WNW 2.0 mph3.2 kmh 29.36 in994.2 mb 0.01 in0.3 mm 0.00 in0.0 mm 0.33 in8.4 mm
07:47 AM 32.8°F0.4°C 31.8°F-0.1°C 96% 2.0 mph WNW3.2 kmh WNW 2.0 mph3.2 kmh 29.36 in994.2 mb 0.01 in0.3 mm 0.00 in0.0 mm 0.33 in8.4 mm
07:48 AM 32.8°F0.4°C 31.8°F-0.1°C 96% 1.0 mph WNW1.6 kmh WNW 2.0 mph3.2 kmh 29.36 in994.2 mb 0.01 in0.3 mm 0.00 in0.0 mm 0.33 in8.4 mm
07:49 AM 32.8°F0.4°C 31.8°F-0.1°C 96% 1.0 mph WNW1.6 kmh WNW 2.0 mph3.2 kmh 29.36 in994.2 mb 0.01 in0.3 mm 0.00 in0.0 mm 0.33 in8.4 mm
07:50 AM 32.8°F0.4°C 31.8°F-0.1°C 96% 1.0 mph WNW1.6 kmh WNW 2.0 mph3.2 kmh 29.36 in994.2 mb 0.01 in0.3 mm 0.00 in0.0 mm 0.33 in8.4 mm
07:51 AM 32.8°F0.4°C 31.8°F-0.1°C 96% 1.0 mph WNW1.6 kmh WNW 2.0 mph3.2 kmh 29.36 in994.2 mb 0.01 in0.3 mm 0.00 in0.0 mm 0.33 in8.4 mm
07:52 AM 32.8°F0.4°C 31.8°F-0.1°C 96% Calm Calm 2.0 mph3.2 kmh 29.36 in994.2 mb 0.01 in0.3 mm 0.00 in0.0 mm 0.33 in8.4 mm
07:53 AM 32.8°F0.4°C 31.8°F-0.1°C 96% 2.0 mph W3.2 kmh W 3.0 mph4.8 kmh 29.37 in994.6 mb 0.02 in0.5 mm 0.60 in15.2 mm 0.34 in8.6 mm
07:54 AM 32.8°F0.4°C 31.8°F-0.1°C 96% 2.0 mph W3.2 kmh W 3.0 mph4.8 kmh 29.37 in994.6 mb 0.02 in0.5 mm 0.00 in0.0 mm 0.34 in8.6 mm
07:55 AM 32.8°F0.4°C 31.8°F-0.1°C 96% 3.0 mph W4.8 kmh W 4.0 mph6.4 kmh 29.37 in994.6 mb 0.02 in0.5 mm 0.00 in0.0 mm 0.34 in8.6 mm
07:56 AM 32.8°F0.4°C 31.8°F-0.1°C 96% 5.0 mph SW8.0 kmh SW 6.0 mph9.7 kmh 29.37 in994.6 mb 0.02 in0.5 mm 0.00 in0.0 mm 0.34 in8.6 mm
07:57 AM 32.7°F0.4°C 31.9°F-0.1°C 97% 4.0 mph SW6.4 kmh SW 6.0 mph9.7 kmh 29.37 in994.6 mb 0.02 in0.5 mm 0.00 in0.0 mm 0.34 in8.6 mm
07:58 AM 32.7°F0.4°C 31.8°F-0.1°C 96% 4.0 mph SW6.4 kmh SW 6.0 mph9.7 kmh 29.37 in994.6 mb 0.02 in0.5 mm 0.00 in0.0 mm 0.34 in8.6 mm
07:59 AM 32.7°F0.4°C 31.9°F-0.1°C 97% 5.0 mph SW8.0 kmh SW 6.0 mph9.7 kmh 29.37 in994.6 mb 0.02 in0.5 mm 0.00 in0.0 mm 0.34 in8.6 mm
08:00 AM 32.7°F0.4°C 31.9°F-0.1°C 97% 4.0 mph SW6.4 kmh SW 6.0 mph9.7 kmh 29.38 in994.9 mb 0.02 in0.5 mm 0.00 in0.0 mm 0.34 in8.6 mm
08:01 AM 32.7°F0.4°C 31.9°F-0.1°C 97% 4.0 mph SW6.4 kmh SW 6.0 mph9.7 kmh 29.38 in994.9 mb 0.02 in0.5 mm 0.00 in0.0 mm 0.34 in8.6 mm
08:02 AM 32.6°F0.3°C 31.9°F-0.1°C 97% 4.0 mph SW6.4 kmh SW 6.0 mph9.7 kmh 29.38 in994.9 mb 0.02 in0.5 mm 0.00 in0.0 mm 0.34 in8.6 mm
08:03 AM 32.6°F0.3°C 31.8°F-0.1°C 97% 3.0 mph SW4.8 kmh SW 5.0 mph8.0 kmh 29.38 in994.9 mb 0.02 in0.5 mm 0.00 in0.0 mm 0.34 in8.6 mm
08:04 AM 32.6°F0.3°C 31.8°F-0.1°C 97% 3.0 mph WSW4.8 kmh WSW 4.0 mph6.4 kmh 29.38 in994.9 mb 0.02 in0.5 mm 0.00 in0.0 mm 0.34 in8.6 mm
08:05 AM 32.6°F0.3°C 31.9°F-0.1°C 97% 3.0 mph SW4.8 kmh SW 4.0 mph6.4 kmh 29.38 in994.9 mb 0.02 in0.5 mm 0.00 in0.0 mm 0.34 in8.6 mm
08:06 AM 32.7°F0.4°C 31.9°F-0.1°C 97% 2.0 mph SW3.2 kmh SW 4.0 mph6.4 kmh 29.38 in994.9 mb 0.02 in0.5 mm 0.00 in0.0 mm 0.34 in8.6 mm
08:07 AM 32.6°F0.3°C 31.9°F-0.1°C 97% 2.0 mph SW3.2 kmh SW 3.0 mph4.8 kmh 29.38 in994.9 mb 0.02 in0.5 mm 0.00 in0.0 mm 0.34 in8.6 mm
08:08 AM 32.7°F0.4°C 31.9°F-0.1°C 97% 2.0 mph SW3.2 kmh SW 4.0 mph6.4 kmh 29.38 in994.9 mb 0.02 in0.5 mm 0.00 in0.0 mm 0.34 in8.6 mm
08:09 AM 32.7°F0.4°C 31.9°F-0.1°C 97% 1.0 mph SW1.6 kmh SW 4.0 mph6.4 kmh 29.38 in994.9 mb 0.02 in0.5 mm 0.00 in0.0 mm 0.34 in8.6 mm
08:10 AM 32.7°F0.4°C 31.9°F-0.1°C 97% 1.0 mph SW1.6 kmh SW 3.0 mph4.8 kmh 29.38 in994.9 mb 0.01 in0.3 mm 0.00 in0.0 mm 0.34 in8.6 mm
08:11 AM 32.7°F0.4°C 31.9°F-0.1°C 97% 3.0 mph SSW4.8 kmh SSW 5.0 mph8.0 kmh 29.38 in994.9 mb 0.01 in0.3 mm 0.00 in0.0 mm 0.34 in8.6 mm
08:12 AM 32.7°F0.4°C 31.9°F-0.1°C 97% 3.0 mph SSW4.8 kmh SSW 5.0 mph8.0 kmh 29.38 in994.9 mb 0.01 in0.3 mm 0.00 in0.0 mm 0.34 in8.6 mm
08:13 AM 32.7°F0.4°C 31.9°F-0.1°C 97% 1.0 mph SSW1.6 kmh SSW 4.0 mph6.4 kmh 29.38 in994.9 mb 0.01 in0.3 mm 0.00 in0.0 mm 0.34 in8.6 mm
08:14 AM 32.7°F0.4°C 31.9°F-0.1°C 97% 4.0 mph SW6.4 kmh SW 5.0 mph8.0 kmh 29.38 in994.9 mb 0.01 in0.3 mm 0.00 in0.0 mm 0.34 in8.6 mm
08:15 AM 32.7°F0.4°C 31.9°F-0.1°C 97% 2.0 mph SW3.2 kmh SW 5.0 mph8.0 kmh 29.38 in994.9 mb 0.01 in0.3 mm 0.00 in0.0 mm 0.34 in8.6 mm
08:16 AM 32.7°F0.4°C 31.9°F-0.1°C 97% 1.0 mph SW1.6 kmh SW 3.0 mph4.8 kmh 29.38 in994.9 mb 0.01 in0.3 mm 0.00 in0.0 mm 0.34 in8.6 mm
08:17 AM 32.7°F0.4°C 31.9°F-0.1°C 97% 2.0 mph WSW3.2 kmh WSW 4.0 mph6.4 kmh 29.38 in994.9 mb 0.01 in0.3 mm 0.00 in0.0 mm 0.34 in8.6 mm
08:18 AM 32.7°F0.4°C 31.9°F-0.1°C 97% 2.0 mph WSW3.2 kmh WSW 4.0 mph6.4 kmh 29.38 in994.9 mb 0.01 in0.3 mm 0.00 in0.0 mm 0.34 in8.6 mm
08:19 AM 32.7°F0.4°C 32.0°F0.0°C 97% 2.0 mph W3.2 kmh W 4.0 mph6.4 kmh 29.38 in994.9 mb 0.01 in0.3 mm 0.00 in0.0 mm 0.34 in8.6 mm
08:20 AM 32.8°F0.4°C 31.8°F-0.1°C 96% 4.0 mph WSW6.4 kmh WSW 6.0 mph9.7 kmh 29.38 in994.9 mb 0.01 in0.3 mm 0.00 in0.0 mm 0.34 in8.6 mm
08:21 AM 32.8°F0.4°C 32.0°F0.0°C 97% 4.0 mph WSW6.4 kmh WSW 6.0 mph9.7 kmh 29.38 in994.9 mb 0.01 in0.3 mm 0.00 in0.0 mm 0.34 in8.6 mm
08:22 AM 32.8°F0.4°C 32.0°F0.0°C 97% 3.0 mph WSW4.8 kmh WSW 5.0 mph8.0 kmh 29.39 in995.3 mb 0.01 in0.3 mm 0.00 in0.0 mm 0.34 in8.6 mm
08:23 AM 32.7°F0.4°C 31.9°F-0.1°C 97% 3.0 mph WSW4.8 kmh WSW 5.0 mph8.0 kmh 29.38 in994.9 mb 0.01 in0.3 mm 0.00 in0.0 mm 0.34 in8.6 mm
08:24 AM 32.7°F0.4°C 31.9°F-0.1°C 97% 1.0 mph WSW1.6 kmh WSW 3.0 mph4.8 kmh 29.38 in994.9 mb 0.01 in0.3 mm 0.00 in0.0 mm 0.34 in8.6 mm
08:25 AM 32.7°F0.4°C 31.9°F-0.1°C 97% 1.0 mph W1.6 kmh W 3.0 mph4.8 kmh 29.38 in994.9 mb 0.01 in0.3 mm 0.00 in0.0 mm 0.34 in8.6 mm
08:26 AM 32.7°F0.4°C 31.9°F-0.1°C 97% 1.0 mph W1.6 kmh W 3.0 mph4.8 kmh 29.38 in994.9 mb 0.01 in0.3 mm 0.00 in0.0 mm 0.34 in8.6 mm
08:27 AM 32.7°F0.4°C 31.9°F-0.1°C 97% 2.0 mph W3.2 kmh W 4.0 mph6.4 kmh 29.38 in994.9 mb 0.01 in0.3 mm 0.00 in0.0 mm 0.34 in8.6 mm
08:28 AM 32.7°F0.4°C 31.9°F-0.1°C 97% 2.0 mph W3.2 kmh W 4.0 mph6.4 kmh 29.38 in994.9 mb 0.01 in0.3 mm 0.00 in0.0 mm 0.34 in8.6 mm
08:29 AM 32.7°F0.4°C 31.9°F-0.1°C 97% 2.0 mph W3.2 kmh W 3.0 mph4.8 kmh 29.39 in995.3 mb 0.01 in0.3 mm 0.00 in0.0 mm 0.34 in8.6 mm
08:30 AM 32.7°F0.4°C 32.0°F0.0°C 97% Calm Calm 2.0 mph3.2 kmh 29.39 in995.3 mb 0.01 in0.3 mm 0.00 in0.0 mm 0.34 in8.6 mm
08:31 AM 32.8°F0.4°C 32.0°F0.0°C 97% 2.0 mph W3.2 kmh W 3.0 mph4.8 kmh 29.39 in995.3 mb 0.01 in0.3 mm 0.00 in0.0 mm 0.34 in8.6 mm
08:32 AM 32.8°F0.4°C 32.0°F0.0°C 97% 2.0 mph W3.2 kmh W 3.0 mph4.8 kmh 29.39 in995.3 mb 0.01 in0.3 mm 0.00 in0.0 mm 0.34 in8.6 mm
08:33 AM 32.8°F0.4°C 31.8°F-0.1°C 96% 2.0 mph W3.2 kmh W 3.0 mph4.8 kmh 29.39 in995.3 mb 0.01 in0.3 mm 0.00 in0.0 mm 0.34 in8.6 mm
08:34 AM 32.8°F0.4°C 31.8°F-0.1°C 96% 1.0 mph W1.6 kmh W 3.0 mph4.8 kmh 29.39 in995.3 mb 0.01 in0.3 mm 0.00 in0.0 mm 0.34 in8.6 mm
08:35 AM 32.8°F0.4°C 31.8°F-0.1°C 96% 1.0 mph W1.6 kmh W 3.0 mph4.8 kmh 29.39 in995.3 mb 0.01 in0.3 mm 0.00 in0.0 mm 0.34 in8.6 mm
08:36 AM 32.8°F0.4°C 31.8°F-0.1°C 96% 2.0 mph W3.2 kmh W 3.0 mph4.8 kmh 29.39 in995.3 mb 0.02 in0.5 mm 0.60 in15.2 mm 0.35 in8.9 mm
08:37 AM 32.8°F0.4°C 31.8°F-0.1°C 96% 3.0 mph W4.8 kmh W 4.0 mph6.4 kmh 29.39 in995.3 mb 0.02 in0.5 mm 0.00 in0.0 mm 0.35 in8.9 mm
08:38 AM 32.8°F0.4°C 31.8°F-0.1°C 96% 3.0 mph W4.8 kmh W 4.0 mph6.4 kmh 29.39 in995.3 mb 0.02 in0.5 mm 0.00 in0.0 mm 0.35 in8.9 mm
08:39 AM 32.8°F0.4°C 31.8°F-0.1°C 96% 3.0 mph WNW4.8 kmh WNW 4.0 mph6.4 kmh 29.39 in995.3 mb 0.02 in0.5 mm 0.00 in0.0 mm 0.35 in8.9 mm
08:40 AM 32.8°F0.4°C 31.8°F-0.1°C 96% 2.0 mph WNW3.2 kmh WNW 4.0 mph6.4 kmh 29.39 in995.3 mb 0.02 in0.5 mm 0.00 in0.0 mm 0.35 in8.9 mm
08:41 AM 32.8°F0.4°C 31.8°F-0.1°C 96% 2.0 mph WNW3.2 kmh WNW 3.0 mph4.8 kmh 29.39 in995.3 mb 0.02 in0.5 mm 0.00 in0.0 mm 0.35 in8.9 mm
08:42 AM 32.8°F0.4°C 31.8°F-0.1°C 96% 1.0 mph NW1.6 kmh NW 3.0 mph4.8 kmh 29.39 in995.3 mb 0.02 in0.5 mm 0.00 in0.0 mm 0.35 in8.9 mm
08:43 AM 32.8°F0.4°C 31.8°F-0.1°C 96% 2.0 mph WNW3.2 kmh WNW 3.0 mph4.8 kmh 29.39 in995.3 mb 0.02 in0.5 mm 0.00 in0.0 mm 0.35 in8.9 mm
08:44 AM 32.8°F0.4°C 31.8°F-0.1°C 96% Calm Calm 3.0 mph4.8 kmh 29.39 in995.3 mb 0.02 in0.5 mm 0.00 in0.0 mm 0.35 in8.9 mm
08:45 AM 32.8°F0.4°C 31.8°F-0.1°C 96% 2.0 mph WNW3.2 kmh WNW 3.0 mph4.8 kmh 29.39 in995.3 mb 0.02 in0.5 mm 0.00 in0.0 mm 0.35 in8.9 mm
08:46 AM 32.9°F0.5°C 31.9°F-0.1°C 96% 3.0 mph NW4.8 kmh NW 4.0 mph6.4 kmh 29.39 in995.3 mb 0.02 in0.5 mm 0.00 in0.0 mm 0.35 in8.9 mm
08:47 AM 32.9°F0.5°C 31.9°F-0.1°C 96% 2.0 mph WNW3.2 kmh WNW 4.0 mph6.4 kmh 29.39 in995.3 mb 0.02 in0.5 mm 0.00 in0.0 mm 0.35 in8.9 mm
08:48 AM 32.9°F0.5°C 31.9°F-0.1°C 96% 3.0 mph WNW4.8 kmh WNW 3.0 mph4.8 kmh 29.39 in995.3 mb 0.02 in0.5 mm 0.00 in0.0 mm 0.35 in8.9 mm
08:49 AM 32.9°F0.5°C 31.9°F-0.1°C 96% 2.0 mph NW3.2 kmh NW 3.0 mph4.8 kmh 29.39 in995.3 mb 0.02 in0.5 mm 0.00 in0.0 mm 0.35 in8.9 mm
08:50 AM 32.9°F0.5°C 31.9°F-0.1°C 96% 2.0 mph WNW3.2 kmh WNW 3.0 mph4.8 kmh 29.39 in995.3 mb 0.02 in0.5 mm 0.00 in0.0 mm 0.35 in8.9 mm
08:51 AM 33.0°F0.6°C 31.9°F-0.1°C 96% 3.0 mph WNW4.8 kmh WNW 4.0 mph6.4 kmh 29.39 in995.3 mb 0.02 in0.5 mm 0.00 in0.0 mm 0.35 in8.9 mm
08:52 AM 32.9°F0.5°C 31.9°F-0.1°C 96% 2.0 mph WNW3.2 kmh WNW 4.0 mph6.4 kmh 29.39 in995.3 mb 0.02 in0.5 mm 0.00 in0.0 mm 0.35 in8.9 mm
08:53 AM 33.0°F0.6°C 32.0°F0.0°C 96% 2.0 mph WNW3.2 kmh WNW 4.0 mph6.4 kmh 29.40 in995.6 mb 0.01 in0.3 mm 0.00 in0.0 mm 0.35 in8.9 mm
08:54 AM 33.0°F0.6°C 32.0°F0.0°C 96% 3.0 mph WNW4.8 kmh WNW 4.0 mph6.4 kmh 29.40 in995.6 mb 0.01 in0.3 mm 0.00 in0.0 mm 0.35 in8.9 mm
08:55 AM 33.0°F0.6°C 31.9°F-0.1°C 96% 4.0 mph WNW6.4 kmh WNW 7.0 mph11.3 kmh 29.40 in995.6 mb 0.01 in0.3 mm 0.00 in0.0 mm 0.35 in8.9 mm
08:56 AM 32.9°F0.5°C 31.9°F-0.1°C 96% 4.0 mph W6.4 kmh W 7.0 mph11.3 kmh 29.40 in995.6 mb 0.02 in0.5 mm 0.60 in15.2 mm 0.35 in8.9 mm
08:57 AM 32.9°F0.5°C 31.9°F-0.1°C 96% 3.0 mph W4.8 kmh W 6.0 mph9.7 kmh 29.40 in995.6 mb 0.02 in0.5 mm 0.00 in0.0 mm 0.35 in8.9 mm
08:58 AM 32.9°F0.5°C 31.9°F-0.1°C 96% 3.0 mph WNW4.8 kmh WNW 4.0 mph6.4 kmh 29.40 in995.6 mb 0.02 in0.5 mm 0.00 in0.0 mm 0.35 in8.9 mm
08:59 AM 32.9°F0.5°C 31.9°F-0.1°C 96% 3.0 mph WNW4.8 kmh WNW 4.0 mph6.4 kmh 29.40 in995.6 mb 0.02 in0.5 mm 0.00 in0.0 mm 0.35 in8.9 mm
09:00 AM 32.9°F0.5°C 31.9°F-0.1°C 96% 3.0 mph W4.8 kmh W 4.0 mph6.4 kmh 29.40 in995.6 mb 0.02 in0.5 mm 0.00 in0.0 mm 0.35 in8.9 mm
09:01 AM 32.9°F0.5°C 31.9°F-0.1°C 96% 4.0 mph W6.4 kmh W 6.0 mph9.7 kmh 29.40 in995.6 mb 0.02 in0.5 mm 0.00 in0.0 mm 0.35 in8.9 mm
09:02 AM 32.9°F0.5°C 31.9°F-0.1°C 96% 4.0 mph W6.4 kmh W 6.0 mph9.7 kmh 29.41 in995.9 mb 0.02 in0.5 mm 0.00 in0.0 mm 0.35 in8.9 mm
09:03 AM 32.9°F0.5°C 31.9°F-0.1°C 96% 3.0 mph WNW4.8 kmh WNW 6.0 mph9.7 kmh 29.41 in995.9 mb 0.02 in0.5 mm 0.00 in0.0 mm 0.35 in8.9 mm
09:04 AM 32.9°F0.5°C 31.9°F-0.1°C 96% 4.0 mph WNW6.4 kmh WNW 7.0 mph11.3 kmh 29.40 in995.6 mb 0.02 in0.5 mm 0.00 in0.0 mm 0.35 in8.9 mm
09:05 AM 33.0°F0.6°C 32.0°F0.0°C 96% 4.0 mph W6.4 kmh W 7.0 mph11.3 kmh 29.40 in995.6 mb 0.02 in0.5 mm 0.00 in0.0 mm 0.35 in8.9 mm
09:06 AM 33.0°F0.6°C 32.0°F0.0°C 96% 2.0 mph W3.2 kmh W 4.0 mph6.4 kmh 29.40 in995.6 mb 0.02 in0.5 mm 0.00 in0.0 mm 0.35 in8.9 mm
09:07 AM 33.0°F0.6°C 32.0°F0.0°C 96% 4.0 mph NW6.4 kmh NW 7.0 mph11.3 kmh 29.40 in995.6 mb 0.02 in0.5 mm 0.00 in0.0 mm 0.35 in8.9 mm
09:08 AM 33.0°F0.6°C 32.0°F0.0°C 96% 4.0 mph WNW6.4 kmh WNW 7.0 mph11.3 kmh 29.40 in995.6 mb 0.02 in0.5 mm 0.00 in0.0 mm 0.35 in8.9 mm
09:09 AM 33.0°F0.6°C 32.1°F0.1°C 96% 3.0 mph NW4.8 kmh NW 8.0 mph12.9 kmh 29.40 in995.6 mb 0.02 in0.5 mm 0.00 in0.0 mm 0.35 in8.9 mm
09:10 AM 33.1°F0.6°C 32.4°F0.2°C 97% 6.0 mph WNW9.7 kmh WNW 8.0 mph12.9 kmh 29.40 in995.6 mb 0.02 in0.5 mm 0.00 in0.0 mm 0.35 in8.9 mm
09:11 AM 33.2°F0.7°C 32.4°F0.2°C 97% 2.0 mph WNW3.2 kmh WNW 7.0 mph11.3 kmh 29.40 in995.6 mb 0.02 in0.5 mm 0.00 in0.0 mm 0.35 in8.9 mm
09:12 AM 33.2°F0.7°C 32.4°F0.2°C 97% 2.0 mph WNW3.2 kmh WNW 5.0 mph8.0 kmh 29.40 in995.6 mb 0.02 in0.5 mm 0.00 in0.0 mm 0.35 in8.9 mm
09:13 AM 33.2°F0.7°C 32.4°F0.2°C 97% 3.0 mph WNW4.8 kmh WNW 5.0 mph8.0 kmh 29.40 in995.6 mb 0.02 in0.5 mm 0.00 in0.0 mm 0.35 in8.9 mm
09:14 AM 33.3°F0.7°C 32.5°F0.3°C 97% Calm Calm 5.0 mph8.0 kmh 29.40 in995.6 mb 0.02 in0.5 mm 0.00 in0.0 mm 0.35 in8.9 mm
09:15 AM 33.3°F0.7°C 32.5°F0.3°C 97% 1.0 mph NW1.6 kmh NW 3.0 mph4.8 kmh 29.40 in995.6 mb 0.02 in0.5 mm 0.00 in0.0 mm 0.35 in8.9 mm
09:16 AM 33.4°F0.8°C 32.6°F0.3°C 97% 1.0 mph NW1.6 kmh NW 3.0 mph4.8 kmh 29.40 in995.6 mb 0.02 in0.5 mm 0.00 in0.0 mm 0.35 in8.9 mm
09:17 AM 33.4°F0.8°C 32.6°F0.3°C 97% 3.0 mph NW4.8 kmh NW 4.0 mph6.4 kmh 29.40 in995.6 mb 0.02 in0.5 mm 0.00 in0.0 mm 0.35 in8.9 mm
09:18 AM 33.4°F0.8°C 32.6°F0.3°C 97% 3.0 mph NW4.8 kmh NW 4.0 mph6.4 kmh 29.40 in995.6 mb 0.02 in0.5 mm 0.00 in0.0 mm 0.35 in8.9 mm
09:19 AM 33.4°F0.8°C 32.7°F0.4°C 97% 2.0 mph NW3.2 kmh NW 4.0 mph6.4 kmh 29.40 in995.6 mb 0.02 in0.5 mm 0.00 in0.0 mm 0.35 in8.9 mm
09:20 AM 33.4°F0.8°C 32.7°F0.4°C 97% 3.0 mph NW4.8 kmh NW 5.0 mph8.0 kmh 29.40 in995.6 mb 0.02 in0.5 mm 0.00 in0.0 mm 0.35 in8.9 mm
09:21 AM 33.5°F0.8°C 32.7°F0.4°C 97% 2.0 mph WNW3.2 kmh WNW 5.0 mph8.0 kmh 29.40 in995.6 mb 0.02 in0.5 mm 0.00 in0.0 mm 0.35 in8.9 mm
09:22 AM 33.5°F0.8°C 32.7°F0.4°C 97% 2.0 mph NW3.2 kmh NW 5.0 mph8.0 kmh 29.40 in995.6 mb 0.02 in0.5 mm 0.00 in0.0 mm 0.35 in8.9 mm
09:23 AM 33.5°F0.8°C 32.7°F0.4°C 97% 3.0 mph NNW4.8 kmh NNW 5.0 mph8.0 kmh 29.40 in995.6 mb 0.02 in0.5 mm 0.00 in0.0 mm 0.36 in9.1 mm
09:24 AM 33.5°F0.8°C 32.8°F0.4°C 97% 3.0 mph NW4.8 kmh NW 5.0 mph8.0 kmh 29.40 in995.6 mb 0.02 in0.5 mm 0.00 in0.0 mm 0.36 in9.1 mm
09:25 AM 33.6°F0.9°C 32.8°F0.4°C 97% 3.0 mph NW4.8 kmh NW 4.0 mph6.4 kmh 29.40 in995.6 mb 0.02 in0.5 mm 0.00 in0.0 mm 0.36 in9.1 mm
09:26 AM 33.6°F0.9°C 32.8°F0.4°C 97% 2.0 mph NW3.2 kmh NW 4.0 mph6.4 kmh 29.40 in995.6 mb 0.02 in0.5 mm 0.00 in0.0 mm 0.36 in9.1 mm
09:27 AM 33.6°F0.9°C 32.8°F0.4°C 97% 4.0 mph NW6.4 kmh NW 5.0 mph8.0 kmh 29.40 in995.6 mb 0.02 in0.5 mm 0.00 in0.0 mm 0.36 in9.1 mm
09:28 AM 33.6°F0.9°C 32.8°F0.4°C 97% 3.0 mph NW4.8 kmh NW 5.0 mph8.0 kmh 29.40 in995.6 mb 0.02 in0.5 mm 0.00 in0.0 mm 0.36 in9.1 mm
09:29 AM 33.6°F0.9°C 32.8°F0.4°C 97% 3.0 mph NW4.8 kmh NW 6.0 mph9.7 kmh 29.40 in995.6 mb 0.02 in0.5 mm 0.00 in0.0 mm 0.36 in9.1 mm
09:30 AM 33.5°F0.8°C 32.8°F0.4°C 97% 4.0 mph NW6.4 kmh NW 6.0 mph9.7 kmh 29.40 in995.6 mb 0.02 in0.5 mm 0.00 in0.0 mm 0.36 in9.1 mm
09:31 AM 33.5°F0.8°C 32.7°F0.4°C 97% 3.0 mph NW4.8 kmh NW 6.0 mph9.7 kmh 29.40 in995.6 mb 0.02 in0.5 mm 0.00 in0.0 mm 0.36 in9.1 mm
09:32 AM 33.5°F0.8°C 32.7°F0.4°C 97% 2.0 mph NNW3.2 kmh NNW 5.0 mph8.0 kmh 29.40 in995.6 mb 0.02 in0.5 mm 0.00 in0.0 mm 0.36 in9.1 mm
09:33 AM 33.5°F0.8°C 32.7°F0.4°C 97% 4.0 mph NW6.4 kmh NW 5.0 mph8.0 kmh 29.40 in995.6 mb 0.02 in0.5 mm 0.00 in0.0 mm 0.36 in9.1 mm
09:34 AM 33.5°F0.8°C 32.7°F0.4°C 97% 1.0 mph NW1.6 kmh NW 5.0 mph8.0 kmh 29.40 in995.6 mb 0.02 in0.5 mm 0.00 in0.0 mm 0.36 in9.1 mm
09:35 AM 33.5°F0.8°C 32.7°F0.4°C 97% 1.0 mph NW1.6 kmh NW 3.0 mph4.8 kmh 29.41 in995.9 mb 0.02 in0.5 mm 0.00 in0.0 mm 0.36 in9.1 mm
09:36 AM 33.5°F0.8°C 32.7°F0.4°C 97% 1.0 mph NW1.6 kmh NW 3.0 mph4.8 kmh 29.41 in995.9 mb 0.02 in0.5 mm 0.00 in0.0 mm 0.36 in9.1 mm
09:37 AM 33.5°F0.8°C 32.7°F0.4°C 97% 1.0 mph NW1.6 kmh NW 3.0 mph4.8 kmh 29.41 in995.9 mb 0.02 in0.5 mm 0.00 in0.0 mm 0.36 in9.1 mm
09:38 AM 33.5°F0.8°C 32.7°F0.4°C 97% 1.0 mph NW1.6 kmh NW 2.0 mph3.2 kmh 29.41 in995.9 mb 0.02 in0.5 mm 0.00 in0.0 mm 0.36 in9.1 mm
09:39 AM 33.5°F0.8°C 32.7°F0.4°C 97% Calm Calm 1.0 mph1.6 kmh 29.41 in995.9 mb 0.02 in0.5 mm 0.00 in0.0 mm 0.36 in9.1 mm
09:40 AM 33.5°F0.8°C 32.7°F0.4°C 97% 1.0 mph NW1.6 kmh NW 2.0 mph3.2 kmh 29.41 in995.9 mb 0.02 in0.5 mm 0.00 in0.0 mm 0.36 in9.1 mm
09:41 AM 33.5°F0.8°C 32.7°F0.4°C 97% Calm Calm 2.0 mph3.2 kmh 29.41 in995.9 mb 0.02 in0.5 mm 0.00 in0.0 mm 0.37 in9.4 mm
09:42 AM 33.6°F0.9°C 32.8°F0.4°C 97% 1.0 mph NW1.6 kmh NW 2.0 mph3.2 kmh 29.41 in995.9 mb 0.02 in0.5 mm 0.00 in0.0 mm 0.37 in9.4 mm
09:43 AM 33.6°F0.9°C 32.8°F0.4°C 97% 2.0 mph NW3.2 kmh NW 3.0 mph4.8 kmh 29.41 in995.9 mb 0.02 in0.5 mm 0.00 in0.0 mm 0.37 in9.4 mm
09:44 AM 33.6°F0.9°C 32.8°F0.4°C 97% 2.0 mph NW3.2 kmh NW 3.0 mph4.8 kmh 29.41 in995.9 mb 0.02 in0.5 mm 0.00 in0.0 mm 0.37 in9.4 mm
09:45 AM 33.6°F0.9°C 32.9°F0.5°C 97% 1.0 mph NW1.6 kmh NW 3.0 mph4.8 kmh 29.40 in995.6 mb 0.02 in0.5 mm 0.00 in0.0 mm 0.37 in9.4 mm
09:46 AM 33.7°F0.9°C 32.9°F0.5°C 97% 2.0 mph NW3.2 kmh NW 5.0 mph8.0 kmh 29.40 in995.6 mb 0.02 in0.5 mm 0.00 in0.0 mm 0.37 in9.4 mm
09:47 AM 33.7°F0.9°C 32.9°F0.5°C 97% 2.0 mph NW3.2 kmh NW 5.0 mph8.0 kmh 29.40 in995.6 mb 0.02 in0.5 mm 0.00 in0.0 mm 0.37 in9.4 mm
09:48 AM 33.8°F1.0°C 33.0°F0.6°C 97% 4.0 mph NW6.4 kmh NW 5.0 mph8.0 kmh 29.40 in995.6 mb 0.02 in0.5 mm 0.00 in0.0 mm 0.37 in9.4 mm
09:49 AM 33.8°F1.0°C 33.0°F0.6°C 97% 2.0 mph NW3.2 kmh NW 5.0 mph8.0 kmh 29.40 in995.6 mb 0.02 in0.5 mm 0.00 in0.0 mm 0.37 in9.4 mm
09:50 AM 33.8°F1.0°C 33.1°F0.6°C 97% 2.0 mph NW3.2 kmh NW 4.0 mph6.4 kmh 29.40 in995.6 mb 0.02 in0.5 mm 0.00 in0.0 mm 0.37 in9.4 mm
09:51 AM 33.9°F1.1°C 33.1°F0.6°C 97% 3.0 mph NW4.8 kmh NW 4.0 mph6.4 kmh 29.39 in995.3 mb 0.02 in0.5 mm 0.00 in0.0 mm 0.37 in9.4 mm
09:52 AM 33.9°F1.1°C 33.1°F0.6°C 97% 4.0 mph NW6.4 kmh NW 7.0 mph11.3 kmh 29.40 in995.6 mb 0.02 in0.5 mm 0.00 in0.0 mm 0.37 in9.4 mm
09:53 AM 33.9°F1.1°C 33.1°F0.6°C 97% 2.0 mph NW3.2 kmh NW 7.0 mph11.3 kmh 29.40 in995.6 mb 0.02 in0.5 mm 0.00 in0.0 mm 0.37 in9.4 mm
09:54 AM 33.9°F1.1°C 33.1°F0.6°C 97% 3.0 mph NW4.8 kmh NW 5.0 mph8.0 kmh 29.40 in995.6 mb 0.02 in0.5 mm 0.00 in0.0 mm 0.37 in9.4 mm
09:55 AM 33.9°F1.1°C 33.1°F0.6°C 97% 1.0 mph NW1.6 kmh NW 5.0 mph8.0 kmh 29.40 in995.6 mb 0.02 in0.5 mm 0.00 in0.0 mm 0.37 in9.4 mm
09:56 AM 33.9°F1.1°C 33.1°F0.6°C 97% 1.0 mph NW1.6 kmh NW 3.0 mph4.8 kmh 29.40 in995.6 mb 0.02 in0.5 mm 0.00 in0.0 mm 0.37 in9.4 mm
09:57 AM 33.9°F1.1°C 33.1°F0.6°C 97% 1.0 mph NW1.6 kmh NW 3.0 mph4.8 kmh 29.40 in995.6 mb 0.02 in0.5 mm 0.00 in0.0 mm 0.37 in9.4 mm
09:58 AM 33.9°F1.1°C 33.1°F0.6°C 97% 1.0 mph NW1.6 kmh NW 2.0 mph3.2 kmh 29.40 in995.6 mb 0.02 in0.5 mm 0.00 in0.0 mm 0.37 in9.4 mm
09:59 AM 33.9°F1.1°C 33.2°F0.7°C 97% Calm Calm 2.0 mph3.2 kmh 29.40 in995.6 mb 0.02 in0.5 mm 0.00 in0.0 mm 0.37 in9.4 mm
10:00 AM 34.0°F1.1°C 33.2°F0.7°C 97% Calm Calm 1.0 mph1.6 kmh 29.41 in995.9 mb 0.02 in0.5 mm 0.00 in0.0 mm 0.37 in9.4 mm
10:01 AM 34.0°F1.1°C 33.2°F0.7°C 97% 1.0 mph NW1.6 kmh NW 2.0 mph3.2 kmh 29.41 in995.9 mb 0.02 in0.5 mm 0.00 in0.0 mm 0.38 in9.7 mm
10:02 AM 34.0°F1.1°C 33.2°F0.7°C 97% 1.0 mph NW1.6 kmh NW 2.0 mph3.2 kmh 29.41 in995.9 mb 0.02 in0.5 mm 0.00 in0.0 mm 0.38 in9.7 mm
10:03 AM 34.0°F1.1°C 33.2°F0.7°C 97% Calm Calm 2.0 mph3.2 kmh 29.41 in995.9 mb 0.02 in0.5 mm 0.00 in0.0 mm 0.38 in9.7 mm
10:04 AM 34.0°F1.1°C 33.2°F0.7°C 97% Calm Calm 1.0 mph1.6 kmh 29.41 in995.9 mb 0.02 in0.5 mm 0.00 in0.0 mm 0.38 in9.7 mm
10:05 AM 34.0°F1.1°C 33.2°F0.7°C 97% 2.0 mph W3.2 kmh W 3.0 mph4.8 kmh 29.41 in995.9 mb 0.02 in0.5 mm 0.00 in0.0 mm 0.38 in9.7 mm
10:06 AM 34.0°F1.1°C 33.2°F0.7°C 97% Calm Calm 3.0 mph4.8 kmh 29.41 in995.9 mb 0.02 in0.5 mm 0.00 in0.0 mm 0.38 in9.7 mm
10:07 AM 33.9°F1.1°C 33.1°F0.6°C 97% Calm Calm 1.0 mph1.6 kmh 29.41 in995.9 mb 0.02 in0.5 mm 0.00 in0.0 mm 0.38 in9.7 mm
10:08 AM 33.9°F1.1°C 33.1°F0.6°C 97% Calm Calm -- 29.41 in995.9 mb 0.02 in0.5 mm 0.00 in0.0 mm 0.38 in9.7 mm
10:09 AM 33.9°F1.1°C 33.1°F0.6°C 97% Calm Calm -- 29.42 in996.3 mb 0.02 in0.5 mm 0.00 in0.0 mm 0.38 in9.7 mm
10:10 AM 33.9°F1.1°C 33.1°F0.6°C 97% Calm Calm -- 29.42 in996.3 mb 0.02 in0.5 mm 0.00 in0.0 mm 0.38 in9.7 mm
10:11 AM 33.9°F1.1°C 33.1°F0.6°C 97% Calm Calm -- 29.42 in996.3 mb 0.02 in0.5 mm 0.00 in0.0 mm 0.38 in9.7 mm
10:12 AM 33.9°F1.1°C 33.1°F0.6°C 97% Calm Calm -- 29.42 in996.3 mb 0.02 in0.5 mm 0.00 in0.0 mm 0.38 in9.7 mm
10:13 AM 33.9°F1.1°C 33.1°F0.6°C 97% Calm Calm -- 29.42 in996.3 mb 0.02 in0.5 mm 0.00 in0.0 mm 0.38 in9.7 mm
10:14 AM 33.9°F1.1°C 33.1°F0.6°C 97% Calm Calm -- 29.42 in996.3 mb 0.02 in0.5 mm 0.00 in0.0 mm 0.38 in9.7 mm
10:15 AM 33.9°F1.1°C 33.2°F0.7°C 97% Calm Calm -- 29.42 in996.3 mb 0.02 in0.5 mm 0.00 in0.0 mm 0.38 in9.7 mm
10:16 AM 34.0°F1.1°C 33.2°F0.7°C 97% Calm Calm -- 29.42 in996.3 mb 0.03 in0.8 mm 0.60 in15.2 mm 0.39 in9.9 mm
10:17 AM 34.0°F1.1°C 33.2°F0.7°C 97% Calm Calm -- 29.42 in996.3 mb 0.03 in0.8 mm 0.00 in0.0 mm 0.39 in9.9 mm
10:18 AM 34.1°F1.2°C 33.3°F0.7°C 97% Calm Calm -- 29.42 in996.3 mb 0.03 in0.8 mm 0.00 in0.0 mm 0.39 in9.9 mm
10:19 AM 34.1°F1.2°C 33.3°F0.7°C 97% Calm Calm -- 29.42 in996.3 mb 0.03 in0.8 mm 0.00 in0.0 mm 0.39 in9.9 mm
10:20 AM 34.2°F1.2°C 33.4°F0.8°C 97% Calm Calm -- 29.42 in996.3 mb 0.03 in0.8 mm 0.00 in0.0 mm 0.39 in9.9 mm
10:21 AM 34.3°F1.3°C 33.5°F0.8°C 97% Calm Calm -- 29.42 in996.3 mb 0.03 in0.8 mm 0.00 in0.0 mm 0.39 in9.9 mm
10:22 AM 34.3°F1.3°C 33.6°F0.9°C 97% Calm Calm 1.0 mph1.6 kmh 29.42 in996.3 mb 0.03 in0.8 mm 0.00 in0.0 mm 0.39 in9.9 mm
10:23 AM 34.4°F1.3°C 33.6°F0.9°C 97% Calm Calm 1.0 mph1.6 kmh 29.42 in996.3 mb 0.02 in0.5 mm 0.00 in0.0 mm 0.39 in9.9 mm
10:24 AM 34.4°F1.3°C 33.7°F0.9°C 97% Calm Calm 1.0 mph1.6 kmh 29.42 in996.3 mb 0.02 in0.5 mm 0.00 in0.0 mm 0.39 in9.9 mm
10:25 AM 34.5°F1.4°C 33.7°F0.9°C 97% 1.0 mph WSW1.6 kmh WSW 2.0 mph3.2 kmh 29.42 in996.3 mb 0.02 in0.5 mm 0.00 in0.0 mm 0.39 in9.9 mm
10:26 AM 34.6°F1.4°C 33.8°F1.0°C 97% Calm Calm 2.0 mph3.2 kmh 29.42 in996.3 mb 0.02 in0.5 mm 0.00 in0.0 mm 0.39 in9.9 mm
10:27 AM 34.6°F1.4°C 33.8°F1.0°C 97% Calm Calm -- 29.42 in996.3 mb 0.02 in0.5 mm 0.00 in0.0 mm 0.39 in9.9 mm
10:28 AM 34.7°F1.5°C 33.9°F1.1°C 97% Calm Calm -- 29.42 in996.3 mb 0.03 in0.8 mm 0.60 in15.2 mm 0.39 in9.9 mm
10:29 AM 34.7°F1.5°C 33.9°F1.1°C 97% 1.0 mph W1.6 kmh W 2.0 mph3.2 kmh 29.42 in996.3 mb 0.03 in0.8 mm 0.00 in0.0 mm 0.39 in9.9 mm
10:30 AM 34.7°F1.5°C 33.9°F1.1°C 97% 2.0 mph W3.2 kmh W 3.0 mph4.8 kmh 29.42 in996.3 mb 0.03 in0.8 mm 0.00 in0.0 mm 0.39 in9.9 mm
10:31 AM 34.7°F1.5°C 34.0°F1.1°C 97% 1.0 mph W1.6 kmh W 3.0 mph4.8 kmh 29.42 in996.3 mb 0.03 in0.8 mm 0.00 in0.0 mm 0.39 in9.9 mm
10:32 AM 34.8°F1.6°C 34.0°F1.1°C 97% 1.0 mph W1.6 kmh W 2.0 mph3.2 kmh 29.42 in996.3 mb 0.03 in0.8 mm 0.00 in0.0 mm 0.39 in9.9 mm
10:33 AM 34.8°F1.6°C 34.0°F1.1°C 97% Calm Calm 2.0 mph3.2 kmh 29.42 in996.3 mb 0.03 in0.8 mm 0.00 in0.0 mm 0.39 in9.9 mm
10:34 AM 34.8°F1.6°C 34.0°F1.1°C 97% Calm Calm 1.0 mph1.6 kmh 29.42 in996.3 mb 0.03 in0.8 mm 0.00 in0.0 mm 0.39 in9.9 mm
10:35 AM 34.8°F1.6°C 34.0°F1.1°C 97% 2.0 mph W3.2 kmh W 3.0 mph4.8 kmh 29.42 in996.3 mb 0.03 in0.8 mm 0.00 in0.0 mm 0.39 in9.9 mm
10:36 AM 34.8°F1.6°C 34.0°F1.1°C 97% 2.0 mph W3.2 kmh W 3.0 mph4.8 kmh 29.42 in996.3 mb 0.03 in0.8 mm 0.00 in0.0 mm 0.39 in9.9 mm
10:37 AM 34.8°F1.6°C 34.0°F1.1°C 97% 2.0 mph W3.2 kmh W 4.0 mph6.4 kmh 29.42 in996.3 mb 0.03 in0.8 mm 0.00 in0.0 mm 0.39 in9.9 mm
10:38 AM 34.7°F1.5°C 33.9°F1.1°C 97% 4.0 mph WNW6.4 kmh WNW 6.0 mph9.7 kmh 29.42 in996.3 mb 0.03 in0.8 mm 0.00 in0.0 mm 0.39 in9.9 mm
10:39 AM 34.6°F1.4°C 33.9°F1.1°C 97% 4.0 mph WNW6.4 kmh WNW 6.0 mph9.7 kmh 29.41 in995.9 mb 0.03 in0.8 mm 0.00 in0.0 mm 0.39 in9.9 mm
10:40 AM 34.6°F1.4°C 33.8°F1.0°C 97% 4.0 mph WNW6.4 kmh WNW 5.0 mph8.0 kmh 29.41 in995.9 mb 0.04 in1.0 mm 0.60 in15.2 mm 0.40 in10.2 mm
10:41 AM 34.6°F1.4°C 33.8°F1.0°C 97% 2.0 mph WNW3.2 kmh WNW 4.0 mph6.4 kmh 29.42 in996.3 mb 0.03 in0.8 mm 0.00 in0.0 mm 0.40 in10.2 mm
10:42 AM 34.6°F1.4°C 33.8°F1.0°C 97% 2.0 mph WNW3.2 kmh WNW 3.0 mph4.8 kmh 29.42 in996.3 mb 0.03 in0.8 mm 0.00 in0.0 mm 0.40 in10.2 mm
10:43 AM 34.6°F1.4°C 33.8°F1.0°C 97% 2.0 mph WNW3.2 kmh WNW 3.0 mph4.8 kmh 29.42 in996.3 mb 0.03 in0.8 mm 0.00 in0.0 mm 0.40 in10.2 mm
10:44 AM 34.6°F1.4°C 33.8°F1.0°C 97% 3.0 mph NW4.8 kmh NW 4.0 mph6.4 kmh 29.41 in995.9 mb 0.03 in0.8 mm 0.00 in0.0 mm 0.40 in10.2 mm
10:45 AM 34.6°F1.4°C 33.8°F1.0°C 97% 2.0 mph NW3.2 kmh NW 3.0 mph4.8 kmh 29.41 in995.9 mb 0.03 in0.8 mm 0.00 in0.0 mm 0.40 in10.2 mm
10:46 AM 34.7°F1.5°C 33.9°F1.1°C 97% 2.0 mph NW3.2 kmh NW 3.0 mph4.8 kmh 29.41 in995.9 mb 0.03 in0.8 mm 0.00 in0.0 mm 0.40 in10.2 mm
10:47 AM 34.7°F1.5°C 33.9°F1.1°C 97% 1.0 mph NW1.6 kmh NW 3.0 mph4.8 kmh 29.41 in995.9 mb 0.03 in0.8 mm 0.00 in0.0 mm 0.40 in10.2 mm
10:48 AM 34.7°F1.5°C 34.0°F1.1°C 97% Calm Calm 3.0 mph4.8 kmh 29.41 in995.9 mb 0.03 in0.8 mm 0.00 in0.0 mm 0.40 in10.2 mm
10:49 AM 34.8°F1.6°C 34.0°F1.1°C 97% 1.0 mph NW1.6 kmh NW 2.0 mph3.2 kmh 29.41 in995.9 mb 0.03 in0.8 mm 0.00 in0.0 mm 0.40 in10.2 mm
10:50 AM 34.8°F1.6°C 34.0°F1.1°C 97% 1.0 mph NW1.6 kmh NW 2.0 mph3.2 kmh 29.41 in995.9 mb 0.03 in0.8 mm 0.00 in0.0 mm 0.40 in10.2 mm
10:51 AM 34.8°F1.6°C 34.0°F1.1°C 97% 1.0 mph NW1.6 kmh NW 2.0 mph3.2 kmh 29.41 in995.9 mb 0.03 in0.8 mm 0.00 in0.0 mm 0.40 in10.2 mm
10:52 AM 34.9°F1.6°C 34.1°F1.2°C 97% 2.0 mph NW3.2 kmh NW 2.0 mph3.2 kmh 29.41 in995.9 mb 0.03 in0.8 mm 0.00 in0.0 mm 0.40 in10.2 mm
10:53 AM 34.9°F1.6°C 34.1°F1.2°C 97% 2.0 mph NW3.2 kmh NW 3.0 mph4.8 kmh 29.41 in995.9 mb 0.03 in0.8 mm 0.00 in0.0 mm 0.40 in10.2 mm
10:54 AM 34.9°F1.6°C 34.1°F1.2°C 97% 2.0 mph NW3.2 kmh NW 3.0 mph4.8 kmh 29.41 in995.9 mb 0.04 in1.0 mm 0.60 in15.2 mm 0.41 in10.4 mm
10:55 AM 34.9°F1.6°C 34.1°F1.2°C 97% 1.0 mph NW1.6 kmh NW 2.0 mph3.2 kmh 29.42 in996.3 mb 0.04 in1.0 mm 0.00 in0.0 mm 0.41 in10.4 mm
10:56 AM 34.9°F1.6°C 34.1°F1.2°C 97% Calm Calm 1.0 mph1.6 kmh 29.42 in996.3 mb 0.04 in1.0 mm 0.00 in0.0 mm 0.41 in10.4 mm
10:57 AM 34.9°F1.6°C 34.1°F1.2°C 97% Calm Calm -- 29.42 in996.3 mb 0.04 in1.0 mm 0.00 in0.0 mm 0.41 in10.4 mm
10:58 AM 34.9°F1.6°C 34.1°F1.2°C 97% Calm Calm -- 29.42 in996.3 mb 0.04 in1.0 mm 0.00 in0.0 mm 0.41 in10.4 mm
10:59 AM 34.9°F1.6°C 34.1°F1.2°C 97% Calm Calm -- 29.41 in995.9 mb 0.04 in1.0 mm 0.00 in0.0 mm 0.41 in10.4 mm
11:00 AM 34.9°F1.6°C 34.1°F1.2°C 97% 1.0 mph NW1.6 kmh NW 2.0 mph3.2 kmh 29.41 in995.9 mb 0.04 in1.0 mm 0.00 in0.0 mm 0.41 in10.4 mm
11:01 AM 34.9°F1.6°C 34.1°F1.2°C 97% 3.0 mph W4.8 kmh W 3.0 mph4.8 kmh 29.42 in996.3 mb 0.03 in0.8 mm 0.00 in0.0 mm 0.41 in10.4 mm
11:02 AM 34.9°F1.6°C 34.1°F1.2°C 97% 3.0 mph SW4.8 kmh SW 3.0 mph4.8 kmh 29.42 in996.3 mb 0.03 in0.8 mm 0.00 in0.0 mm 0.41 in10.4 mm
11:03 AM 34.8°F1.6°C 34.0°F1.1°C 97% 3.0 mph SW4.8 kmh SW 4.0 mph6.4 kmh 29.42 in996.3 mb 0.03 in0.8 mm 0.00 in0.0 mm 0.41 in10.4 mm
11:04 AM 34.8°F1.6°C 34.0°F1.1°C 97% 2.0 mph SW3.2 kmh SW 4.0 mph6.4 kmh 29.42 in996.3 mb 0.03 in0.8 mm 0.00 in0.0 mm 0.41 in10.4 mm
11:05 AM 34.8°F1.6°C 34.0°F1.1°C 97% 2.0 mph SW3.2 kmh SW 4.0 mph6.4 kmh 29.42 in996.3 mb 0.04 in1.0 mm 0.60 in15.2 mm 0.42 in10.7 mm
11:06 AM 34.8°F1.6°C 34.0°F1.1°C 97% 2.0 mph SW3.2 kmh SW 4.0 mph6.4 kmh 29.42 in996.3 mb 0.04 in1.0 mm 0.00 in0.0 mm 0.42 in10.7 mm
11:07 AM 34.7°F1.5°C 34.0°F1.1°C 97% 3.0 mph SW4.8 kmh SW 4.0 mph6.4 kmh 29.42 in996.3 mb 0.04 in1.0 mm 0.00 in0.0 mm 0.42 in10.7 mm
11:08 AM 34.7°F1.5°C 33.9°F1.1°C 97% 3.0 mph SW4.8 kmh SW 4.0 mph6.4 kmh 29.42 in996.3 mb 0.04 in1.0 mm 0.00 in0.0 mm 0.42 in10.7 mm
11:09 AM 34.7°F1.5°C 33.9°F1.1°C 97% 3.0 mph SW4.8 kmh SW 4.0 mph6.4 kmh 29.42 in996.3 mb 0.04 in1.0 mm 0.00 in0.0 mm 0.42 in10.7 mm
11:10 AM 34.6°F1.4°C 33.8°F1.0°C 97% 3.0 mph SSW4.8 kmh SSW 5.0 mph8.0 kmh 29.42 in996.3 mb 0.04 in1.0 mm 0.00 in0.0 mm 0.42 in10.7 mm
11:11 AM 34.6°F1.4°C 33.8°F1.0°C 97% 2.0 mph SW3.2 kmh SW 5.0 mph8.0 kmh 29.42 in996.3 mb 0.04 in1.0 mm 0.00 in0.0 mm 0.42 in10.7 mm
11:12 AM 34.6°F1.4°C 33.8°F1.0°C 97% 1.0 mph SW1.6 kmh SW 3.0 mph4.8 kmh 29.42 in996.3 mb 0.04 in1.0 mm 0.00 in0.0 mm 0.42 in10.7 mm
11:13 AM 34.6°F1.4°C 33.6°F0.9°C 96% 1.0 mph WSW1.6 kmh WSW 3.0 mph4.8 kmh 29.42 in996.3 mb 0.04 in1.0 mm 0.00 in0.0 mm 0.42 in10.7 mm
11:14 AM 34.6°F1.4°C 33.6°F0.9°C 96% 2.0 mph WSW3.2 kmh WSW 3.0 mph4.8 kmh 29.42 in996.3 mb 0.04 in1.0 mm 0.00 in0.0 mm 0.42 in10.7 mm
11:15 AM 34.6°F1.4°C 33.6°F0.9°C 96% 2.0 mph W3.2 kmh W 3.0 mph4.8 kmh 29.42 in996.3 mb 0.04 in1.0 mm 0.00 in0.0 mm 0.42 in10.7 mm
11:16 AM 34.6°F1.4°C 33.6°F0.9°C 96% 2.0 mph W3.2 kmh W 3.0 mph4.8 kmh 29.42 in996.3 mb 0.03 in0.8 mm 0.00 in0.0 mm 0.42 in10.7 mm
11:17 AM 34.6°F1.4°C 33.6°F0.9°C 96% 3.0 mph W4.8 kmh W 4.0 mph6.4 kmh 29.42 in996.3 mb 0.03 in0.8 mm 0.00 in0.0 mm 0.42 in10.7 mm
11:18 AM 34.6°F1.4°C 33.6°F0.9°C 96% 3.0 mph WNW4.8 kmh WNW 4.0 mph6.4 kmh 29.42 in996.3 mb 0.03 in0.8 mm 0.00 in0.0 mm 0.42 in10.7 mm
11:19 AM 34.6°F1.4°C 33.6°F0.9°C 96% 2.0 mph WNW3.2 kmh WNW 4.0 mph6.4 kmh 29.42 in996.3 mb 0.03 in0.8 mm 0.00 in0.0 mm 0.42 in10.7 mm
11:20 AM 34.6°F1.4°C 33.6°F0.9°C 96% Calm Calm 3.0 mph4.8 kmh 29.42 in996.3 mb 0.03 in0.8 mm 0.00 in0.0 mm 0.42 in10.7 mm
11:21 AM 34.6°F1.4°C 33.6°F0.9°C 96% Calm Calm 2.0 mph3.2 kmh 29.42 in996.3 mb 0.04 in1.0 mm 0.60 in15.2 mm 0.43 in10.9 mm
11:22 AM 34.6°F1.4°C 33.6°F0.9°C 96% 1.0 mph WNW1.6 kmh WNW 1.0 mph1.6 kmh 29.42 in996.3 mb 0.04 in1.0 mm 0.00 in0.0 mm 0.43 in10.9 mm
11:23 AM 34.7°F1.5°C 33.7°F0.9°C 96% 1.0 mph WNW1.6 kmh WNW 2.0 mph3.2 kmh 29.42 in996.3 mb 0.04 in1.0 mm 0.00 in0.0 mm 0.43 in10.9 mm
11:24 AM 34.8°F1.6°C 34.0°F1.1°C 97% 1.0 mph WNW1.6 kmh WNW 2.0 mph3.2 kmh 29.42 in996.3 mb 0.04 in1.0 mm 0.00 in0.0 mm 0.43 in10.9 mm
11:25 AM 34.9°F1.6°C 34.1°F1.2°C 97% Calm Calm 2.0 mph3.2 kmh 29.42 in996.3 mb 0.04 in1.0 mm 0.00 in0.0 mm 0.43 in10.9 mm
11:26 AM 34.9°F1.6°C 34.2°F1.2°C 97% Calm Calm 1.0 mph1.6 kmh 29.42 in996.3 mb 0.04 in1.0 mm 0.00 in0.0 mm 0.43 in10.9 mm
11:27 AM 35.0°F1.7°C 34.2°F1.2°C 97% Calm Calm -- 29.42 in996.3 mb 0.04 in1.0 mm 0.00 in0.0 mm 0.43 in10.9 mm
11:28 AM 35.0°F1.7°C 34.2°F1.2°C 97% Calm Calm -- 29.42 in996.3 mb 0.03 in0.8 mm 0.00 in0.0 mm 0.43 in10.9 mm
11:29 AM 35.0°F1.7°C 34.2°F1.2°C 97% 1.0 mph WNW1.6 kmh WNW 2.0 mph3.2 kmh 29.42 in996.3 mb 0.04 in1.0 mm 0.60 in15.2 mm 0.43 in10.9 mm
11:30 AM 35.1°F1.7°C 34.3°F1.3°C 97% 2.0 mph WNW3.2 kmh WNW 2.0 mph3.2 kmh 29.42 in996.3 mb 0.04 in1.0 mm 0.00 in0.0 mm 0.43 in10.9 mm
11:31 AM 35.1°F1.7°C 34.3°F1.3°C 97% 1.0 mph WNW1.6 kmh WNW 2.0 mph3.2 kmh 29.41 in995.9 mb 0.04 in1.0 mm 0.00 in0.0 mm 0.43 in10.9 mm
11:32 AM 35.2°F1.8°C 34.4°F1.3°C 97% 1.0 mph WNW1.6 kmh WNW 2.0 mph3.2 kmh 29.42 in996.3 mb 0.04 in1.0 mm 0.00 in0.0 mm 0.43 in10.9 mm
11:33 AM 35.3°F1.8°C 34.5°F1.4°C 97% 1.0 mph WNW1.6 kmh WNW 2.0 mph3.2 kmh 29.41 in995.9 mb 0.04 in1.0 mm 0.00 in0.0 mm 0.43 in10.9 mm
11:34 AM 35.3°F1.8°C 34.5°F1.4°C 97% Calm Calm 3.0 mph4.8 kmh 29.41 in995.9 mb 0.04 in1.0 mm 0.00 in0.0 mm 0.43 in10.9 mm
11:35 AM 35.4°F1.9°C 34.6°F1.4°C 97% 1.0 mph WNW1.6 kmh WNW 3.0 mph4.8 kmh 29.41 in995.9 mb 0.04 in1.0 mm 0.00 in0.0 mm 0.43 in10.9 mm
11:36 AM 35.4°F1.9°C 34.7°F1.5°C 97% 1.0 mph WNW1.6 kmh WNW 2.0 mph3.2 kmh 29.41 in995.9 mb 0.04 in1.0 mm 0.00 in0.0 mm 0.43 in10.9 mm
11:37 AM 35.5°F1.9°C 34.7°F1.5°C 97% 2.0 mph WNW3.2 kmh WNW 3.0 mph4.8 kmh 29.41 in995.9 mb 0.04 in1.0 mm 0.00 in0.0 mm 0.43 in10.9 mm
11:38 AM 35.5°F1.9°C 34.7°F1.5°C 97% 1.0 mph WNW1.6 kmh WNW 3.0 mph4.8 kmh 29.41 in995.9 mb 0.04 in1.0 mm 0.00 in0.0 mm 0.43 in10.9 mm
11:39 AM 35.5°F1.9°C 34.7°F1.5°C 97% 1.0 mph WNW1.6 kmh WNW 2.0 mph3.2 kmh 29.41 in995.9 mb 0.04 in1.0 mm 0.00 in0.0 mm 0.43 in10.9 mm
11:40 AM 35.6°F2.0°C 34.8°F1.6°C 97% 1.0 mph WNW1.6 kmh WNW 2.0 mph3.2 kmh 29.42 in996.3 mb 0.03 in0.8 mm 0.00 in0.0 mm 0.43 in10.9 mm
11:41 AM 35.6°F2.0°C 34.8°F1.6°C 97% Calm Calm 2.0 mph3.2 kmh 29.41 in995.9 mb 0.03 in0.8 mm 0.00 in0.0 mm 0.43 in10.9 mm
11:42 AM 35.7°F2.1°C 34.9°F1.6°C 97% 1.0 mph WNW1.6 kmh WNW 1.0 mph1.6 kmh 29.41 in995.9 mb 0.04 in1.0 mm 0.60 in15.2 mm 0.44 in11.2 mm
11:43 AM 35.7°F2.1°C 34.9°F1.6°C 97% Calm Calm 1.0 mph1.6 kmh 29.41 in995.9 mb 0.04 in1.0 mm 0.00 in0.0 mm 0.44 in11.2 mm
11:44 AM 35.8°F2.1°C 35.0°F1.7°C 97% Calm Calm 2.0 mph3.2 kmh 29.42 in996.3 mb 0.04 in1.0 mm 0.00 in0.0 mm 0.44 in11.2 mm
11:45 AM 35.8°F2.1°C 35.0°F1.7°C 97% 2.0 mph W3.2 kmh W 3.0 mph4.8 kmh 29.42 in996.3 mb 0.04 in1.0 mm 0.00 in0.0 mm 0.44 in11.2 mm
11:46 AM 35.9°F2.2°C 35.1°F1.7°C 97% 3.0 mph WSW4.8 kmh WSW 3.0 mph4.8 kmh 29.42 in996.3 mb 0.04 in1.0 mm 0.00 in0.0 mm 0.44 in11.2 mm
11:47 AM 35.8°F2.1°C 35.1°F1.7°C 97% 5.0 mph SW8.0 kmh SW 6.0 mph9.7 kmh 29.42 in996.3 mb 0.04 in1.0 mm 0.00 in0.0 mm 0.44 in11.2 mm
11:48 AM 35.8°F2.1°C 35.0°F1.7°C 97% 4.0 mph WSW6.4 kmh WSW 6.0 mph9.7 kmh 29.42 in996.3 mb 0.04 in1.0 mm 0.00 in0.0 mm 0.44 in11.2 mm
11:49 AM 35.7°F2.1°C 34.9°F1.6°C 97% 3.0 mph SW4.8 kmh SW 5.0 mph8.0 kmh 29.42 in996.3 mb 0.04 in1.0 mm 0.00 in0.0 mm 0.44 in11.2 mm
11:50 AM 35.7°F2.1°C 34.9°F1.6°C 97% 3.0 mph SW4.8 kmh SW 4.0 mph6.4 kmh 29.42 in996.3 mb 0.04 in1.0 mm 0.00 in0.0 mm 0.44 in11.2 mm
11:51 AM 35.7°F2.1°C 34.9°F1.6°C 97% 1.0 mph SW1.6 kmh SW 4.0 mph6.4 kmh 29.42 in996.3 mb 0.04 in1.0 mm 0.00 in0.0 mm 0.44 in11.2 mm
11:52 AM 35.7°F2.1°C 34.9°F1.6°C 97% 2.0 mph SW3.2 kmh SW 3.0 mph4.8 kmh 29.41 in995.9 mb 0.04 in1.0 mm 0.00 in0.0 mm 0.44 in11.2 mm
11:53 AM 35.7°F2.1°C 34.9°F1.6°C 97% Calm Calm 3.0 mph4.8 kmh 29.41 in995.9 mb 0.05 in1.3 mm 0.60 in15.2 mm 0.45 in11.4 mm
11:54 AM 35.7°F2.1°C 34.9°F1.6°C 97% 1.0 mph NW1.6 kmh NW 3.0 mph4.8 kmh 29.41 in995.9 mb 0.04 in1.0 mm 0.00 in0.0 mm 0.45 in11.4 mm
11:55 AM 35.8°F2.1°C 35.0°F1.7°C 97% 2.0 mph NW3.2 kmh NW 4.0 mph6.4 kmh 29.41 in995.9 mb 0.04 in1.0 mm 0.00 in0.0 mm 0.45 in11.4 mm
11:56 AM 35.8°F2.1°C 35.1°F1.7°C 97% 1.0 mph NW1.6 kmh NW 4.0 mph6.4 kmh 29.41 in995.9 mb 0.04 in1.0 mm 0.00 in0.0 mm 0.45 in11.4 mm
11:57 AM 35.9°F2.2°C 35.1°F1.7°C 97% 1.0 mph NW1.6 kmh NW 3.0 mph4.8 kmh 29.41 in995.9 mb 0.04 in1.0 mm 0.00 in0.0 mm 0.45 in11.4 mm
11:58 AM 35.9°F2.2°C 35.2°F1.8°C 97% 2.0 mph NW3.2 kmh NW 2.0 mph3.2 kmh 29.41 in995.9 mb 0.04 in1.0 mm 0.00 in0.0 mm 0.45 in11.4 mm
11:59 AM 36.0°F2.2°C 35.2°F1.8°C 97% 1.0 mph NW1.6 kmh NW 2.0 mph3.2 kmh 29.41 in995.9 mb 0.04 in1.0 mm 0.00 in0.0 mm 0.45 in11.4 mm
12:00 PM 36.0°F2.2°C 35.2°F1.8°C 97% 1.0 mph NW1.6 kmh NW 2.0 mph3.2 kmh 29.41 in995.9 mb 0.04 in1.0 mm 0.00 in0.0 mm 0.45 in11.4 mm
12:01 PM 36.1°F2.3°C 35.3°F1.8°C 97% 2.0 mph WNW3.2 kmh WNW 3.0 mph4.8 kmh 29.41 in995.9 mb 0.04 in1.0 mm 0.00 in0.0 mm 0.45 in11.4 mm
12:02 PM 36.1°F2.3°C 35.3°F1.8°C 97% 3.0 mph W4.8 kmh W 3.0 mph4.8 kmh 29.41 in995.9 mb 0.04 in1.0 mm 0.00 in0.0 mm 0.45 in11.4 mm
12:03 PM 36.1°F2.3°C 35.4°F1.9°C 97% 2.0 mph WNW3.2 kmh WNW 4.0 mph6.4 kmh 29.41 in995.9 mb 0.05 in1.3 mm 0.60 in15.2 mm 0.46 in11.7 mm
12:04 PM 36.2°F2.3°C 35.4°F1.9°C 97% 3.0 mph WNW4.8 kmh WNW 4.0 mph6.4 kmh 29.41 in995.9 mb 0.05 in1.3 mm 0.00 in0.0 mm 0.46 in11.7 mm
12:05 PM 36.2°F2.3°C 35.5°F1.9°C 97% 2.0 mph NW3.2 kmh NW 4.0 mph6.4 kmh 29.41 in995.9 mb 0.04 in1.0 mm 0.00 in0.0 mm 0.46 in11.7 mm
12:06 PM 36.4°F2.4°C 35.6°F2.0°C 97% 1.0 mph NNW1.6 kmh NNW 4.0 mph6.4 kmh 29.41 in995.9 mb 0.04 in1.0 mm 0.00 in0.0 mm 0.46 in11.7 mm
12:07 PM 36.5°F2.5°C 35.8°F2.1°C 97% Calm Calm 2.0 mph3.2 kmh 29.41 in995.9 mb 0.04 in1.0 mm 0.00 in0.0 mm 0.46 in11.7 mm
12:08 PM 36.7°F2.6°C 35.9°F2.2°C 97% Calm Calm 2.0 mph3.2 kmh 29.41 in995.9 mb 0.05 in1.3 mm 0.60 in15.2 mm 0.46 in11.7 mm
12:09 PM 36.8°F2.7°C 36.0°F2.2°C 97% 1.0 mph NNW1.6 kmh NNW 2.0 mph3.2 kmh 29.41 in995.9 mb 0.05 in1.3 mm 0.00 in0.0 mm 0.46 in11.7 mm
12:10 PM 37.0°F2.8°C 36.2°F2.3°C 97% 1.0 mph NNW1.6 kmh NNW 2.0 mph3.2 kmh 29.41 in995.9 mb 0.05 in1.3 mm 0.00 in0.0 mm 0.46 in11.7 mm
12:11 PM 37.0°F2.8°C 36.3°F2.4°C 97% Calm Calm 2.0 mph3.2 kmh 29.41 in995.9 mb 0.05 in1.3 mm 0.00 in0.0 mm 0.46 in11.7 mm
12:12 PM 37.2°F2.9°C 36.4°F2.4°C 97% Calm Calm -- 29.41 in995.9 mb 0.05 in1.3 mm 0.00 in0.0 mm 0.46 in11.7 mm
12:13 PM 37.3°F2.9°C 36.5°F2.5°C 97% Calm Calm 1.0 mph1.6 kmh 29.41 in995.9 mb 0.05 in1.3 mm 0.00 in0.0 mm 0.46 in11.7 mm
12:14 PM 37.4°F3.0°C 36.6°F2.6°C 97% Calm Calm 1.0 mph1.6 kmh 29.41 in995.9 mb 0.05 in1.3 mm 0.00 in0.0 mm 0.46 in11.7 mm
12:15 PM 37.4°F3.0°C 36.7°F2.6°C 97% Calm Calm 1.0 mph1.6 kmh 29.41 in995.9 mb 0.05 in1.3 mm 0.00 in0.0 mm 0.46 in11.7 mm
12:16 PM 37.5°F3.1°C 36.7°F2.6°C 97% 1.0 mph NW1.6 kmh NW 2.0 mph3.2 kmh 29.41 in995.9 mb 0.05 in1.3 mm 0.00 in0.0 mm 0.46 in11.7 mm
12:17 PM 37.6°F3.1°C 36.8°F2.7°C 97% 1.0 mph NW1.6 kmh NW 2.0 mph3.2 kmh 29.41 in995.9 mb 0.05 in1.3 mm 0.00 in0.0 mm 0.46 in11.7 mm
12:18 PM 37.6°F3.1°C 36.8°F2.7°C 97% 1.0 mph NW1.6 kmh NW 2.0 mph3.2 kmh 29.41 in995.9 mb 0.05 in1.3 mm 0.00 in0.0 mm 0.46 in11.7 mm
12:19 PM 37.7°F3.2°C 36.9°F2.7°C 97% 1.0 mph NW1.6 kmh NW 2.0 mph3.2 kmh 29.41 in995.9 mb 0.05 in1.3 mm 0.00 in0.0 mm 0.46 in11.7 mm
12:20 PM 37.7°F3.2°C 36.9°F2.7°C 97% 2.0 mph NW3.2 kmh NW 2.0 mph3.2 kmh 29.41 in995.9 mb 0.05 in1.3 mm 0.00 in0.0 mm 0.46 in11.7 mm
12:21 PM 37.7°F3.2°C 36.9°F2.7°C 97% Calm Calm 2.0 mph3.2 kmh 29.41 in995.9 mb 0.04 in1.0 mm 0.00 in0.0 mm 0.46 in11.7 mm
12:22 PM 37.7°F3.2°C 37.0°F2.8°C 97% 1.0 mph NW1.6 kmh NW 2.0 mph3.2 kmh 29.41 in995.9 mb 0.05 in1.3 mm 0.60 in15.2 mm 0.47 in11.9 mm
12:23 PM 37.8°F3.2°C 37.0°F2.8°C 97% 2.0 mph NW3.2 kmh NW 2.0 mph3.2 kmh 29.41 in995.9 mb 0.05 in1.3 mm 0.00 in0.0 mm 0.47 in11.9 mm
12:24 PM 37.8°F3.2°C 37.0°F2.8°C 97% 1.0 mph NW1.6 kmh NW 2.0 mph3.2 kmh 29.41 in995.9 mb 0.05 in1.3 mm 0.00 in0.0 mm 0.47 in11.9 mm
12:25 PM 37.8°F3.2°C 37.0°F2.8°C 97% 2.0 mph NW3.2 kmh NW 3.0 mph4.8 kmh 29.41 in995.9 mb 0.05 in1.3 mm 0.00 in0.0 mm 0.47 in11.9 mm
12:26 PM 37.8°F3.2°C 37.0°F2.8°C 97% 3.0 mph W4.8 kmh W 3.0 mph4.8 kmh 29.41 in995.9 mb 0.05 in1.3 mm 0.00 in0.0 mm 0.47 in11.9 mm
12:27 PM 37.9°F3.3°C 37.1°F2.8°C 97% 4.0 mph WSW6.4 kmh WSW 4.0 mph6.4 kmh 29.41 in995.9 mb 0.05 in1.3 mm 0.00 in0.0 mm 0.47 in11.9 mm
12:28 PM 37.8°F3.2°C 37.0°F2.8°C 97% 3.0 mph WSW4.8 kmh WSW 4.0 mph6.4 kmh 29.41 in995.9 mb 0.05 in1.3 mm 0.00 in0.0 mm 0.47 in11.9 mm
12:29 PM 37.8°F3.2°C 37.0°F2.8°C 97% 3.0 mph WSW4.8 kmh WSW 4.0 mph6.4 kmh 29.41 in995.9 mb 0.04 in1.0 mm 0.00 in0.0 mm 0.47 in11.9 mm
12:30 PM 37.8°F3.2°C 37.0°F2.8°C 97% 3.0 mph SW4.8 kmh SW 4.0 mph6.4 kmh 29.41 in995.9 mb 0.04 in1.0 mm 0.00 in0.0 mm 0.47 in11.9 mm
12:31 PM 37.9°F3.3°C 37.1°F2.8°C 97% 5.0 mph SSW8.0 kmh SSW 7.0 mph11.3 kmh 29.41 in995.9 mb 0.04 in1.0 mm 0.00 in0.0 mm 0.47 in11.9 mm
12:32 PM 37.9°F3.3°C 37.1°F2.8°C 97% 6.0 mph SSW9.7 kmh SSW 7.0 mph11.3 kmh 29.41 in995.9 mb 0.04 in1.0 mm 0.00 in0.0 mm 0.47 in11.9 mm
12:33 PM 37.8°F3.2°C 37.0°F2.8°C 97% 7.0 mph SSW11.3 kmh SSW 8.0 mph12.9 kmh 29.42 in996.3 mb 0.05 in1.3 mm 0.60 in15.2 mm 0.48 in12.2 mm
12:34 PM 37.5°F3.1°C 36.7°F2.6°C 97% 6.0 mph SSW9.7 kmh SSW 8.0 mph12.9 kmh 29.42 in996.3 mb 0.05 in1.3 mm 0.00 in0.0 mm 0.48 in12.2 mm
12:35 PM 37.3°F2.9°C 36.5°F2.5°C 97% 6.0 mph SSW9.7 kmh SSW 8.0 mph12.9 kmh 29.42 in996.3 mb 0.05 in1.3 mm 0.00 in0.0 mm 0.48 in12.2 mm
12:36 PM 37.1°F2.8°C 36.4°F2.4°C 97% 5.0 mph SW8.0 kmh SW 7.0 mph11.3 kmh 29.42 in996.3 mb 0.05 in1.3 mm 0.00 in0.0 mm 0.48 in12.2 mm
12:37 PM 36.9°F2.7°C 36.2°F2.3°C 97% 4.0 mph SSW6.4 kmh SSW 6.0 mph9.7 kmh 29.42 in996.3 mb 0.05 in1.3 mm 0.00 in0.0 mm 0.48 in12.2 mm
12:38 PM 36.9°F2.7°C 36.1°F2.3°C 97% 2.0 mph S3.2 kmh S 5.0 mph8.0 kmh 29.42 in996.3 mb 0.05 in1.3 mm 0.00 in0.0 mm 0.48 in12.2 mm
12:39 PM 36.8°F2.7°C 36.0°F2.2°C 97% 4.0 mph S6.4 kmh S 5.0 mph8.0 kmh 29.42 in996.3 mb 0.05 in1.3 mm 0.00 in0.0 mm 0.48 in12.2 mm
12:40 PM 36.8°F2.7°C 36.0°F2.2°C 97% 3.0 mph SSW4.8 kmh SSW 5.0 mph8.0 kmh 29.42 in996.3 mb 0.05 in1.3 mm 0.00 in0.0 mm 0.48 in12.2 mm
12:41 PM 36.8°F2.7°C 36.0°F2.2°C 97% 4.0 mph SSW6.4 kmh SSW 5.0 mph8.0 kmh 29.42 in996.3 mb 0.05 in1.3 mm 0.00 in0.0 mm 0.48 in12.2 mm
12:42 PM 36.8°F2.7°C 36.0°F2.2°C 97% 4.0 mph SW6.4 kmh SW 5.0 mph8.0 kmh 29.42 in996.3 mb 0.04 in1.0 mm 0.00 in0.0 mm 0.48 in12.2 mm
12:43 PM 36.8°F2.7°C 36.0°F2.2°C 97% 4.0 mph SW6.4 kmh SW 4.0 mph6.4 kmh 29.42 in996.3 mb 0.05 in1.3 mm 0.60 in15.2 mm 0.49 in12.4 mm
12:44 PM 36.8°F2.7°C 36.0°F2.2°C 97% 3.0 mph SW4.8 kmh SW 4.0 mph6.4 kmh 29.42 in996.3 mb 0.05 in1.3 mm 0.00 in0.0 mm 0.49 in12.4 mm
12:45 PM 36.8°F2.7°C 36.0°F2.2°C 97% 3.0 mph SW4.8 kmh SW 4.0 mph6.4 kmh 29.42 in996.3 mb 0.05 in1.3 mm 0.00 in0.0 mm 0.49 in12.4 mm
12:46 PM 36.9°F2.7°C 36.1°F2.3°C 97% 2.0 mph SW3.2 kmh SW 4.0 mph6.4 kmh 29.42 in996.3 mb 0.05 in1.3 mm 0.00 in0.0 mm 0.49 in12.4 mm
12:47 PM 36.9°F2.7°C 36.2°F2.3°C 97% 2.0 mph SW3.2 kmh SW 3.0 mph4.8 kmh 29.42 in996.3 mb 0.05 in1.3 mm 0.00 in0.0 mm 0.49 in12.4 mm
12:48 PM 37.0°F2.8°C 36.2°F2.3°C 97% 2.0 mph SW3.2 kmh SW 3.0 mph4.8 kmh 29.42 in996.3 mb 0.05 in1.3 mm 0.00 in0.0 mm 0.49 in12.4 mm
12:49 PM 37.0°F2.8°C 36.3°F2.4°C 97% Calm Calm 2.0 mph3.2 kmh 29.42 in996.3 mb 0.05 in1.3 mm 0.00 in0.0 mm 0.49 in12.4 mm
12:50 PM 37.1°F2.8°C 36.3°F2.4°C 97% Calm Calm -- 29.42 in996.3 mb 0.05 in1.3 mm 0.00 in0.0 mm 0.49 in12.4 mm
12:51 PM 37.2°F2.9°C 36.4°F2.4°C 97% Calm Calm -- 29.42 in996.3 mb 0.05 in1.3 mm 0.00 in0.0 mm 0.49 in12.4 mm
12:52 PM 37.2°F2.9°C 36.5°F2.5°C 97% Calm Calm -- 29.42 in996.3 mb 0.05 in1.3 mm 0.00 in0.0 mm 0.49 in12.4 mm
12:53 PM 37.3°F2.9°C 36.5°F2.5°C 97% Calm Calm -- 29.42 in996.3 mb 0.05 in1.3 mm 0.00 in0.0 mm 0.50 in12.7 mm
12:54 PM 37.3°F2.9°C 36.5°F2.5°C 97% Calm Calm -- 29.42 in996.3 mb 0.05 in1.3 mm 0.00 in0.0 mm 0.50 in12.7 mm
12:55 PM 37.4°F3.0°C 36.6°F2.6°C 97% 1.0 mph SW1.6 kmh SW 2.0 mph3.2 kmh 29.42 in996.3 mb 0.05 in1.3 mm 0.00 in0.0 mm 0.50 in12.7 mm
12:56 PM 37.4°F3.0°C 36.6°F2.6°C 97% 1.0 mph SW1.6 kmh SW 2.0 mph3.2 kmh 29.42 in996.3 mb 0.05 in1.3 mm 0.00 in0.0 mm 0.50 in12.7 mm
12:57 PM 37.5°F3.1°C 36.7°F2.6°C 97% 1.0 mph SW1.6 kmh SW 2.0 mph3.2 kmh 29.42 in996.3 mb 0.05 in1.3 mm 0.00 in0.0 mm 0.50 in12.7 mm
12:58 PM 37.6°F3.1°C 36.9°F2.7°C 97% 1.0 mph SW1.6 kmh SW 3.0 mph4.8 kmh 29.42 in996.3 mb 0.05 in1.3 mm 0.00 in0.0 mm 0.50 in12.7 mm
12:59 PM 37.7°F3.2°C 36.9°F2.7°C 97% 2.0 mph SW3.2 kmh SW 3.0 mph4.8 kmh 29.42 in996.3 mb 0.05 in1.3 mm 0.00 in0.0 mm 0.50 in12.7 mm
01:00 PM 37.8°F3.2°C 37.0°F2.8°C 97% 2.0 mph SW3.2 kmh SW 3.0 mph4.8 kmh 29.42 in996.3 mb 0.05 in1.3 mm 0.00 in0.0 mm 0.50 in12.7 mm
01:01 PM 37.8°F3.2°C 37.0°F2.8°C 97% 2.0 mph SW3.2 kmh SW 3.0 mph4.8 kmh 29.42 in996.3 mb 0.05 in1.3 mm 0.00 in0.0 mm 0.50 in12.7 mm
01:02 PM 37.9°F3.3°C 37.1°F2.8°C 97% 1.0 mph SW1.6 kmh SW 3.0 mph4.8 kmh 29.42 in996.3 mb 0.05 in1.3 mm 0.00 in0.0 mm 0.50 in12.7 mm
01:03 PM 37.9°F3.3°C 37.1°F2.8°C 97% 1.0 mph SW1.6 kmh SW 2.0 mph3.2 kmh 29.42 in996.3 mb 0.04 in1.0 mm 0.00 in0.0 mm 0.50 in12.7 mm
01:04 PM 37.9°F3.3°C 37.1°F2.8°C 97% 2.0 mph SW3.2 kmh SW 3.0 mph4.8 kmh 29.42 in996.3 mb 0.04 in1.0 mm 0.00 in0.0 mm 0.50 in12.7 mm
01:05 PM 37.9°F3.3°C 37.1°F2.8°C 97% 2.0 mph SW3.2 kmh SW 3.0 mph4.8 kmh 29.42 in996.3 mb 0.04 in1.0 mm 0.00 in0.0 mm 0.50 in12.7 mm
01:06 PM 38.0°F3.3°C 37.2°F2.9°C 97% 2.0 mph SW3.2 kmh SW 3.0 mph4.8 kmh 29.42 in996.3 mb 0.04 in1.0 mm 0.00 in0.0 mm 0.50 in12.7 mm
01:07 PM 37.9°F3.3°C 37.1°F2.8°C 97% 2.0 mph SW3.2 kmh SW 3.0 mph4.8 kmh 29.42 in996.3 mb 0.05 in1.3 mm 0.60 in15.2 mm 0.50 in12.7 mm
01:08 PM 37.9°F3.3°C 37.1°F2.8°C 97% 2.0 mph SW3.2 kmh SW 3.0 mph4.8 kmh 29.41 in995.9 mb 0.04 in1.0 mm 0.00 in0.0 mm 0.50 in12.7 mm
01:09 PM 37.9°F3.3°C 36.9°F2.7°C 96% 1.0 mph SW1.6 kmh SW 3.0 mph4.8 kmh 29.41 in995.9 mb 0.04 in1.0 mm 0.00 in0.0 mm 0.50 in12.7 mm
01:10 PM 37.9°F3.3°C 36.9°F2.7°C 96% Calm Calm 2.0 mph3.2 kmh 29.41 in995.9 mb 0.04 in1.0 mm 0.00 in0.0 mm 0.50 in12.7 mm
01:11 PM 38.0°F3.3°C 37.0°F2.8°C 96% Calm Calm 2.0 mph3.2 kmh 29.41 in995.9 mb 0.04 in1.0 mm 0.00 in0.0 mm 0.50 in12.7 mm
01:12 PM 38.0°F3.3°C 37.0°F2.8°C 96% Calm Calm -- 29.41 in995.9 mb 0.04 in1.0 mm 0.00 in0.0 mm 0.50 in12.7 mm
01:13 PM 38.1°F3.4°C 37.0°F2.8°C 96% Calm Calm -- 29.41 in995.9 mb 0.04 in1.0 mm 0.00 in0.0 mm 0.50 in12.7 mm
01:14 PM 38.2°F3.4°C 37.2°F2.9°C 96% Calm Calm -- 29.41 in995.9 mb 0.04 in1.0 mm 0.00 in0.0 mm 0.50 in12.7 mm
01:15 PM 38.3°F3.5°C 37.2°F2.9°C 96% Calm Calm -- 29.41 in995.9 mb 0.05 in1.3 mm 0.60 in15.2 mm 0.51 in13.0 mm
01:16 PM 38.4°F3.6°C 37.4°F3.0°C 96% 1.0 mph SW1.6 kmh SW 2.0 mph3.2 kmh 29.41 in995.9 mb 0.05 in1.3 mm 0.00 in0.0 mm 0.51 in13.0 mm
01:17 PM 38.5°F3.6°C 37.5°F3.1°C 96% 1.0 mph SW1.6 kmh SW 3.0 mph4.8 kmh 29.41 in995.9 mb 0.05 in1.3 mm 0.00 in0.0 mm 0.51 in13.0 mm
01:18 PM 38.6°F3.7°C 37.6°F3.1°C 96% 1.0 mph SW1.6 kmh SW 3.0 mph4.8 kmh 29.41 in995.9 mb 0.05 in1.3 mm 0.00 in0.0 mm 0.51 in13.0 mm
01:19 PM 38.7°F3.7°C 37.6°F3.1°C 96% 2.0 mph WSW3.2 kmh WSW 2.0 mph3.2 kmh 29.41 in995.9 mb 0.05 in1.3 mm 0.00 in0.0 mm 0.51 in13.0 mm
01:20 PM 38.7°F3.7°C 37.7°F3.2°C 96% 1.0 mph WSW1.6 kmh WSW 2.0 mph3.2 kmh 29.41 in995.9 mb 0.05 in1.3 mm 0.00 in0.0 mm 0.51 in13.0 mm
01:21 PM 38.9°F3.8°C 37.8°F3.2°C 96% Calm Calm 2.0 mph3.2 kmh 29.41 in995.9 mb 0.05 in1.3 mm 0.00 in0.0 mm 0.51 in13.0 mm
01:22 PM 38.9°F3.8°C 37.9°F3.3°C 96% Calm Calm -- 29.41 in995.9 mb 0.04 in1.0 mm 0.00 in0.0 mm 0.51 in13.0 mm
01:23 PM 38.9°F3.8°C 38.0°F3.3°C 96% Calm Calm 1.0 mph1.6 kmh 29.41 in995.9 mb 0.04 in1.0 mm 0.00 in0.0 mm 0.51 in13.0 mm
01:24 PM 38.9°F3.8°C 38.1°F3.4°C 97% 1.0 mph WSW1.6 kmh WSW 2.0 mph3.2 kmh 29.41 in995.9 mb 0.04 in1.0 mm 0.00 in0.0 mm 0.51 in13.0 mm
01:25 PM 39.1°F3.9°C 38.3°F3.5°C 97% 1.0 mph WSW1.6 kmh WSW 2.0 mph3.2 kmh 29.41 in995.9 mb 0.04 in1.0 mm 0.00 in0.0 mm 0.51 in13.0 mm
01:26 PM 39.1°F3.9°C 38.3°F3.5°C 97% Calm Calm 1.0 mph1.6 kmh 29.41 in995.9 mb 0.04 in1.0 mm 0.00 in0.0 mm 0.51 in13.0 mm
01:27 PM 39.1°F3.9°C 38.4°F3.6°C 97% 1.0 mph WSW1.6 kmh WSW 2.0 mph3.2 kmh 29.41 in995.9 mb 0.04 in1.0 mm 0.00 in0.0 mm 0.51 in13.0 mm
01:28 PM 39.2°F4.0°C 38.4°F3.6°C 97% 1.0 mph WSW1.6 kmh WSW 2.0 mph3.2 kmh 29.41 in995.9 mb 0.04 in1.0 mm 0.00 in0.0 mm 0.51 in13.0 mm
01:29 PM 39.2°F4.0°C 38.4°F3.6°C 97% Calm Calm 2.0 mph3.2 kmh 29.41 in995.9 mb 0.05 in1.3 mm 0.60 in15.2 mm 0.52 in13.2 mm
01:30 PM 39.3°F4.1°C 38.4°F3.6°C 96% 1.0 mph SW1.6 kmh SW 2.0 mph3.2 kmh 29.41 in995.9 mb 0.05 in1.3 mm 0.00 in0.0 mm 0.52 in13.2 mm
01:31 PM 39.2°F4.0°C 38.2°F3.4°C 96% 1.0 mph SW1.6 kmh SW 2.0 mph3.2 kmh 29.41 in995.9 mb 0.05 in1.3 mm 0.00 in0.0 mm 0.52 in13.2 mm
01:32 PM 39.2°F4.0°C 38.2°F3.4°C 96% 2.0 mph S3.2 kmh S 3.0 mph4.8 kmh 29.42 in996.3 mb 0.05 in1.3 mm 0.00 in0.0 mm 0.52 in13.2 mm
01:33 PM 39.2°F4.0°C 38.2°F3.4°C 96% 5.0 mph SSE8.0 kmh SSE 5.0 mph8.0 kmh 29.42 in996.3 mb 0.04 in1.0 mm 0.00 in0.0 mm 0.52 in13.2 mm
01:34 PM 39.1°F3.9°C 38.1°F3.4°C 96% 3.0 mph SSE4.8 kmh SSE 5.0 mph8.0 kmh 29.42 in996.3 mb 0.04 in1.0 mm 0.00 in0.0 mm 0.52 in13.2 mm
01:35 PM 39.1°F3.9°C 38.0°F3.3°C 96% 3.0 mph SSE4.8 kmh SSE 4.0 mph6.4 kmh 29.42 in996.3 mb 0.04 in1.0 mm 0.00 in0.0 mm 0.52 in13.2 mm
01:36 PM 39.0°F3.9°C 38.0°F3.3°C 96% 2.0 mph SSE3.2 kmh SSE 4.0 mph6.4 kmh 29.42 in996.3 mb 0.04 in1.0 mm 0.00 in0.0 mm 0.52 in13.2 mm
01:37 PM 39.0°F3.9°C 38.0°F3.3°C 96% 2.0 mph SSE3.2 kmh SSE 3.0 mph4.8 kmh 29.42 in996.3 mb 0.04 in1.0 mm 0.00 in0.0 mm 0.52 in13.2 mm
01:38 PM 39.0°F3.9°C 38.0°F3.3°C 96% 2.0 mph SSE3.2 kmh SSE 2.0 mph3.2 kmh 29.42 in996.3 mb 0.04 in1.0 mm 0.00 in0.0 mm 0.52 in13.2 mm
01:39 PM 39.0°F3.9°C 38.0°F3.3°C 96% - N N -- 29.42 in996.3 mb 0.04 in1.0 mm 0.00 in0.0 mm 0.53 in13.5 mm
01:40 PM 39.0°F3.9°C 38.0°F3.3°C 96% - N N -- 29.42 in996.3 mb 0.04 in1.0 mm 0.00 in0.0 mm 0.53 in13.5 mm
01:41 PM 39.0°F3.9°C 38.0°F3.3°C 96% - N N -- 29.42 in996.3 mb 0.04 in1.0 mm 0.00 in0.0 mm 0.53 in13.5 mm
01:42 PM 39.0°F3.9°C 38.0°F3.3°C 96% - N N -- 29.42 in996.3 mb 0.04 in1.0 mm 0.00 in0.0 mm 0.53 in13.5 mm
01:43 PM 39.0°F3.9°C 38.0°F3.3°C 96% - N N -- 29.42 in996.3 mb 0.03 in0.8 mm 0.00 in0.0 mm 0.53 in13.5 mm
01:44 PM 39.0°F3.9°C 38.0°F3.3°C 96% - N N -- 29.42 in996.3 mb 0.03 in0.8 mm 0.00 in0.0 mm 0.53 in13.5 mm
01:45 PM 39.0°F3.9°C 38.0°F3.3°C 96% - N N -- 29.42 in996.3 mb 0.03 in0.8 mm 0.00 in0.0 mm 0.53 in13.5 mm
01:46 PM 39.0°F3.9°C 38.0°F3.3°C 96% - N N -- 29.42 in996.3 mb 0.03 in0.8 mm 0.00 in0.0 mm 0.53 in13.5 mm
01:47 PM -- -- - - N N -- 29.42 in996.3 mb 0.03 in0.8 mm 0.00 in0.0 mm 0.53 in13.5 mm
01:48 PM -- -- - - N N -- 29.42 in996.3 mb 0.03 in0.8 mm 0.00 in0.0 mm 0.53 in13.5 mm
01:49 PM -- -- - - N N -- 29.42 in996.3 mb 0.03 in0.8 mm 0.00 in0.0 mm 0.53 in13.5 mm
01:50 PM -- -- - - N N -- 29.42 in996.3 mb 0.03 in0.8 mm 0.00 in0.0 mm 0.53 in13.5 mm
01:51 PM -- -- - - N N -- 29.41 in995.9 mb 0.03 in0.8 mm 0.00 in0.0 mm 0.53 in13.5 mm
01:52 PM -- -- - - N N -- 29.41 in995.9 mb 0.03 in0.8 mm 0.00 in0.0 mm 0.53 in13.5 mm
01:53 PM -- -- - - N N -- 29.41 in995.9 mb 0.02 in0.5 mm 0.00 in0.0 mm 0.53 in13.5 mm
01:54 PM -- -- - - N N -- 29.42 in996.3 mb 0.02 in0.5 mm 0.00 in0.0 mm 0.53 in13.5 mm
01:55 PM -- -- - - N N -- 29.42 in996.3 mb 0.02 in0.5 mm 0.00 in0.0 mm 0.53 in13.5 mm
01:56 PM -- -- - - N N -- 29.41 in995.9 mb 0.02 in0.5 mm 0.00 in0.0 mm 0.53 in13.5 mm
01:57 PM -- -- - - N N -- 29.42 in996.3 mb 0.02 in0.5 mm 0.00 in0.0 mm 0.53 in13.5 mm
01:58 PM -- -- - - N N -- 29.41 in995.9 mb 0.02 in0.5 mm 0.00 in0.0 mm 0.53 in13.5 mm
01:59 PM -- -- - - N N -- 29.41 in995.9 mb 0.02 in0.5 mm 0.00 in0.0 mm 0.53 in13.5 mm
02:00 PM -- -- - - N N -- 29.41 in995.9 mb 0.02 in0.5 mm 0.00 in0.0 mm 0.53 in13.5 mm
02:01 PM -- -- - - N N -- 29.41 in995.9 mb 0.02 in0.5 mm 0.00 in0.0 mm 0.53 in13.5 mm
02:02 PM -- -- - - N N -- 29.41 in995.9 mb 0.02 in0.5 mm 0.00 in0.0 mm 0.53 in13.5 mm
02:03 PM -- -- - - N N -- 29.41 in995.9 mb 0.02 in0.5 mm 0.00 in0.0 mm 0.53 in13.5 mm
02:04 PM -- -- - - N N -- 29.41 in995.9 mb 0.02 in0.5 mm 0.00 in0.0 mm 0.53 in13.5 mm
02:05 PM -- -- - - N N -- 29.41 in995.9 mb 0.02 in0.5 mm 0.00 in0.0 mm 0.53 in13.5 mm
02:06 PM -- -- - - N N -- 29.41 in995.9 mb 0.02 in0.5 mm 0.00 in0.0 mm 0.53 in13.5 mm
02:07 PM -- -- - - N N -- 29.41 in995.9 mb 0.02 in0.5 mm 0.00 in0.0 mm 0.53 in13.5 mm
02:08 PM -- -- - - N N -- 29.41 in995.9 mb 0.02 in0.5 mm 0.00 in0.0 mm 0.53 in13.5 mm
02:09 PM -- -- - - N N -- 29.40 in995.6 mb 0.02 in0.5 mm 0.00 in0.0 mm 0.53 in13.5 mm
02:10 PM -- -- - - N N -- 29.41 in995.9 mb 0.02 in0.5 mm 0.00 in0.0 mm 0.53 in13.5 mm
02:11 PM -- -- - - N N -- 29.40 in995.6 mb 0.02 in0.5 mm 0.00 in0.0 mm 0.53 in13.5 mm
02:12 PM -- -- - - N N -- 29.40 in995.6 mb 0.02 in0.5 mm 0.00 in0.0 mm 0.53 in13.5 mm
02:13 PM -- -- - - N N -- 29.40 in995.6 mb 0.02 in0.5 mm 0.00 in0.0 mm 0.53 in13.5 mm
02:14 PM -- -- - - N N -- 29.40 in995.6 mb 0.02 in0.5 mm 0.00 in0.0 mm 0.53 in13.5 mm
02:15 PM -- -- - - N N -- 29.40 in995.6 mb 0.01 in0.3 mm 0.00 in0.0 mm 0.53 in13.5 mm
02:16 PM -- -- - - N N -- 29.40 in995.6 mb 0.01 in0.3 mm 0.00 in0.0 mm 0.53 in13.5 mm
02:17 PM -- -- - - N N -- 29.40 in995.6 mb 0.01 in0.3 mm 0.00 in0.0 mm 0.53 in13.5 mm
02:18 PM -- -- - - N N -- 29.40 in995.6 mb 0.01 in0.3 mm 0.00 in0.0 mm 0.53 in13.5 mm
02:19 PM -- -- - - N N -- 29.39 in995.3 mb 0.01 in0.3 mm 0.00 in0.0 mm 0.53 in13.5 mm
02:20 PM -- -- - - N N -- 29.40 in995.6 mb 0.01 in0.3 mm 0.00 in0.0 mm 0.53 in13.5 mm
02:21 PM -- -- - - N N -- 29.40 in995.6 mb 0.01 in0.3 mm 0.00 in0.0 mm 0.53 in13.5 mm
02:22 PM -- -- - - N N -- 29.40 in995.6 mb 0.01 in0.3 mm 0.00 in0.0 mm 0.53 in13.5 mm
02:23 PM -- -- - - N N -- 29.40 in995.6 mb 0.01 in0.3 mm 0.00 in0.0 mm 0.53 in13.5 mm
02:24 PM -- -- - - N N -- 29.40 in995.6 mb 0.01 in0.3 mm 0.00 in0.0 mm 0.53 in13.5 mm
02:25 PM -- -- - - N N -- 29.40 in995.6 mb 0.01 in0.3 mm 0.00 in0.0 mm 0.53 in13.5 mm
02:26 PM -- -- - - N N -- 29.40 in995.6 mb 0.01 in0.3 mm 0.00 in0.0 mm 0.53 in13.5 mm
02:27 PM -- -- - - N N -- 29.40 in995.6 mb 0.01 in0.3 mm 0.00 in0.0 mm 0.53 in13.5 mm
02:28 PM -- -- - - N N -- 29.40 in995.6 mb 0.01 in0.3 mm 0.00 in0.0 mm 0.53 in13.5 mm
02:29 PM -- -- - - N N -- 29.40 in995.6 mb 0.00 in0.0 mm 0.00 in0.0 mm 0.53 in13.5 mm
02:30 PM -- -- - - N N -- 29.41 in995.9 mb 0.00 in0.0 mm 0.00 in0.0 mm 0.53 in13.5 mm
02:31 PM -- -- - - N N -- 29.41 in995.9 mb 0.00 in0.0 mm 0.00 in0.0 mm 0.53 in13.5 mm
02:32 PM -- -- - - N N -- 29.40 in995.6 mb 0.00 in0.0 mm 0.00 in0.0 mm 0.53 in13.5 mm
02:33 PM -- -- - - N N -- 29.41 in995.9 mb 0.00 in0.0 mm 0.00 in0.0 mm 0.53 in13.5 mm
02:34 PM -- -- - - N N -- 29.41 in995.9 mb 0.00 in0.0 mm 0.00 in0.0 mm 0.53 in13.5 mm
02:35 PM -- -- - - N N -- 29.41 in995.9 mb 0.00 in0.0 mm 0.00 in0.0 mm 0.53 in13.5 mm
02:36 PM -- -- - - N N -- 29.41 in995.9 mb 0.00 in0.0 mm 0.00 in0.0 mm 0.53 in13.5 mm
02:37 PM -- -- - - N N -- 29.41 in995.9 mb 0.00 in0.0 mm 0.00 in0.0 mm 0.53 in13.5 mm
02:38 PM -- -- - - N N -- 29.41 in995.9 mb 0.00 in0.0 mm 0.00 in0.0 mm 0.53 in13.5 mm
02:39 PM -- -- - - N N -- 29.41 in995.9 mb 0.00 in0.0 mm 0.00 in0.0 mm 0.52 in13.2 mm
02:40 PM -- -- - - N N -- 29.41 in995.9 mb 0.00 in0.0 mm 0.00 in0.0 mm 0.52 in13.2 mm
02:41 PM -- -- - - N N -- 29.41 in995.9 mb 0.00 in0.0 mm 0.00 in0.0 mm 0.52 in13.2 mm
02:42 PM -- -- - - N N -- 29.41 in995.9 mb 0.00 in0.0 mm 0.00 in0.0 mm 0.52 in13.2 mm
02:43 PM -- -- - - N N -- 29.41 in995.9 mb 0.00 in0.0 mm 0.00 in0.0 mm 0.52 in13.2 mm
02:44 PM -- -- - - N N -- 29.41 in995.9 mb 0.00 in0.0 mm 0.00 in0.0 mm 0.52 in13.2 mm
02:45 PM -- -- - - N N -- 29.41 in995.9 mb 0.00 in0.0 mm 0.00 in0.0 mm 0.52 in13.2 mm
02:46 PM -- -- - - N N -- 29.41 in995.9 mb 0.00 in0.0 mm 0.00 in0.0 mm 0.52 in13.2 mm
02:47 PM -- -- - - N N -- 29.40 in995.6 mb 0.00 in0.0 mm 0.00 in0.0 mm 0.52 in13.2 mm
02:48 PM -- -- - - N N -- 29.41 in995.9 mb 0.00 in0.0 mm 0.00 in0.0 mm 0.52 in13.2 mm
02:49 PM -- -- - - N N -- 29.40 in995.6 mb 0.00 in0.0 mm 0.00 in0.0 mm 0.52 in13.2 mm
02:50 PM -- -- - - N N -- 29.40 in995.6 mb 0.00 in0.0 mm 0.00 in0.0 mm 0.52 in13.2 mm
02:51 PM -- -- - - N N -- 29.40 in995.6 mb 0.00 in0.0 mm 0.00 in0.0 mm 0.52 in13.2 mm
02:52 PM -- -- - - N N -- 29.40 in995.6 mb 0.00 in0.0 mm 0.00 in0.0 mm 0.52 in13.2 mm
02:53 PM -- -- - - N N -- 29.40 in995.6 mb 0.00 in0.0 mm 0.00 in0.0 mm 0.52 in13.2 mm
02:54 PM -- -- - - N N -- 29.40 in995.6 mb 0.00 in0.0 mm 0.00 in0.0 mm 0.53 in13.5 mm
02:55 PM -- -- - - N N -- 29.40 in995.6 mb 0.00 in0.0 mm 0.00 in0.0 mm 0.53 in13.5 mm
02:56 PM -- -- - - N N -- 29.40 in995.6 mb 0.00 in0.0 mm 0.00 in0.0 mm 0.53 in13.5 mm
02:57 PM -- -- - - N N -- 29.40 in995.6 mb 0.00 in0.0 mm 0.00 in0.0 mm 0.53 in13.5 mm
02:58 PM -- -- - - N N -- 29.40 in995.6 mb 0.00 in0.0 mm 0.00 in0.0 mm 0.53 in13.5 mm
02:59 PM -- -- - - N N -- 29.40 in995.6 mb 0.00 in0.0 mm 0.00 in0.0 mm 0.53 in13.5 mm
03:00 PM -- -- - - N N -- 29.40 in995.6 mb 0.00 in0.0 mm 0.00 in0.0 mm 0.53 in13.5 mm
03:01 PM -- -- - - N N -- 29.40 in995.6 mb 0.00 in0.0 mm 0.00 in0.0 mm 0.53 in13.5 mm
03:02 PM -- -- - - N N -- 29.40 in995.6 mb 0.00 in0.0 mm 0.00 in0.0 mm 0.53 in13.5 mm
03:03 PM -- -- - - N N -- 29.40 in995.6 mb 0.00 in0.0 mm 0.00 in0.0 mm 0.53 in13.5 mm
03:04 PM -- -- - - N N -- 29.40 in995.6 mb 0.00 in0.0 mm 0.00 in0.0 mm 0.53 in13.5 mm
03:05 PM -- -- - - N N -- 29.40 in995.6 mb 0.00 in0.0 mm 0.00 in0.0 mm 0.53 in13.5 mm
03:06 PM -- -- - - N N -- 29.40 in995.6 mb 0.00 in0.0 mm 0.00 in0.0 mm 0.53 in13.5 mm
03:07 PM -- -- - - N N -- 29.40 in995.6 mb 0.00 in0.0 mm 0.00 in0.0 mm 0.53 in13.5 mm
03:08 PM -- -- - - N N -- 29.40 in995.6 mb 0.00 in0.0 mm 0.00 in0.0 mm 0.53 in13.5 mm
03:09 PM -- -- - - N N -- 29.40 in995.6 mb 0.00 in0.0 mm 0.00 in0.0 mm 0.53 in13.5 mm
03:10 PM -- -- - - N N -- 29.40 in995.6 mb 0.00 in0.0 mm 0.00 in0.0 mm 0.53 in13.5 mm
03:11 PM 39.9°F4.4°C 38.3°F3.5°C 94% 2.0 mph NE3.2 kmh NE 3.0 mph4.8 kmh 29.40 in995.6 mb 0.00 in0.0 mm 0.00 in0.0 mm 0.53 in13.5 mm
03:12 PM 39.8°F4.3°C 38.2°F3.4°C 94% 2.0 mph NE3.2 kmh NE 3.0 mph4.8 kmh 29.40 in995.6 mb 0.00 in0.0 mm 0.00 in0.0 mm 0.53 in13.5 mm
03:13 PM 39.8°F4.3°C 38.2°F3.4°C 94% 2.0 mph NE3.2 kmh NE 2.0 mph3.2 kmh 29.40 in995.6 mb 0.00 in0.0 mm 0.00 in0.0 mm 0.53 in13.5 mm
03:14 PM 39.8°F4.3°C 38.2°F3.4°C 94% 1.0 mph NE1.6 kmh NE 2.0 mph3.2 kmh 29.40 in995.6 mb 0.00 in0.0 mm 0.00 in0.0 mm 0.53 in13.5 mm
03:15 PM 39.9°F4.4°C 38.3°F3.5°C 94% 1.0 mph NE1.6 kmh NE 2.0 mph3.2 kmh 29.40 in995.6 mb 0.00 in0.0 mm 0.00 in0.0 mm 0.53 in13.5 mm
03:16 PM 39.9°F4.4°C 38.3°F3.5°C 94% 2.0 mph E3.2 kmh E 3.0 mph4.8 kmh 29.40 in995.6 mb 0.00 in0.0 mm 0.00 in0.0 mm 0.53 in13.5 mm
03:17 PM 39.9°F4.4°C 38.3°F3.5°C 94% 2.0 mph ESE3.2 kmh ESE 3.0 mph4.8 kmh 29.40 in995.6 mb 0.00 in0.0 mm 0.00 in0.0 mm 0.53 in13.5 mm
03:18 PM 39.9°F4.4°C 38.3°F3.5°C 94% 1.0 mph ESE1.6 kmh ESE 2.0 mph3.2 kmh 29.40 in995.6 mb 0.00 in0.0 mm 0.00 in0.0 mm 0.53 in13.5 mm
03:19 PM 39.9°F4.4°C 38.3°F3.5°C 94% 1.0 mph ESE1.6 kmh ESE 1.0 mph1.6 kmh 29.40 in995.6 mb 0.00 in0.0 mm 0.00 in0.0 mm 0.53 in13.5 mm
03:20 PM 39.9°F4.4°C 38.3°F3.5°C 94% - N N -- 29.41 in995.9 mb 0.00 in0.0 mm 0.00 in0.0 mm 0.53 in13.5 mm
03:21 PM 39.9°F4.4°C 38.3°F3.5°C 94% - N N -- 29.40 in995.6 mb 0.00 in0.0 mm 0.00 in0.0 mm 0.53 in13.5 mm
03:22 PM 39.9°F4.4°C 38.3°F3.5°C 94% - N N -- 29.40 in995.6 mb 0.00 in0.0 mm 0.00 in0.0 mm 0.53 in13.5 mm
03:23 PM 40.0°F4.4°C 38.4°F3.6°C 94% 2.0 mph ESE3.2 kmh ESE 2.0 mph3.2 kmh 29.40 in995.6 mb 0.00 in0.0 mm 0.00 in0.0 mm 0.53 in13.5 mm
03:24 PM 40.0°F4.4°C 38.4°F3.6°C 94% - N N -- 29.40 in995.6 mb 0.00 in0.0 mm 0.00 in0.0 mm 0.53 in13.5 mm
03:25 PM 40.0°F4.4°C 38.4°F3.6°C 94% - N N -- 29.41 in995.9 mb 0.00 in0.0 mm 0.00 in0.0 mm 0.53 in13.5 mm
03:26 PM 40.0°F4.4°C 38.4°F3.6°C 94% - N N -- 29.41 in995.9 mb 0.00 in0.0 mm 0.00 in0.0 mm 0.53 in13.5 mm
03:27 PM 40.0°F4.4°C 38.4°F3.6°C 94% - N N -- 29.41 in995.9 mb 0.00 in0.0 mm 0.00 in0.0 mm 0.53 in13.5 mm
03:28 PM 40.0°F4.4°C 38.4°F3.6°C 94% - N N -- 29.41 in995.9 mb 0.00 in0.0 mm 0.00 in0.0 mm 0.53 in13.5 mm
03:29 PM 40.0°F4.4°C 38.4°F3.6°C 94% - N N -- 29.41 in995.9 mb 0.00 in0.0 mm 0.00 in0.0 mm 0.53 in13.5 mm
03:30 PM 40.0°F4.4°C 38.4°F3.6°C 94% - N N -- 29.41 in995.9 mb 0.00 in0.0 mm 0.00 in0.0 mm 0.53 in13.5 mm
03:31 PM 40.0°F4.4°C 38.4°F3.6°C 94% 3.0 mph ESE4.8 kmh ESE 3.0 mph4.8 kmh 29.41 in995.9 mb 0.06 in1.5 mm 3.60 in91.4 mm 0.58 in14.7 mm
03:32 PM 39.9°F4.4°C 38.3°F3.5°C 94% 3.0 mph ESE4.8 kmh ESE 3.0 mph4.8 kmh 29.41 in995.9 mb 0.06 in1.5 mm 0.00 in0.0 mm 0.58 in14.7 mm
03:33 PM 39.8°F4.3°C 38.2°F3.4°C 94% 3.0 mph ESE4.8 kmh ESE 4.0 mph6.4 kmh 29.41 in995.9 mb 0.06 in1.5 mm 0.00 in0.0 mm 0.58 in14.7 mm
03:34 PM 39.8°F4.3°C 38.2°F3.4°C 94% 3.0 mph ESE4.8 kmh ESE 4.0 mph6.4 kmh 29.41 in995.9 mb 0.06 in1.5 mm 0.00 in0.0 mm 0.58 in14.7 mm
03:35 PM 39.7°F4.3°C 38.1°F3.4°C 94% 2.0 mph ESE3.2 kmh ESE 3.0 mph4.8 kmh 29.41 in995.9 mb 0.06 in1.5 mm 0.00 in0.0 mm 0.58 in14.7 mm
03:36 PM 39.7°F4.3°C 38.1°F3.4°C 94% 1.0 mph ESE1.6 kmh ESE 2.0 mph3.2 kmh 29.41 in995.9 mb 0.06 in1.5 mm 0.00 in0.0 mm 0.58 in14.7 mm
03:37 PM 39.7°F4.3°C 38.1°F3.4°C 94% Calm Calm 1.0 mph1.6 kmh 29.41 in995.9 mb 0.06 in1.5 mm 0.00 in0.0 mm 0.58 in14.7 mm
03:38 PM 39.7°F4.3°C 38.1°F3.4°C 94% 1.0 mph ESE1.6 kmh ESE 2.0 mph3.2 kmh 29.41 in995.9 mb 0.06 in1.5 mm 0.00 in0.0 mm 0.59 in15.0 mm
03:39 PM 39.7°F4.3°C 38.1°F3.4°C 94% Calm Calm 1.0 mph1.6 kmh 29.41 in995.9 mb 0.06 in1.5 mm 0.00 in0.0 mm 0.59 in15.0 mm
03:40 PM 39.7°F4.3°C 38.1°F3.4°C 94% - N N -- 29.41 in995.9 mb 0.06 in1.5 mm 0.00 in0.0 mm 0.59 in15.0 mm
03:41 PM 39.7°F4.3°C 38.1°F3.4°C 94% - N N -- 29.40 in995.6 mb 0.06 in1.5 mm 0.00 in0.0 mm 0.59 in15.0 mm
03:42 PM 39.7°F4.3°C 38.1°F3.4°C 94% - N N -- 29.40 in995.6 mb 0.06 in1.5 mm 0.00 in0.0 mm 0.59 in15.0 mm
03:43 PM 39.7°F4.3°C 38.1°F3.4°C 94% - N N -- 29.40 in995.6 mb 0.06 in1.5 mm 0.00 in0.0 mm 0.59 in15.0 mm
03:44 PM 39.7°F4.3°C 38.1°F3.4°C 94% - N N -- 29.40 in995.6 mb 0.06 in1.5 mm 0.00 in0.0 mm 0.59 in15.0 mm
03:45 PM 39.7°F4.3°C 38.1°F3.4°C 94% - N N -- 29.41 in995.9 mb 0.06 in1.5 mm 0.00 in0.0 mm 0.59 in15.0 mm
03:46 PM 39.7°F4.3°C 38.1°F3.4°C 94% - N N -- 29.40 in995.6 mb 0.06 in1.5 mm 0.00 in0.0 mm 0.59 in15.0 mm
03:47 PM 39.7°F4.3°C 38.1°F3.4°C 94% - N N -- 29.40 in995.6 mb 0.06 in1.5 mm 0.00 in0.0 mm 0.59 in15.0 mm
03:48 PM 39.7°F4.3°C 38.1°F3.4°C 94% - N N -- 29.40 in995.6 mb 0.06 in1.5 mm 0.00 in0.0 mm 0.59 in15.0 mm
03:49 PM 39.6°F4.2°C 38.0°F3.3°C 94% Calm Calm -- 29.40 in995.6 mb 0.06 in1.5 mm 0.00 in0.0 mm 0.59 in15.0 mm
03:50 PM 39.6°F4.2°C 38.0°F3.3°C 94% Calm Calm -- 29.40 in995.6 mb 0.06 in1.5 mm 0.00 in0.0 mm 0.59 in15.0 mm
03:51 PM 39.6°F4.2°C 38.0°F3.3°C 94% - N N -- 29.40 in995.6 mb 0.06 in1.5 mm 0.00 in0.0 mm 0.59 in15.0 mm
03:52 PM 39.6°F4.2°C 38.0°F3.3°C 94% - N N -- 29.40 in995.6 mb 0.06 in1.5 mm 0.00 in0.0 mm 0.59 in15.0 mm
03:53 PM 39.6°F4.2°C 38.0°F3.3°C 94% - N N -- 29.40 in995.6 mb 0.06 in1.5 mm 0.00 in0.0 mm 0.59 in15.0 mm
03:54 PM 39.6°F4.2°C 38.0°F3.3°C 94% - N N -- 29.40 in995.6 mb 0.06 in1.5 mm 0.00 in0.0 mm 0.59 in15.0 mm
03:55 PM 39.6°F4.2°C 38.0°F3.3°C 94% - N N -- 29.40 in995.6 mb 0.06 in1.5 mm 0.00 in0.0 mm 0.59 in15.0 mm
03:56 PM 39.6°F4.2°C 38.0°F3.3°C 94% 2.0 mph ENE3.2 kmh ENE 2.0 mph3.2 kmh 29.40 in995.6 mb 0.06 in1.5 mm 0.00 in0.0 mm 0.59 in15.0 mm
03:57 PM 39.6°F4.2°C 38.0°F3.3°C 94% 2.0 mph ENE3.2 kmh ENE 2.0 mph3.2 kmh 29.40 in995.6 mb 0.06 in1.5 mm 0.00 in0.0 mm 0.59 in15.0 mm
03:58 PM 39.6°F4.2°C 38.3°F3.5°C 95% 2.0 mph ENE3.2 kmh ENE 3.0 mph4.8 kmh 29.40 in995.6 mb 0.09 in2.3 mm 1.80 in45.7 mm 0.61 in15.5 mm
03:59 PM 39.6°F4.2°C 38.3°F3.5°C 95% 3.0 mph NNE4.8 kmh NNE 4.0 mph6.4 kmh 29.40 in995.6 mb 0.09 in2.3 mm 0.00 in0.0 mm 0.61 in15.5 mm
04:00 PM 39.6°F4.2°C 38.3°F3.5°C 95% 3.0 mph NNE4.8 kmh NNE 4.0 mph6.4 kmh 29.40 in995.6 mb 0.09 in2.3 mm 0.00 in0.0 mm 0.61 in15.5 mm
04:01 PM 39.5°F4.2°C 38.2°F3.4°C 95% 3.0 mph NNE4.8 kmh NNE 4.0 mph6.4 kmh 29.40 in995.6 mb 0.09 in2.3 mm 0.00 in0.0 mm 0.61 in15.5 mm
04:02 PM 39.5°F4.2°C 38.2°F3.4°C 95% 2.0 mph NNE3.2 kmh NNE 3.0 mph4.8 kmh 29.40 in995.6 mb 0.09 in2.3 mm 0.00 in0.0 mm 0.61 in15.5 mm
04:03 PM 39.5°F4.2°C 38.2°F3.4°C 95% 2.0 mph NNE3.2 kmh NNE 3.0 mph4.8 kmh 29.40 in995.6 mb 0.09 in2.3 mm 0.00 in0.0 mm 0.61 in15.5 mm
04:04 PM 39.5°F4.2°C 38.2°F3.4°C 95% 1.0 mph NNE1.6 kmh NNE 2.0 mph3.2 kmh 29.40 in995.6 mb 0.09 in2.3 mm 0.00 in0.0 mm 0.61 in15.5 mm
04:05 PM 39.5°F4.2°C 38.2°F3.4°C 95% 1.0 mph NNE1.6 kmh NNE 2.0 mph3.2 kmh 29.40 in995.6 mb 0.09 in2.3 mm 0.00 in0.0 mm 0.61 in15.5 mm
04:06 PM 39.6°F4.2°C 38.3°F3.5°C 95% 1.0 mph NNE1.6 kmh NNE 2.0 mph3.2 kmh 29.40 in995.6 mb 0.09 in2.3 mm 0.00 in0.0 mm 0.61 in15.5 mm
04:07 PM 39.6°F4.2°C 38.3°F3.5°C 95% 1.0 mph NNE1.6 kmh NNE 2.0 mph3.2 kmh 29.41 in995.9 mb 0.09 in2.3 mm 0.00 in0.0 mm 0.61 in15.5 mm
04:08 PM 39.6°F4.2°C 38.3°F3.5°C 95% 1.0 mph NNE1.6 kmh NNE 2.0 mph3.2 kmh 29.40 in995.6 mb 0.09 in2.3 mm 0.00 in0.0 mm 0.61 in15.5 mm
04:09 PM 39.6°F4.2°C 38.3°F3.5°C 95% 1.0 mph NNE1.6 kmh NNE 2.0 mph3.2 kmh 29.41 in995.9 mb 0.09 in2.3 mm 0.00 in0.0 mm 0.61 in15.5 mm
04:10 PM 39.6°F4.2°C 38.3°F3.5°C 95% 1.0 mph NNE1.6 kmh NNE 2.0 mph3.2 kmh 29.41 in995.9 mb 0.09 in2.3 mm 0.00 in0.0 mm 0.61 in15.5 mm
04:11 PM 39.6°F4.2°C 38.3°F3.5°C 95% 2.0 mph NNE3.2 kmh NNE 3.0 mph4.8 kmh 29.41 in995.9 mb 0.09 in2.3 mm 0.00 in0.0 mm 0.61 in15.5 mm
04:12 PM 39.6°F4.2°C 38.3°F3.5°C 95% 1.0 mph NNE1.6 kmh NNE 1.0 mph1.6 kmh 29.40 in995.6 mb 0.09 in2.3 mm 0.00 in0.0 mm 0.61 in15.5 mm
04:13 PM 39.6°F4.2°C 38.3°F3.5°C 95% Calm Calm 1.0 mph1.6 kmh 29.41 in995.9 mb 0.09 in2.3 mm 0.00 in0.0 mm 0.61 in15.5 mm
04:14 PM 39.6°F4.2°C 38.3°F3.5°C 95% Calm Calm -- 29.41 in995.9 mb 0.09 in2.3 mm 0.00 in0.0 mm 0.61 in15.5 mm
04:15 PM 39.6°F4.2°C 38.3°F3.5°C 95% - N N -- 29.41 in995.9 mb 0.09 in2.3 mm 0.00 in0.0 mm 0.61 in15.5 mm
04:16 PM 39.6°F4.2°C 38.3°F3.5°C 95% - N N -- 29.41 in995.9 mb 0.09 in2.3 mm 0.00 in0.0 mm 0.61 in15.5 mm
04:17 PM 39.6°F4.2°C 38.3°F3.5°C 95% - N N -- 29.41 in995.9 mb 0.09 in2.3 mm 0.00 in0.0 mm 0.61 in15.5 mm
04:18 PM 39.6°F4.2°C 38.3°F3.5°C 95% Calm Calm -- 29.41 in995.9 mb 0.09 in2.3 mm 0.00 in0.0 mm 0.61 in15.5 mm
04:19 PM 39.6°F4.2°C 38.3°F3.5°C 95% - N N -- 29.41 in995.9 mb 0.09 in2.3 mm 0.00 in0.0 mm 0.61 in15.5 mm
04:20 PM 39.6°F4.2°C 38.3°F3.5°C 95% - N N -- 29.41 in995.9 mb 0.09 in2.3 mm 0.00 in0.0 mm 0.61 in15.5 mm
04:21 PM 39.6°F4.2°C 38.3°F3.5°C 95% - N N -- 29.41 in995.9 mb 0.09 in2.3 mm 0.00 in0.0 mm 0.61 in15.5 mm
04:22 PM 39.6°F4.2°C 38.3°F3.5°C 95% - N N -- 29.41 in995.9 mb 0.09 in2.3 mm 0.00 in0.0 mm 0.61 in15.5 mm
04:23 PM 39.6°F4.2°C 38.3°F3.5°C 95% - N N -- 29.41 in995.9 mb 0.09 in2.3 mm 0.00 in0.0 mm 0.61 in15.5 mm
04:24 PM 39.6°F4.2°C 38.3°F3.5°C 95% - N N -- 29.41 in995.9 mb 0.09 in2.3 mm 0.00 in0.0 mm 0.61 in15.5 mm
04:25 PM 39.6°F4.2°C 38.3°F3.5°C 95% - N N -- 29.41 in995.9 mb 0.09 in2.3 mm 0.00 in0.0 mm 0.61 in15.5 mm
04:26 PM 39.6°F4.2°C 38.3°F3.5°C 95% - N N -- 29.40 in995.6 mb 0.09 in2.3 mm 0.00 in0.0 mm 0.61 in15.5 mm
04:27 PM 39.6°F4.2°C 38.3°F3.5°C 95% - N N -- 29.41 in995.9 mb 0.09 in2.3 mm 0.00 in0.0 mm 0.61 in15.5 mm
04:28 PM -- -- - - N N -- 29.41 in995.9 mb 0.09 in2.3 mm 0.00 in0.0 mm 0.61 in15.5 mm
04:29 PM -- -- - - N N -- 29.41 in995.9 mb 0.09 in2.3 mm 0.00 in0.0 mm 0.61 in15.5 mm
04:30 PM -- -- - - N N -- 29.41 in995.9 mb 0.09 in2.3 mm 0.00 in0.0 mm 0.61 in15.5 mm
04:31 PM -- -- - - N N -- 29.41 in995.9 mb 0.03 in0.8 mm 0.00 in0.0 mm 0.61 in15.5 mm
04:32 PM -- -- - - N N -- 29.41 in995.9 mb 0.03 in0.8 mm 0.00 in0.0 mm 0.61 in15.5 mm
04:33 PM -- -- - - N N -- 29.41 in995.9 mb 0.03 in0.8 mm 0.00 in0.0 mm 0.61 in15.5 mm
04:34 PM -- -- - - N N -- 29.41 in995.9 mb 0.03 in0.8 mm 0.00 in0.0 mm 0.61 in15.5 mm
04:35 PM -- -- - - N N -- 29.41 in995.9 mb 0.03 in0.8 mm 0.00 in0.0 mm 0.61 in15.5 mm
04:36 PM -- -- - - N N -- 29.41 in995.9 mb 0.03 in0.8 mm 0.00 in0.0 mm 0.61 in15.5 mm
04:37 PM -- -- - - N N -- 29.41 in995.9 mb 0.03 in0.8 mm 0.00 in0.0 mm 0.61 in15.5 mm
04:38 PM -- -- - - N N -- 29.40 in995.6 mb 0.02 in0.5 mm 0.00 in0.0 mm 0.61 in15.5 mm
04:39 PM -- -- - - N N -- 29.40 in995.6 mb 0.02 in0.5 mm 0.00 in0.0 mm 0.61 in15.5 mm
04:40 PM -- -- - - N N -- 29.41 in995.9 mb 0.02 in0.5 mm 0.00 in0.0 mm 0.61 in15.5 mm
04:41 PM -- -- - - N N -- 29.40 in995.6 mb 0.02 in0.5 mm 0.00 in0.0 mm 0.61 in15.5 mm
04:42 PM -- -- - - N N -- 29.41 in995.9 mb 0.02 in0.5 mm 0.00 in0.0 mm 0.61 in15.5 mm
04:43 PM -- -- - - N N -- 29.41 in995.9 mb 0.02 in0.5 mm 0.00 in0.0 mm 0.61 in15.5 mm
04:44 PM -- -- - - N N -- 29.41 in995.9 mb 0.02 in0.5 mm 0.00 in0.0 mm 0.61 in15.5 mm
04:45 PM -- -- - - N N -- 29.41 in995.9 mb 0.02 in0.5 mm 0.00 in0.0 mm 0.61 in15.5 mm
04:46 PM -- -- - - N N -- 29.41 in995.9 mb 0.02 in0.5 mm 0.00 in0.0 mm 0.61 in15.5 mm
04:47 PM -- -- - - N N -- 29.40 in995.6 mb 0.02 in0.5 mm 0.00 in0.0 mm 0.61 in15.5 mm
04:48 PM -- -- - - N N -- 29.41 in995.9 mb 0.02 in0.5 mm 0.00 in0.0 mm 0.61 in15.5 mm
04:49 PM -- -- - - N N -- 29.41 in995.9 mb 0.02 in0.5 mm 0.00 in0.0 mm 0.61 in15.5 mm
04:50 PM -- -- - - N N -- 29.40 in995.6 mb 0.02 in0.5 mm 0.00 in0.0 mm 0.61 in15.5 mm
04:52 PM -- -- - - N N -- 29.41 in995.9 mb 0.02 in0.5 mm 0.00 in0.0 mm 0.61 in15.5 mm
04:53 PM -- -- - - N N -- 29.41 in995.9 mb 0.02 in0.5 mm 0.00 in0.0 mm 0.61 in15.5 mm
04:54 PM -- -- - - N N -- 29.41 in995.9 mb 0.02 in0.5 mm 0.00 in0.0 mm 0.61 in15.5 mm
04:55 PM -- -- - - N N -- 29.41 in995.9 mb 0.02 in0.5 mm 0.00 in0.0 mm 0.61 in15.5 mm
04:56 PM -- -- - - N N -- 29.41 in995.9 mb 0.02 in0.5 mm 0.00 in0.0 mm 0.61 in15.5 mm
04:57 PM -- -- - - N N -- 29.41 in995.9 mb 0.02 in0.5 mm 0.00 in0.0 mm 0.61 in15.5 mm
04:58 PM -- -- - - N N -- 29.41 in995.9 mb 0.00 in0.0 mm 0.00 in0.0 mm 0.61 in15.5 mm
04:59 PM -- -- - - N N -- 29.41 in995.9 mb 0.00 in0.0 mm 0.00 in0.0 mm 0.61 in15.5 mm
05:00 PM -- -- - - N N -- 29.41 in995.9 mb 0.00 in0.0 mm 0.00 in0.0 mm 0.61 in15.5 mm
05:01 PM -- -- - - N N -- 29.41 in995.9 mb 0.00 in0.0 mm 0.00 in0.0 mm 0.61 in15.5 mm
05:02 PM -- -- - - SE SE -- 29.41 in995.9 mb 0.00 in0.0 mm 0.00 in0.0 mm 0.61 in15.5 mm
05:03 PM 39.4°F4.1°C -- - 2.0 mph SE3.2 kmh SE 2.0 mph3.2 kmh 29.41 in995.9 mb 0.00 in0.0 mm 0.00 in0.0 mm 0.61 in15.5 mm
05:04 PM 39.4°F4.1°C -- - 1.0 mph SE1.6 kmh SE 2.0 mph3.2 kmh 29.41 in995.9 mb 0.00 in0.0 mm 0.00 in0.0 mm 0.61 in15.5 mm
05:05 PM 39.4°F4.1°C -- - Calm Calm 2.0 mph3.2 kmh 29.41 in995.9 mb 0.00 in0.0 mm 0.00 in0.0 mm 0.61 in15.5 mm
05:06 PM 39.4°F4.1°C -- - 1.0 mph SE1.6 kmh SE 2.0 mph3.2 kmh 29.41 in995.9 mb 0.00 in0.0 mm 0.00 in0.0 mm 0.61 in15.5 mm
05:07 PM 39.4°F4.1°C -- - 1.0 mph SE1.6 kmh SE 1.0 mph1.6 kmh 29.41 in995.9 mb 0.00 in0.0 mm 0.00 in0.0 mm 0.61 in15.5 mm
05:08 PM 39.4°F4.1°C -- - - N N -- 29.41 in995.9 mb 0.00 in0.0 mm 0.00 in0.0 mm 0.61 in15.5 mm
05:09 PM 39.4°F4.1°C -- - - N N -- 29.41 in995.9 mb 0.00 in0.0 mm 0.00 in0.0 mm 0.61 in15.5 mm
05:10 PM 39.4°F4.1°C -- - - N N -- 29.41 in995.9 mb 0.00 in0.0 mm 0.00 in0.0 mm 0.61 in15.5 mm
05:11 PM 39.4°F4.1°C -- - - N N -- 29.41 in995.9 mb 0.00 in0.0 mm 0.00 in0.0 mm 0.61 in15.5 mm
05:12 PM 39.4°F4.1°C -- - - N N -- 29.40 in995.6 mb 0.00 in0.0 mm 0.00 in0.0 mm 0.61 in15.5 mm
05:13 PM 39.4°F4.1°C -- - - N N -- 29.40 in995.6 mb 0.00 in0.0 mm 0.00 in0.0 mm 0.61 in15.5 mm
05:14 PM 39.5°F4.2°C -- - 1.0 mph SE1.6 kmh SE 1.0 mph1.6 kmh 29.41 in995.9 mb 0.00 in0.0 mm 0.00 in0.0 mm 0.61 in15.5 mm
05:15 PM 39.5°F4.2°C -- - Calm Calm 1.0 mph1.6 kmh 29.40 in995.6 mb 0.00 in0.0 mm 0.00 in0.0 mm 0.61 in15.5 mm
05:16 PM 39.5°F4.2°C -- - 2.0 mph SE3.2 kmh SE 2.0 mph3.2 kmh 29.40 in995.6 mb 0.00 in0.0 mm 0.00 in0.0 mm 0.61 in15.5 mm
05:17 PM 39.5°F4.2°C -- - 4.0 mph SSE6.4 kmh SSE 5.0 mph8.0 kmh 29.40 in995.6 mb 0.00 in0.0 mm 0.00 in0.0 mm 0.61 in15.5 mm
05:18 PM 39.4°F4.1°C -- - 3.0 mph S4.8 kmh S 5.0 mph8.0 kmh 29.40 in995.6 mb 0.00 in0.0 mm 0.00 in0.0 mm 0.61 in15.5 mm
05:19 PM 39.4°F4.1°C 38.1°F3.4°C 95% 3.0 mph S4.8 kmh S 5.0 mph8.0 kmh 29.40 in995.6 mb 0.00 in0.0 mm 0.00 in0.0 mm 0.61 in15.5 mm
05:20 PM 39.4°F4.1°C 38.1°F3.4°C 95% 4.0 mph S6.4 kmh S 5.0 mph8.0 kmh 29.40 in995.6 mb 0.00 in0.0 mm 0.00 in0.0 mm 0.61 in15.5 mm
05:21 PM 39.4°F4.1°C 38.1°F3.4°C 95% 4.0 mph S6.4 kmh S 5.0 mph8.0 kmh 29.40 in995.6 mb 0.00 in0.0 mm 0.00 in0.0 mm 0.61 in15.5 mm
05:22 PM 39.3°F4.1°C 38.0°F3.3°C 95% 4.0 mph S6.4 kmh S 4.0 mph6.4 kmh 29.40 in995.6 mb 0.00 in0.0 mm 0.00 in0.0 mm 0.61 in15.5 mm
05:23 PM 39.3°F4.1°C 38.0°F3.3°C 95% 3.0 mph S4.8 kmh S 6.0 mph9.7 kmh 29.40 in995.6 mb 0.00 in0.0 mm 0.00 in0.0 mm 0.61 in15.5 mm
05:24 PM 39.4°F4.1°C 38.0°F3.3°C 95% 4.0 mph SSW6.4 kmh SSW 6.0 mph9.7 kmh 29.40 in995.6 mb 0.00 in0.0 mm 0.00 in0.0 mm 0.61 in15.5 mm
05:25 PM 39.3°F4.1°C 38.0°F3.3°C 95% 4.0 mph SSW6.4 kmh SSW 5.0 mph8.0 kmh 29.41 in995.9 mb 0.00 in0.0 mm 0.00 in0.0 mm 0.61 in15.5 mm
05:26 PM 39.3°F4.1°C 38.0°F3.3°C 95% 4.0 mph SSW6.4 kmh SSW 5.0 mph8.0 kmh 29.41 in995.9 mb 0.00 in0.0 mm 0.00 in0.0 mm 0.61 in15.5 mm
05:27 PM 39.3°F4.1°C 37.9°F3.3°C 95% 4.0 mph SSW6.4 kmh SSW 5.0 mph8.0 kmh 29.41 in995.9 mb 0.00 in0.0 mm 0.00 in0.0 mm 0.61 in15.5 mm
05:28 PM 39.2°F4.0°C 37.9°F3.3°C 95% 2.0 mph SSW3.2 kmh SSW 5.0 mph8.0 kmh 29.41 in995.9 mb 0.00 in0.0 mm 0.00 in0.0 mm 0.61 in15.5 mm
05:29 PM 39.2°F4.0°C 37.9°F3.3°C 95% 3.0 mph SSW4.8 kmh SSW 5.0 mph8.0 kmh 29.41 in995.9 mb 0.00 in0.0 mm 0.00 in0.0 mm 0.61 in15.5 mm
05:30 PM 39.1°F3.9°C 37.8°F3.2°C 95% 4.0 mph S6.4 kmh S 5.0 mph8.0 kmh 29.41 in995.9 mb 0.00 in0.0 mm 0.00 in0.0 mm 0.61 in15.5 mm
05:31 PM 39.1°F3.9°C 37.8°F3.2°C 95% 1.0 mph S1.6 kmh S 5.0 mph8.0 kmh 29.41 in995.9 mb 0.00 in0.0 mm 0.00 in0.0 mm 0.61 in15.5 mm
05:32 PM 39.1°F3.9°C 37.8°F3.2°C 95% 1.0 mph S1.6 kmh S 2.0 mph3.2 kmh 29.41 in995.9 mb 0.00 in0.0 mm 0.00 in0.0 mm 0.61 in15.5 mm
05:33 PM 39.1°F3.9°C 37.8°F3.2°C 95% Calm Calm 2.0 mph3.2 kmh 29.41 in995.9 mb 0.00 in0.0 mm 0.00 in0.0 mm 0.61 in15.5 mm
05:34 PM 39.2°F4.0°C 37.9°F3.3°C 95% 1.0 mph S1.6 kmh S 2.0 mph3.2 kmh 29.41 in995.9 mb 0.00 in0.0 mm 0.00 in0.0 mm 0.61 in15.5 mm
05:35 PM 39.2°F4.0°C 37.9°F3.3°C 95% Calm Calm 2.0 mph3.2 kmh 29.41 in995.9 mb 0.00 in0.0 mm 0.00 in0.0 mm 0.61 in15.5 mm
05:36 PM 39.2°F4.0°C 37.9°F3.3°C 95% Calm Calm 2.0 mph3.2 kmh 29.41 in995.9 mb 0.00 in0.0 mm 0.00 in0.0 mm 0.61 in15.5 mm
05:37 PM 39.3°F4.1°C 38.0°F3.3°C 95% 2.0 mph S3.2 kmh S 3.0 mph4.8 kmh 29.41 in995.9 mb 0.00 in0.0 mm 0.00 in0.0 mm 0.61 in15.5 mm
05:38 PM 39.3°F4.1°C 38.0°F3.3°C 95% 1.0 mph S1.6 kmh S 3.0 mph4.8 kmh 29.41 in995.9 mb 0.00 in0.0 mm 0.00 in0.0 mm 0.61 in15.5 mm
05:39 PM 39.3°F4.1°C 38.0°F3.3°C 95% 3.0 mph S4.8 kmh S 4.0 mph6.4 kmh 29.41 in995.9 mb 0.00 in0.0 mm 0.00 in0.0 mm 0.61 in15.5 mm
05:40 PM 39.3°F4.1°C 38.0°F3.3°C 95% 1.0 mph S1.6 kmh S 4.0 mph6.4 kmh 29.41 in995.9 mb 0.00 in0.0 mm 0.00 in0.0 mm 0.61 in15.5 mm
05:41 PM 39.3°F4.1°C 38.0°F3.3°C 95% 1.0 mph S1.6 kmh S 3.0 mph4.8 kmh 29.41 in995.9 mb 0.00 in0.0 mm 0.00 in0.0 mm 0.61 in15.5 mm
05:42 PM 39.3°F4.1°C 38.0°F3.3°C 95% 1.0 mph S1.6 kmh S 2.0 mph3.2 kmh 29.41 in995.9 mb 0.00 in0.0 mm 0.00 in0.0 mm 0.61 in15.5 mm
05:43 PM 39.3°F4.1°C 38.0°F3.3°C 95% 4.0 mph S6.4 kmh S 4.0 mph6.4 kmh 29.41 in995.9 mb 0.00 in0.0 mm 0.00 in0.0 mm 0.61 in15.5 mm
05:44 PM 39.3°F4.1°C 38.0°F3.3°C 95% 2.0 mph S3.2 kmh S 4.0 mph6.4 kmh 29.41 in995.9 mb 0.00 in0.0 mm 0.00 in0.0 mm 0.61 in15.5 mm
05:45 PM 39.3°F4.1°C 38.0°F3.3°C 95% 3.0 mph S4.8 kmh S 4.0 mph6.4 kmh 29.41 in995.9 mb 0.00 in0.0 mm 0.00 in0.0 mm 0.61 in15.5 mm
05:46 PM 39.3°F4.1°C 38.0°F3.3°C 95% 3.0 mph S4.8 kmh S 4.0 mph6.4 kmh 29.41 in995.9 mb 0.00 in0.0 mm 0.00 in0.0 mm 0.61 in15.5 mm
05:47 PM 39.2°F4.0°C 37.9°F3.3°C 95% 4.0 mph S6.4 kmh S 5.0 mph8.0 kmh 29.42 in996.3 mb 0.00 in0.0 mm 0.00 in0.0 mm 0.61 in15.5 mm
05:48 PM 39.2°F4.0°C 37.9°F3.3°C 95% 4.0 mph S6.4 kmh S 5.0 mph8.0 kmh 29.42 in996.3 mb 0.00 in0.0 mm 0.00 in0.0 mm 0.61 in15.5 mm
05:49 PM 39.2°F4.0°C 37.9°F3.3°C 95% 3.0 mph SSE4.8 kmh SSE 5.0 mph8.0 kmh 29.42 in996.3 mb 0.00 in0.0 mm 0.00 in0.0 mm 0.61 in15.5 mm
05:50 PM 39.2°F4.0°C 37.9°F3.3°C 95% 1.0 mph S1.6 kmh S 5.0 mph8.0 kmh 29.42 in996.3 mb 0.00 in0.0 mm 0.00 in0.0 mm 0.61 in15.5 mm
05:51 PM 39.2°F4.0°C 37.9°F3.3°C 95% 3.0 mph S4.8 kmh S 4.0 mph6.4 kmh 29.42 in996.3 mb 0.00 in0.0 mm 0.00 in0.0 mm 0.61 in15.5 mm
05:52 PM 39.2°F4.0°C 37.9°F3.3°C 95% 4.0 mph S6.4 kmh S 6.0 mph9.7 kmh 29.42 in996.3 mb 0.00 in0.0 mm 0.00 in0.0 mm 0.61 in15.5 mm
05:53 PM 39.1°F3.9°C 37.8°F3.2°C 95% 4.0 mph S6.4 kmh S 6.0 mph9.7 kmh 29.42 in996.3 mb 0.00 in0.0 mm 0.00 in0.0 mm 0.61 in15.5 mm
05:54 PM 39.1°F3.9°C 37.8°F3.2°C 95% 5.0 mph S8.0 kmh S 6.0 mph9.7 kmh 29.42 in996.3 mb 0.00 in0.0 mm 0.00 in0.0 mm 0.61 in15.5 mm
05:55 PM 39.1°F3.9°C 37.8°F3.2°C 95% 5.0 mph S8.0 kmh S 7.0 mph11.3 kmh 29.42 in996.3 mb 0.00 in0.0 mm 0.00 in0.0 mm 0.61 in15.5 mm
05:56 PM 39.1°F3.9°C 37.8°F3.2°C 95% 3.0 mph S4.8 kmh S 7.0 mph11.3 kmh 29.42 in996.3 mb 0.00 in0.0 mm 0.00 in0.0 mm 0.61 in15.5 mm
05:57 PM 39.1°F3.9°C 37.8°F3.2°C 95% 3.0 mph S4.8 kmh S 5.0 mph8.0 kmh 29.42 in996.3 mb 0.00 in0.0 mm 0.00 in0.0 mm 0.61 in15.5 mm
05:58 PM 39.1°F3.9°C 37.8°F3.2°C 95% 3.0 mph S4.8 kmh S 5.0 mph8.0 kmh 29.42 in996.3 mb 0.00 in0.0 mm 0.00 in0.0 mm 0.61 in15.5 mm
05:59 PM 39.1°F3.9°C 37.8°F3.2°C 95% 2.0 mph S3.2 kmh S 4.0 mph6.4 kmh 29.42 in996.3 mb 0.00 in0.0 mm 0.00 in0.0 mm 0.61 in15.5 mm
06:00 PM 39.1°F3.9°C 37.8°F3.2°C 95% 3.0 mph S4.8 kmh S 4.0 mph6.4 kmh 29.42 in996.3 mb 0.00 in0.0 mm 0.00 in0.0 mm 0.61 in15.5 mm
06:01 PM 39.0°F3.9°C 37.7°F3.2°C 95% 3.0 mph S4.8 kmh S 4.0 mph6.4 kmh 29.42 in996.3 mb 0.00 in0.0 mm 0.00 in0.0 mm 0.61 in15.5 mm
06:02 PM 39.0°F3.9°C 37.7°F3.2°C 95% 2.0 mph S3.2 kmh S 3.0 mph4.8 kmh 29.42 in996.3 mb 0.00 in0.0 mm 0.00 in0.0 mm 0.61 in15.5 mm
06:03 PM 39.0°F3.9°C 37.7°F3.2°C 95% 1.0 mph S1.6 kmh S 3.0 mph4.8 kmh 29.42 in996.3 mb 0.00 in0.0 mm 0.00 in0.0 mm 0.61 in15.5 mm
06:04 PM 39.0°F3.9°C 37.7°F3.2°C 95% 2.0 mph S3.2 kmh S 4.0 mph6.4 kmh 29.42 in996.3 mb 0.00 in0.0 mm 0.00 in0.0 mm 0.61 in15.5 mm
06:05 PM 39.0°F3.9°C 37.7°F3.2°C 95% 3.0 mph SSW4.8 kmh SSW 4.0 mph6.4 kmh 29.42 in996.3 mb 0.00 in0.0 mm 0.00 in0.0 mm 0.61 in15.5 mm
06:06 PM 39.0°F3.9°C 37.7°F3.2°C 95% 3.0 mph SSW4.8 kmh SSW 4.0 mph6.4 kmh 29.42 in996.3 mb 0.01 in0.3 mm 0.60 in15.2 mm 0.61 in15.5 mm
06:07 PM 39.0°F3.9°C 37.7°F3.2°C 95% 3.0 mph SW4.8 kmh SW 4.0 mph6.4 kmh 29.42 in996.3 mb 0.01 in0.3 mm 0.00 in0.0 mm 0.61 in15.5 mm
06:08 PM 39.0°F3.9°C 37.6°F3.1°C 95% 2.0 mph SW3.2 kmh SW 3.0 mph4.8 kmh 29.42 in996.3 mb 0.01 in0.3 mm 0.00 in0.0 mm 0.61 in15.5 mm
06:09 PM 38.9°F3.8°C 37.6°F3.1°C 95% 3.0 mph SW4.8 kmh SW 4.0 mph6.4 kmh 29.42 in996.3 mb 0.01 in0.3 mm 0.00 in0.0 mm 0.61 in15.5 mm
06:10 PM 38.9°F3.8°C 37.6°F3.1°C 95% 3.0 mph SW4.8 kmh SW 4.0 mph6.4 kmh 29.42 in996.3 mb 0.01 in0.3 mm 0.00 in0.0 mm 0.61 in15.5 mm
06:11 PM 38.9°F3.8°C 37.6°F3.1°C 95% 3.0 mph SW4.8 kmh SW 4.0 mph6.4 kmh 29.42 in996.3 mb 0.01 in0.3 mm 0.00 in0.0 mm 0.61 in15.5 mm
06:12 PM 38.9°F3.8°C 37.6°F3.1°C 95% 3.0 mph SW4.8 kmh SW 4.0 mph6.4 kmh 29.42 in996.3 mb 0.01 in0.3 mm 0.00 in0.0 mm 0.61 in15.5 mm
06:13 PM 38.9°F3.8°C 37.6°F3.1°C 95% 3.0 mph SW4.8 kmh SW 5.0 mph8.0 kmh 29.42 in996.3 mb 0.01 in0.3 mm 0.00 in0.0 mm 0.61 in15.5 mm
06:14 PM 38.9°F3.8°C 37.6°F3.1°C 95% 5.0 mph SW8.0 kmh SW 6.0 mph9.7 kmh 29.42 in996.3 mb 0.01 in0.3 mm 0.00 in0.0 mm 0.61 in15.5 mm
06:15 PM 38.9°F3.8°C 37.6°F3.1°C 95% 5.0 mph SSW8.0 kmh SSW 6.0 mph9.7 kmh 29.42 in996.3 mb 0.01 in0.3 mm 0.00 in0.0 mm 0.61 in15.5 mm
06:16 PM 38.8°F3.8°C 37.5°F3.1°C 95% 4.0 mph SSW6.4 kmh SSW 5.0 mph8.0 kmh 29.42 in996.3 mb 0.01 in0.3 mm 0.00 in0.0 mm 0.61 in15.5 mm
06:17 PM 38.8°F3.8°C 37.5°F3.1°C 95% 3.0 mph SSW4.8 kmh SSW 6.0 mph9.7 kmh 29.42 in996.3 mb 0.01 in0.3 mm 0.00 in0.0 mm 0.61 in15.5 mm
06:18 PM 38.8°F3.8°C 37.5°F3.1°C 95% 5.0 mph SSW8.0 kmh SSW 6.0 mph9.7 kmh 29.42 in996.3 mb 0.01 in0.3 mm 0.00 in0.0 mm 0.61 in15.5 mm
06:19 PM 38.7°F3.7°C 37.4°F3.0°C 95% 4.0 mph SSW6.4 kmh SSW 6.0 mph9.7 kmh 29.42 in996.3 mb 0.01 in0.3 mm 0.00 in0.0 mm 0.61 in15.5 mm
06:20 PM 38.7°F3.7°C 37.4°F3.0°C 95% 5.0 mph SSW8.0 kmh SSW 6.0 mph9.7 kmh 29.42 in996.3 mb 0.01 in0.3 mm 0.00 in0.0 mm 0.61 in15.5 mm
06:21 PM 38.7°F3.7°C 37.4°F3.0°C 95% 5.0 mph SW8.0 kmh SW 6.0 mph9.7 kmh 29.42 in996.3 mb 0.02 in0.5 mm 0.60 in15.2 mm 0.62 in15.7 mm
06:22 PM 38.7°F3.7°C 37.4°F3.0°C 95% 4.0 mph SSW6.4 kmh SSW 6.0 mph9.7 kmh 29.42 in996.3 mb 0.02 in0.5 mm 0.00 in0.0 mm 0.62 in15.7 mm
06:23 PM 38.7°F3.7°C 37.4°F3.0°C 95% 5.0 mph SSW8.0 kmh SSW 7.0 mph11.3 kmh 29.42 in996.3 mb 0.02 in0.5 mm 0.00 in0.0 mm 0.62 in15.7 mm
06:24 PM 38.6°F3.7°C 37.3°F2.9°C 95% 3.0 mph SW4.8 kmh SW 7.0 mph11.3 kmh 29.42 in996.3 mb 0.02 in0.5 mm 0.00 in0.0 mm 0.62 in15.7 mm
06:25 PM 38.6°F3.7°C 37.3°F2.9°C 95% 4.0 mph WSW6.4 kmh WSW 6.0 mph9.7 kmh 29.42 in996.3 mb 0.02 in0.5 mm 0.00 in0.0 mm 0.62 in15.7 mm
06:26 PM 38.6°F3.7°C 37.3°F2.9°C 95% 4.0 mph SW6.4 kmh SW 7.0 mph11.3 kmh 29.42 in996.3 mb 0.02 in0.5 mm 0.00 in0.0 mm 0.62 in15.7 mm
06:27 PM 38.6°F3.7°C 37.2°F2.9°C 95% 5.0 mph SW8.0 kmh SW 8.0 mph12.9 kmh 29.42 in996.3 mb 0.02 in0.5 mm 0.00 in0.0 mm 0.62 in15.7 mm
06:28 PM 38.5°F3.6°C 37.2°F2.9°C 95% 5.0 mph SW8.0 kmh SW 8.0 mph12.9 kmh 29.43 in996.6 mb 0.02 in0.5 mm 0.00 in0.0 mm 0.62 in15.7 mm
06:29 PM 38.5°F3.6°C 37.2°F2.9°C 95% 5.0 mph SW8.0 kmh SW 7.0 mph11.3 kmh 29.43 in996.6 mb 0.02 in0.5 mm 0.00 in0.0 mm 0.62 in15.7 mm
06:30 PM 38.4°F3.6°C 37.1°F2.8°C 95% 4.0 mph SW6.4 kmh SW 6.0 mph9.7 kmh 29.43 in996.6 mb 0.02 in0.5 mm 0.00 in0.0 mm 0.62 in15.7 mm
06:31 PM 38.3°F3.5°C 37.0°F2.8°C 95% 2.0 mph SW3.2 kmh SW 5.0 mph8.0 kmh 29.43 in996.6 mb 0.02 in0.5 mm 0.00 in0.0 mm 0.63 in16.0 mm
06:32 PM 38.2°F3.4°C 36.9°F2.7°C 95% 5.0 mph WNW8.0 kmh WNW 9.0 mph14.5 kmh 29.43 in996.6 mb 0.02 in0.5 mm 0.00 in0.0 mm 0.63 in16.0 mm
06:33 PM 38.2°F3.4°C 36.9°F2.7°C 95% 6.0 mph W9.7 kmh W 9.0 mph14.5 kmh 29.43 in996.6 mb 0.02 in0.5 mm 0.00 in0.0 mm 0.63 in16.0 mm
06:34 PM 38.1°F3.4°C 36.8°F2.7°C 95% 3.0 mph W4.8 kmh W 9.0 mph14.5 kmh 29.43 in996.6 mb 0.02 in0.5 mm 0.00 in0.0 mm 0.63 in16.0 mm
06:35 PM 38.1°F3.4°C 36.8°F2.7°C 95% 5.0 mph WSW8.0 kmh WSW 7.0 mph11.3 kmh 29.43 in996.6 mb 0.02 in0.5 mm 0.00 in0.0 mm 0.63 in16.0 mm
06:36 PM 37.9°F3.3°C 36.6°F2.6°C 95% 4.0 mph W6.4 kmh W 8.0 mph12.9 kmh 29.43 in996.6 mb 0.02 in0.5 mm 0.00 in0.0 mm 0.63 in16.0 mm
06:37 PM 37.8°F3.2°C 36.5°F2.5°C 95% 7.0 mph WSW11.3 kmh WSW 8.0 mph12.9 kmh 29.43 in996.6 mb 0.02 in0.5 mm 0.00 in0.0 mm 0.63 in16.0 mm
06:38 PM 37.7°F3.2°C 36.4°F2.4°C 95% 6.0 mph W9.7 kmh W 8.0 mph12.9 kmh 29.43 in996.6 mb 0.03 in0.8 mm 0.60 in15.2 mm 0.64 in16.3 mm
06:39 PM 37.5°F3.1°C 36.2°F2.3°C 95% 5.0 mph W8.0 kmh W 8.0 mph12.9 kmh 29.43 in996.6 mb 0.03 in0.8 mm 0.00 in0.0 mm 0.64 in16.3 mm
06:40 PM 37.4°F3.0°C 36.1°F2.3°C 95% 5.0 mph W8.0 kmh W 8.0 mph12.9 kmh 29.43 in996.6 mb 0.03 in0.8 mm 0.00 in0.0 mm 0.64 in16.3 mm
06:41 PM 37.3°F2.9°C 36.0°F2.2°C 95% 7.0 mph W11.3 kmh W 8.0 mph12.9 kmh 29.43 in996.6 mb 0.03 in0.8 mm 0.00 in0.0 mm 0.64 in16.3 mm
06:42 PM 37.3°F2.9°C 36.0°F2.2°C 95% 5.0 mph W8.0 kmh W 8.0 mph12.9 kmh 29.43 in996.6 mb 0.03 in0.8 mm 0.00 in0.0 mm 0.64 in16.3 mm
06:43 PM 37.2°F2.9°C 35.9°F2.2°C 95% 5.0 mph W8.0 kmh W 7.0 mph11.3 kmh 29.43 in996.6 mb 0.03 in0.8 mm 0.00 in0.0 mm 0.64 in16.3 mm
06:44 PM 37.1°F2.8°C 35.8°F2.1°C 95% 6.0 mph W9.7 kmh W 8.0 mph12.9 kmh 29.43 in996.6 mb 0.04 in1.0 mm 0.60 in15.2 mm 0.65 in16.5 mm
06:45 PM 37.1°F2.8°C 35.8°F2.1°C 95% 7.0 mph W11.3 kmh W 8.0 mph12.9 kmh 29.43 in996.6 mb 0.04 in1.0 mm 0.00 in0.0 mm 0.65 in16.5 mm
06:46 PM 37.1°F2.8°C 35.8°F2.1°C 95% 5.0 mph WNW8.0 kmh WNW 8.0 mph12.9 kmh 29.43 in996.6 mb 0.04 in1.0 mm 0.00 in0.0 mm 0.65 in16.5 mm
06:47 PM 37.0°F2.8°C 35.7°F2.1°C 95% 6.0 mph WNW9.7 kmh WNW 7.0 mph11.3 kmh 29.43 in996.6 mb 0.04 in1.0 mm 0.00 in0.0 mm 0.65 in16.5 mm
06:48 PM 37.1°F2.8°C 35.8°F2.1°C 95% 6.0 mph WNW9.7 kmh WNW 7.0 mph11.3 kmh 29.43 in996.6 mb 0.05 in1.3 mm 0.60 in15.2 mm 0.65 in16.5 mm
06:49 PM 37.1°F2.8°C 35.8°F2.1°C 95% 3.0 mph W4.8 kmh W 7.0 mph11.3 kmh 29.43 in996.6 mb 0.05 in1.3 mm 0.00 in0.0 mm 0.65 in16.5 mm
06:50 PM 37.1°F2.8°C 35.9°F2.2°C 95% 6.0 mph W9.7 kmh W 7.0 mph11.3 kmh 29.43 in996.6 mb 0.05 in1.3 mm 0.00 in0.0 mm 0.65 in16.5 mm
06:51 PM 37.1°F2.8°C 36.1°F2.3°C 96% 6.0 mph W9.7 kmh W 7.0 mph11.3 kmh 29.43 in996.6 mb 0.05 in1.3 mm 0.00 in0.0 mm 0.65 in16.5 mm
06:52 PM 37.1°F2.8°C 36.1°F2.3°C 96% 4.0 mph NW6.4 kmh NW 8.0 mph12.9 kmh 29.43 in996.6 mb 0.06 in1.5 mm 0.60 in15.2 mm 0.66 in16.8 mm
06:53 PM 37.1°F2.8°C 36.1°F2.3°C 96% 4.0 mph NW6.4 kmh NW 8.0 mph12.9 kmh 29.43 in996.6 mb 0.06 in1.5 mm 0.00 in0.0 mm 0.66 in16.8 mm
06:54 PM 37.1°F2.8°C 36.1°F2.3°C 96% 7.0 mph NW11.3 kmh NW 8.0 mph12.9 kmh 29.43 in996.6 mb 0.06 in1.5 mm 0.00 in0.0 mm 0.66 in16.8 mm
06:55 PM 37.2°F2.9°C 36.1°F2.3°C 96% 7.0 mph WNW11.3 kmh WNW 8.0 mph12.9 kmh 29.43 in996.6 mb 0.06 in1.5 mm 0.00 in0.0 mm 0.67 in17.0 mm
06:56 PM 37.2°F2.9°C 36.2°F2.3°C 96% 5.0 mph WNW8.0 kmh WNW 8.0 mph12.9 kmh 29.43 in996.6 mb 0.06 in1.5 mm 0.00 in0.0 mm 0.67 in17.0 mm
06:57 PM 37.2°F2.9°C 36.2°F2.3°C 96% 4.0 mph NW6.4 kmh NW 8.0 mph12.9 kmh 29.43 in996.6 mb 0.06 in1.5 mm 0.00 in0.0 mm 0.67 in17.0 mm
06:58 PM 37.2°F2.9°C 36.2°F2.3°C 96% 6.0 mph WNW9.7 kmh WNW 10.0 mph16.1 kmh 29.43 in996.6 mb 0.06 in1.5 mm 0.00 in0.0 mm 0.67 in17.0 mm
06:59 PM 37.2°F2.9°C 35.9°F2.2°C 95% 6.0 mph W9.7 kmh W 10.0 mph16.1 kmh 29.43 in996.6 mb 0.06 in1.5 mm 0.00 in0.0 mm 0.67 in17.0 mm
07:00 PM 37.2°F2.9°C 35.9°F2.2°C 95% 4.0 mph WNW6.4 kmh WNW 7.0 mph11.3 kmh 29.43 in996.6 mb 0.06 in1.5 mm 0.00 in0.0 mm 0.67 in17.0 mm
07:01 PM 37.1°F2.8°C 35.8°F2.1°C 95% 7.0 mph W11.3 kmh W 9.0 mph14.5 kmh 29.43 in996.6 mb 0.07 in1.8 mm 0.60 in15.2 mm 0.68 in17.3 mm
07:02 PM 37.1°F2.8°C 35.8°F2.1°C 95% 5.0 mph NW8.0 kmh NW 9.0 mph14.5 kmh 29.43 in996.6 mb 0.07 in1.8 mm 0.00 in0.0 mm 0.68 in17.3 mm
07:03 PM 37.1°F2.8°C 35.8°F2.1°C 95% 3.0 mph WNW4.8 kmh WNW 7.0 mph11.3 kmh 29.43 in996.6 mb 0.07 in1.8 mm 0.00 in0.0 mm 0.68 in17.3 mm
07:04 PM 37.1°F2.8°C 35.8°F2.1°C 95% 5.0 mph WNW8.0 kmh WNW 7.0 mph11.3 kmh 29.43 in996.6 mb 0.07 in1.8 mm 0.00 in0.0 mm 0.68 in17.3 mm
07:05 PM 37.1°F2.8°C 35.8°F2.1°C 95% 5.0 mph WNW8.0 kmh WNW 8.0 mph12.9 kmh 29.43 in996.6 mb 0.07 in1.8 mm 0.00 in0.0 mm 0.68 in17.3 mm
07:06 PM 37.1°F2.8°C 35.8°F2.1°C 95% 6.0 mph WNW9.7 kmh WNW 8.0 mph12.9 kmh 29.43 in996.6 mb 0.07 in1.8 mm 0.00 in0.0 mm 0.69 in17.5 mm
07:07 PM 37.0°F2.8°C 35.8°F2.1°C 95% 6.0 mph WNW9.7 kmh WNW 8.0 mph12.9 kmh 29.44 in997.0 mb 0.07 in1.8 mm 0.00 in0.0 mm 0.69 in17.5 mm
07:08 PM 37.0°F2.8°C 36.0°F2.2°C 96% 3.0 mph WNW4.8 kmh WNW 8.0 mph12.9 kmh 29.44 in997.0 mb 0.07 in1.8 mm 0.00 in0.0 mm 0.69 in17.5 mm
07:09 PM 37.0°F2.8°C 36.0°F2.2°C 96% 2.0 mph WNW3.2 kmh WNW 5.0 mph8.0 kmh 29.44 in997.0 mb 0.07 in1.8 mm 0.00 in0.0 mm 0.69 in17.5 mm
07:10 PM 36.9°F2.7°C 35.9°F2.2°C 96% 4.0 mph WNW6.4 kmh WNW 6.0 mph9.7 kmh 29.44 in997.0 mb 0.07 in1.8 mm 0.00 in0.0 mm 0.69 in17.5 mm
07:11 PM 36.9°F2.7°C 35.9°F2.2°C 96% 4.0 mph WNW6.4 kmh WNW 6.0 mph9.7 kmh 29.44 in997.0 mb 0.07 in1.8 mm 0.00 in0.0 mm 0.69 in17.5 mm
07:12 PM 36.9°F2.7°C 35.9°F2.2°C 96% 6.0 mph WNW9.7 kmh WNW 8.0 mph12.9 kmh 29.44 in997.0 mb 0.07 in1.8 mm 0.00 in0.0 mm 0.69 in17.5 mm
07:13 PM 36.9°F2.7°C 35.9°F2.2°C 96% 3.0 mph NW4.8 kmh NW 8.0 mph12.9 kmh 29.44 in997.0 mb 0.08 in2.0 mm 0.60 in15.2 mm 0.69 in17.5 mm
07:14 PM 36.9°F2.7°C 35.9°F2.2°C 96% 4.0 mph WNW6.4 kmh WNW 6.0 mph9.7 kmh 29.44 in997.0 mb 0.08 in2.0 mm 0.00 in0.0 mm 0.69 in17.5 mm
07:15 PM 36.9°F2.7°C 35.9°F2.2°C 96% 5.0 mph WNW8.0 kmh WNW 6.0 mph9.7 kmh 29.44 in997.0 mb 0.08 in2.0 mm 0.00 in0.0 mm 0.69 in17.5 mm
07:16 PM 36.9°F2.7°C 35.9°F2.2°C 96% 5.0 mph WNW8.0 kmh WNW 7.0 mph11.3 kmh 29.44 in997.0 mb 0.08 in2.0 mm 0.00 in0.0 mm 0.69 in17.5 mm
07:17 PM 36.9°F2.7°C 35.9°F2.2°C 96% 5.0 mph WNW8.0 kmh WNW 7.0 mph11.3 kmh 29.44 in997.0 mb 0.08 in2.0 mm 0.00 in0.0 mm 0.69 in17.5 mm
07:18 PM 36.9°F2.7°C 35.9°F2.2°C 96% 3.0 mph WNW4.8 kmh WNW 7.0 mph11.3 kmh 29.44 in997.0 mb 0.09 in2.3 mm 0.60 in15.2 mm 0.70 in17.8 mm
07:19 PM 36.8°F2.7°C 35.8°F2.1°C 96% 4.0 mph WNW6.4 kmh WNW 7.0 mph11.3 kmh 29.44 in997.0 mb 0.09 in2.3 mm 0.00 in0.0 mm 0.70 in17.8 mm
07:20 PM 36.9°F2.7°C 35.9°F2.2°C 96% 4.0 mph WNW6.4 kmh WNW 7.0 mph11.3 kmh 29.44 in997.0 mb 0.09 in2.3 mm 0.00 in0.0 mm 0.70 in17.8 mm
07:21 PM 36.9°F2.7°C 35.9°F2.2°C 96% 2.0 mph WNW3.2 kmh WNW 6.0 mph9.7 kmh 29.44 in997.0 mb 0.08 in2.0 mm 0.00 in0.0 mm 0.70 in17.8 mm
07:22 PM 36.9°F2.7°C 35.9°F2.2°C 96% 3.0 mph NW4.8 kmh NW 4.0 mph6.4 kmh 29.44 in997.0 mb 0.08 in2.0 mm 0.00 in0.0 mm 0.70 in17.8 mm
07:23 PM 37.0°F2.8°C 35.9°F2.2°C 96% 3.0 mph NW4.8 kmh NW 4.0 mph6.4 kmh 29.44 in997.0 mb 0.08 in2.0 mm 0.00 in0.0 mm 0.70 in17.8 mm
07:24 PM 37.0°F2.8°C 36.0°F2.2°C 96% 4.0 mph NW6.4 kmh NW 5.0 mph8.0 kmh 29.44 in997.0 mb 0.09 in2.3 mm 0.60 in15.2 mm 0.71 in18.0 mm
07:25 PM 37.0°F2.8°C 36.0°F2.2°C 96% 3.0 mph WNW4.8 kmh WNW 5.0 mph8.0 kmh 29.44 in997.0 mb 0.09 in2.3 mm 0.00 in0.0 mm 0.71 in18.0 mm
07:26 PM 37.0°F2.8°C 36.0°F2.2°C 96% 3.0 mph WNW4.8 kmh WNW 4.0 mph6.4 kmh 29.44 in997.0 mb 0.09 in2.3 mm 0.00 in0.0 mm 0.71 in18.0 mm
07:27 PM 36.9°F2.7°C 35.9°F2.2°C 96% 4.0 mph WNW6.4 kmh WNW 4.0 mph6.4 kmh 29.44 in997.0 mb 0.09 in2.3 mm 0.00 in0.0 mm 0.71 in18.0 mm
07:28 PM 36.9°F2.7°C 35.9°F2.2°C 96% 3.0 mph WNW4.8 kmh WNW 4.0 mph6.4 kmh 29.44 in997.0 mb 0.09 in2.3 mm 0.00 in0.0 mm 0.72 in18.3 mm
07:29 PM 36.9°F2.7°C 35.9°F2.2°C 96% 3.0 mph WNW4.8 kmh WNW 4.0 mph6.4 kmh 29.44 in997.0 mb 0.09 in2.3 mm 0.00 in0.0 mm 0.72 in18.3 mm
07:30 PM 36.9°F2.7°C 35.9°F2.2°C 96% 2.0 mph NW3.2 kmh NW 4.0 mph6.4 kmh 29.44 in997.0 mb 0.09 in2.3 mm 0.00 in0.0 mm 0.72 in18.3 mm
07:31 PM 36.9°F2.7°C 35.9°F2.2°C 96% 2.0 mph NW3.2 kmh NW 4.0 mph6.4 kmh 29.44 in997.0 mb 0.09 in2.3 mm 0.00 in0.0 mm 0.72 in18.3 mm
07:32 PM 36.9°F2.7°C 35.8°F2.1°C 96% 1.0 mph NW1.6 kmh NW 4.0 mph6.4 kmh 29.45 in997.3 mb 0.09 in2.3 mm 0.00 in0.0 mm 0.72 in18.3 mm
07:33 PM 36.8°F2.7°C 35.8°F2.1°C 96% 3.0 mph NW4.8 kmh NW 4.0 mph6.4 kmh 29.45 in997.3 mb 0.09 in2.3 mm 0.00 in0.0 mm 0.72 in18.3 mm
07:34 PM 36.8°F2.7°C 35.8°F2.1°C 96% 2.0 mph NW3.2 kmh NW 4.0 mph6.4 kmh 29.45 in997.3 mb 0.09 in2.3 mm 0.00 in0.0 mm 0.72 in18.3 mm
07:35 PM 36.9°F2.7°C 35.9°F2.2°C 96% 3.0 mph NW4.8 kmh NW 4.0 mph6.4 kmh 29.45 in997.3 mb 0.09 in2.3 mm 0.00 in0.0 mm 0.72 in18.3 mm
07:36 PM 36.9°F2.7°C 35.9°F2.2°C 96% 3.0 mph NW4.8 kmh NW 4.0 mph6.4 kmh 29.44 in997.0 mb 0.09 in2.3 mm 0.00 in0.0 mm 0.72 in18.3 mm
07:37 PM 36.9°F2.7°C 35.9°F2.2°C 96% 2.0 mph NW3.2 kmh NW 4.0 mph6.4 kmh 29.45 in997.3 mb 0.09 in2.3 mm 0.00 in0.0 mm 0.72 in18.3 mm
07:38 PM 37.0°F2.8°C 35.9°F2.2°C 96% 2.0 mph NW3.2 kmh NW 4.0 mph6.4 kmh 29.45 in997.3 mb 0.09 in2.3 mm 0.00 in0.0 mm 0.72 in18.3 mm
07:39 PM 37.0°F2.8°C 36.0°F2.2°C 96% 2.0 mph NW3.2 kmh NW 4.0 mph6.4 kmh 29.44 in997.0 mb 0.09 in2.3 mm 0.00 in0.0 mm 0.72 in18.3 mm
07:40 PM 37.1°F2.8°C 36.1°F2.3°C 96% 2.0 mph NW3.2 kmh NW 3.0 mph4.8 kmh 29.45 in997.3 mb 0.09 in2.3 mm 0.00 in0.0 mm 0.73 in18.5 mm
07:41 PM 37.1°F2.8°C 36.1°F2.3°C 96% 1.0 mph NW1.6 kmh NW 3.0 mph4.8 kmh 29.45 in997.3 mb 0.09 in2.3 mm 0.00 in0.0 mm 0.73 in18.5 mm
07:42 PM 37.1°F2.8°C 36.1°F2.3°C 96% 4.0 mph NW6.4 kmh NW 7.0 mph11.3 kmh 29.44 in997.0 mb 0.09 in2.3 mm 0.00 in0.0 mm 0.73 in18.5 mm
07:43 PM 37.1°F2.8°C 36.1°F2.3°C 96% 5.0 mph NW8.0 kmh NW 7.0 mph11.3 kmh 29.44 in997.0 mb 0.09 in2.3 mm 0.00 in0.0 mm 0.73 in18.5 mm
07:44 PM 37.1°F2.8°C 36.1°F2.3°C 96% 4.0 mph NW6.4 kmh NW 7.0 mph11.3 kmh 29.44 in997.0 mb 0.09 in2.3 mm 0.00 in0.0 mm 0.73 in18.5 mm
07:45 PM 37.1°F2.8°C 36.1°F2.3°C 96% 4.0 mph NW6.4 kmh NW 7.0 mph11.3 kmh 29.44 in997.0 mb 0.09 in2.3 mm 0.00 in0.0 mm 0.73 in18.5 mm
07:46 PM 37.1°F2.8°C 36.1°F2.3°C 96% 3.0 mph NW4.8 kmh NW 5.0 mph8.0 kmh 29.44 in997.0 mb 0.09 in2.3 mm 0.00 in0.0 mm 0.73 in18.5 mm
07:47 PM 37.1°F2.8°C 36.1°F2.3°C 96% 2.0 mph NW3.2 kmh NW 5.0 mph8.0 kmh 29.44 in997.0 mb 0.09 in2.3 mm 0.00 in0.0 mm 0.74 in18.8 mm
07:48 PM 37.1°F2.8°C 36.0°F2.2°C 96% 4.0 mph NW6.4 kmh NW 7.0 mph11.3 kmh 29.44 in997.0 mb 0.09 in2.3 mm 0.00 in0.0 mm 0.74 in18.8 mm
07:49 PM 37.0°F2.8°C 36.0°F2.2°C 96% 4.0 mph NW6.4 kmh NW 7.0 mph11.3 kmh 29.44 in997.0 mb 0.09 in2.3 mm 0.00 in0.0 mm 0.74 in18.8 mm
07:50 PM 37.0°F2.8°C 36.0°F2.2°C 96% 1.0 mph NW1.6 kmh NW 5.0 mph8.0 kmh 29.44 in997.0 mb 0.09 in2.3 mm 0.00 in0.0 mm 0.74 in18.8 mm
07:51 PM 37.0°F2.8°C 36.0°F2.2°C 96% 1.0 mph NW1.6 kmh NW 3.0 mph4.8 kmh 29.44 in997.0 mb 0.09 in2.3 mm 0.00 in0.0 mm 0.75 in19.1 mm
07:52 PM 37.0°F2.8°C 36.0°F2.2°C 96% 1.0 mph NW1.6 kmh NW